<?xml version="1.0" encoding="UTF-8" standalone="no" ?>
<gpx xmlns="http://www.topografix.com/GPX/1/1" xmlns:xsi="http://www.w3.org/2001/XMLSchema-instance" xsi:schemaLocation="http://www.topografix.com/GPX/1/1 http://www.topografix.com/GPX/1/1/gpx.xsd" version="1.1" creator="VisuGPX - https://www.visugpx.com">
  <metadata>
    <name>Pégairolles - Mas Vieux - Monthaut</name>
    <desc><![CDATA[A tester rapidement]]></desc>
  </metadata>
  <trk>
    <name><![CDATA[05-JAN-16 16:28:21]]></name>
    <trkseg>
      <trkpt lat="43.81275" lon="3.59094">
        <ele>175.58</ele>
        <time>2016-01-05T08:30:31Z</time>
      </trkpt>
      <trkpt lat="43.81271" lon="3.59099">
        <ele>176.54</ele>
        <time>2016-01-05T08:31:23Z</time>
      </trkpt>
      <trkpt lat="43.81259" lon="3.59104">
        <ele>176.06</ele>
        <time>2016-01-05T08:31:35Z</time>
      </trkpt>
      <trkpt lat="43.81249" lon="3.59113">
        <ele>175.58</ele>
        <time>2016-01-05T08:31:45Z</time>
      </trkpt>
      <trkpt lat="43.8124" lon="3.59121">
        <ele>175.1</ele>
        <time>2016-01-05T08:31:54Z</time>
      </trkpt>
      <trkpt lat="43.81228" lon="3.59125">
        <ele>174.62</ele>
        <time>2016-01-05T08:32:04Z</time>
      </trkpt>
      <trkpt lat="43.81218" lon="3.59126">
        <ele>174.62</ele>
        <time>2016-01-05T08:32:12Z</time>
      </trkpt>
      <trkpt lat="43.81211" lon="3.59128">
        <ele>175.1</ele>
        <time>2016-01-05T08:32:20Z</time>
      </trkpt>
      <trkpt lat="43.81202" lon="3.59131">
        <ele>174.62</ele>
        <time>2016-01-05T08:32:29Z</time>
      </trkpt>
      <trkpt lat="43.81192" lon="3.59136">
        <ele>174.62</ele>
        <time>2016-01-05T08:32:38Z</time>
      </trkpt>
      <trkpt lat="43.81182" lon="3.59141">
        <ele>175.1</ele>
        <time>2016-01-05T08:32:47Z</time>
      </trkpt>
      <trkpt lat="43.81172" lon="3.59145">
        <ele>174.62</ele>
        <time>2016-01-05T08:32:56Z</time>
      </trkpt>
      <trkpt lat="43.81161" lon="3.59151">
        <ele>175.1</ele>
        <time>2016-01-05T08:33:05Z</time>
      </trkpt>
      <trkpt lat="43.81152" lon="3.59158">
        <ele>174.62</ele>
        <time>2016-01-05T08:33:14Z</time>
      </trkpt>
      <trkpt lat="43.81142" lon="3.59163">
        <ele>174.62</ele>
        <time>2016-01-05T08:33:23Z</time>
      </trkpt>
      <trkpt lat="43.81132" lon="3.59166">
        <ele>174.62</ele>
        <time>2016-01-05T08:33:32Z</time>
      </trkpt>
      <trkpt lat="43.81122" lon="3.59171">
        <ele>174.62</ele>
        <time>2016-01-05T08:33:41Z</time>
      </trkpt>
      <trkpt lat="43.81114" lon="3.59178">
        <ele>175.1</ele>
        <time>2016-01-05T08:33:50Z</time>
      </trkpt>
      <trkpt lat="43.81112" lon="3.59193">
        <ele>175.1</ele>
        <time>2016-01-05T08:33:59Z</time>
      </trkpt>
      <trkpt lat="43.81106" lon="3.59205">
        <ele>175.58</ele>
        <time>2016-01-05T08:34:10Z</time>
      </trkpt>
      <trkpt lat="43.81095" lon="3.59206">
        <ele>174.62</ele>
        <time>2016-01-05T08:34:21Z</time>
      </trkpt>
      <trkpt lat="43.81083" lon="3.59205">
        <ele>174.62</ele>
        <time>2016-01-05T08:34:30Z</time>
      </trkpt>
      <trkpt lat="43.81074" lon="3.59206">
        <ele>174.62</ele>
        <time>2016-01-05T08:34:38Z</time>
      </trkpt>
      <trkpt lat="43.81064" lon="3.59209">
        <ele>174.62</ele>
        <time>2016-01-05T08:34:46Z</time>
      </trkpt>
      <trkpt lat="43.81054" lon="3.59215">
        <ele>174.62</ele>
        <time>2016-01-05T08:34:55Z</time>
      </trkpt>
      <trkpt lat="43.81051" lon="3.59228">
        <ele>175.58</ele>
        <time>2016-01-05T08:35:10Z</time>
      </trkpt>
      <trkpt lat="43.81052" lon="3.59245">
        <ele>178.46</ele>
        <time>2016-01-05T08:35:26Z</time>
      </trkpt>
      <trkpt lat="43.81057" lon="3.5926">
        <ele>179.9</ele>
        <time>2016-01-05T08:35:40Z</time>
      </trkpt>
      <trkpt lat="43.81051" lon="3.59273">
        <ele>182.79</ele>
        <time>2016-01-05T08:35:53Z</time>
      </trkpt>
      <trkpt lat="43.81046" lon="3.59284">
        <ele>184.23</ele>
        <time>2016-01-05T08:36:05Z</time>
      </trkpt>
      <trkpt lat="43.81038" lon="3.59291">
        <ele>184.23</ele>
        <time>2016-01-05T08:36:15Z</time>
      </trkpt>
      <trkpt lat="43.81029" lon="3.59295">
        <ele>184.71</ele>
        <time>2016-01-05T08:36:26Z</time>
      </trkpt>
      <trkpt lat="43.81034" lon="3.59302">
        <ele>186.15</ele>
        <time>2016-01-05T08:36:39Z</time>
      </trkpt>
      <trkpt lat="43.81044" lon="3.59307">
        <ele>186.15</ele>
        <time>2016-01-05T08:36:49Z</time>
      </trkpt>
      <trkpt lat="43.81052" lon="3.59313">
        <ele>186.63</ele>
        <time>2016-01-05T08:37:00Z</time>
      </trkpt>
      <trkpt lat="43.81043" lon="3.59318">
        <ele>187.59</ele>
        <time>2016-01-05T08:37:11Z</time>
      </trkpt>
      <trkpt lat="43.81034" lon="3.59318">
        <ele>189.04</ele>
        <time>2016-01-05T08:37:38Z</time>
      </trkpt>
      <trkpt lat="43.81026" lon="3.59315">
        <ele>189.52</ele>
        <time>2016-01-05T08:37:56Z</time>
      </trkpt>
      <trkpt lat="43.81015" lon="3.59311">
        <ele>190.48</ele>
        <time>2016-01-05T08:38:09Z</time>
      </trkpt>
      <trkpt lat="43.81004" lon="3.59309">
        <ele>192.4</ele>
        <time>2016-01-05T08:38:20Z</time>
      </trkpt>
      <trkpt lat="43.80994" lon="3.59314">
        <ele>191.92</ele>
        <time>2016-01-05T08:38:29Z</time>
      </trkpt>
      <trkpt lat="43.80984" lon="3.59319">
        <ele>192.4</ele>
        <time>2016-01-05T08:38:39Z</time>
      </trkpt>
      <trkpt lat="43.80974" lon="3.59329">
        <ele>191.44</ele>
        <time>2016-01-05T08:38:49Z</time>
      </trkpt>
      <trkpt lat="43.80968" lon="3.59342">
        <ele>190</ele>
        <time>2016-01-05T08:38:58Z</time>
      </trkpt>
      <trkpt lat="43.80962" lon="3.59355">
        <ele>189.52</ele>
        <time>2016-01-05T08:39:07Z</time>
      </trkpt>
      <trkpt lat="43.80953" lon="3.59358">
        <ele>189.04</ele>
        <time>2016-01-05T08:39:15Z</time>
      </trkpt>
      <trkpt lat="43.80942" lon="3.59363">
        <ele>188.56</ele>
        <time>2016-01-05T08:39:24Z</time>
      </trkpt>
      <trkpt lat="43.80931" lon="3.59371">
        <ele>188.56</ele>
        <time>2016-01-05T08:39:34Z</time>
      </trkpt>
      <trkpt lat="43.80921" lon="3.59379">
        <ele>187.59</ele>
        <time>2016-01-05T08:39:43Z</time>
      </trkpt>
      <trkpt lat="43.80912" lon="3.59383">
        <ele>187.59</ele>
        <time>2016-01-05T08:39:51Z</time>
      </trkpt>
      <trkpt lat="43.80903" lon="3.5939">
        <ele>187.59</ele>
        <time>2016-01-05T08:40:01Z</time>
      </trkpt>
      <trkpt lat="43.80892" lon="3.59399">
        <ele>186.15</ele>
        <time>2016-01-05T08:40:12Z</time>
      </trkpt>
      <trkpt lat="43.80882" lon="3.59404">
        <ele>186.15</ele>
        <time>2016-01-05T08:40:22Z</time>
      </trkpt>
      <trkpt lat="43.80873" lon="3.59394">
        <ele>186.63</ele>
        <time>2016-01-05T08:40:33Z</time>
      </trkpt>
      <trkpt lat="43.80865" lon="3.59382">
        <ele>187.11</ele>
        <time>2016-01-05T08:40:42Z</time>
      </trkpt>
      <trkpt lat="43.80857" lon="3.59378">
        <ele>187.59</ele>
        <time>2016-01-05T08:41:31Z</time>
      </trkpt>
      <trkpt lat="43.80858" lon="3.5939">
        <ele>188.56</ele>
        <time>2016-01-05T08:41:42Z</time>
      </trkpt>
      <trkpt lat="43.80857" lon="3.59404">
        <ele>189.52</ele>
        <time>2016-01-05T08:41:51Z</time>
      </trkpt>
      <trkpt lat="43.80862" lon="3.59419">
        <ele>190.48</ele>
        <time>2016-01-05T08:42:02Z</time>
      </trkpt>
      <trkpt lat="43.80865" lon="3.59432">
        <ele>190</ele>
        <time>2016-01-05T08:42:14Z</time>
      </trkpt>
      <trkpt lat="43.80865" lon="3.5945">
        <ele>192.88</ele>
        <time>2016-01-05T08:42:31Z</time>
      </trkpt>
      <trkpt lat="43.80869" lon="3.59465">
        <ele>195.28</ele>
        <time>2016-01-05T08:42:46Z</time>
      </trkpt>
      <trkpt lat="43.80879" lon="3.59472">
        <ele>195.77</ele>
        <time>2016-01-05T08:43:00Z</time>
      </trkpt>
      <trkpt lat="43.80888" lon="3.59483">
        <ele>199.13</ele>
        <time>2016-01-05T08:43:19Z</time>
      </trkpt>
      <trkpt lat="43.80899" lon="3.59487">
        <ele>203.46</ele>
        <time>2016-01-05T08:43:35Z</time>
      </trkpt>
      <trkpt lat="43.80901" lon="3.59499">
        <ele>205.38</ele>
        <time>2016-01-05T08:43:49Z</time>
      </trkpt>
      <trkpt lat="43.80896" lon="3.59511">
        <ele>206.34</ele>
        <time>2016-01-05T08:44:02Z</time>
      </trkpt>
      <trkpt lat="43.80886" lon="3.59522">
        <ele>206.34</ele>
        <time>2016-01-05T08:44:16Z</time>
      </trkpt>
      <trkpt lat="43.80884" lon="3.59535">
        <ele>207.78</ele>
        <time>2016-01-05T08:44:28Z</time>
      </trkpt>
      <trkpt lat="43.80889" lon="3.59548">
        <ele>209.22</ele>
        <time>2016-01-05T08:44:40Z</time>
      </trkpt>
      <trkpt lat="43.80885" lon="3.59549">
        <ele>212.11</ele>
        <time>2016-01-05T08:44:55Z</time>
      </trkpt>
      <trkpt lat="43.80875" lon="3.59542">
        <ele>212.59</ele>
        <time>2016-01-05T08:45:08Z</time>
      </trkpt>
      <trkpt lat="43.80875" lon="3.59551">
        <ele>217.4</ele>
        <time>2016-01-05T08:45:22Z</time>
      </trkpt>
      <trkpt lat="43.80877" lon="3.59565">
        <ele>218.36</ele>
        <time>2016-01-05T08:45:34Z</time>
      </trkpt>
      <trkpt lat="43.80873" lon="3.59574">
        <ele>220.76</ele>
        <time>2016-01-05T08:45:50Z</time>
      </trkpt>
      <trkpt lat="43.80863" lon="3.59566">
        <ele>223.16</ele>
        <time>2016-01-05T08:46:06Z</time>
      </trkpt>
      <trkpt lat="43.80855" lon="3.59558">
        <ele>224.61</ele>
        <time>2016-01-05T08:46:40Z</time>
      </trkpt>
      <trkpt lat="43.80843" lon="3.59556">
        <ele>226.05</ele>
        <time>2016-01-05T08:46:54Z</time>
      </trkpt>
      <trkpt lat="43.80838" lon="3.5956">
        <ele>228.45</ele>
        <time>2016-01-05T08:47:07Z</time>
      </trkpt>
      <trkpt lat="43.80843" lon="3.59574">
        <ele>230.85</ele>
        <time>2016-01-05T08:47:22Z</time>
      </trkpt>
      <trkpt lat="43.80847" lon="3.59588">
        <ele>232.78</ele>
        <time>2016-01-05T08:47:35Z</time>
      </trkpt>
      <trkpt lat="43.80843" lon="3.59603">
        <ele>235.18</ele>
        <time>2016-01-05T08:47:48Z</time>
      </trkpt>
      <trkpt lat="43.80834" lon="3.59596">
        <ele>236.14</ele>
        <time>2016-01-05T08:48:02Z</time>
      </trkpt>
      <trkpt lat="43.80825" lon="3.59591">
        <ele>236.62</ele>
        <time>2016-01-05T08:48:17Z</time>
      </trkpt>
      <trkpt lat="43.80817" lon="3.596">
        <ele>239.99</ele>
        <time>2016-01-05T08:48:33Z</time>
      </trkpt>
      <trkpt lat="43.80807" lon="3.59599">
        <ele>242.87</ele>
        <time>2016-01-05T08:48:47Z</time>
      </trkpt>
      <trkpt lat="43.80795" lon="3.59596">
        <ele>244.79</ele>
        <time>2016-01-05T08:49:03Z</time>
      </trkpt>
      <trkpt lat="43.80782" lon="3.59596">
        <ele>247.2</ele>
        <time>2016-01-05T08:49:18Z</time>
      </trkpt>
      <trkpt lat="43.8077" lon="3.59593">
        <ele>249.12</ele>
        <time>2016-01-05T08:49:34Z</time>
      </trkpt>
      <trkpt lat="43.8076" lon="3.59595">
        <ele>250.56</ele>
        <time>2016-01-05T08:49:45Z</time>
      </trkpt>
      <trkpt lat="43.80749" lon="3.59599">
        <ele>250.08</ele>
        <time>2016-01-05T08:49:57Z</time>
      </trkpt>
      <trkpt lat="43.80734" lon="3.59606">
        <ele>251.52</ele>
        <time>2016-01-05T08:50:16Z</time>
      </trkpt>
      <trkpt lat="43.80728" lon="3.59614">
        <ele>251.04</ele>
        <time>2016-01-05T08:51:10Z</time>
      </trkpt>
      <trkpt lat="43.80722" lon="3.59628">
        <ele>251.52</ele>
        <time>2016-01-05T08:51:22Z</time>
      </trkpt>
      <trkpt lat="43.80718" lon="3.59649">
        <ele>252.96</ele>
        <time>2016-01-05T08:52:20Z</time>
      </trkpt>
      <trkpt lat="43.80717" lon="3.59665">
        <ele>254.41</ele>
        <time>2016-01-05T08:52:35Z</time>
      </trkpt>
      <trkpt lat="43.80719" lon="3.59683">
        <ele>255.85</ele>
        <time>2016-01-05T08:52:47Z</time>
      </trkpt>
      <trkpt lat="43.80721" lon="3.59698">
        <ele>259.69</ele>
        <time>2016-01-05T08:52:59Z</time>
      </trkpt>
      <trkpt lat="43.80721" lon="3.59713">
        <ele>261.62</ele>
        <time>2016-01-05T08:53:13Z</time>
      </trkpt>
      <trkpt lat="43.8072" lon="3.59729">
        <ele>264.5</ele>
        <time>2016-01-05T08:53:26Z</time>
      </trkpt>
      <trkpt lat="43.80713" lon="3.59743">
        <ele>266.42</ele>
        <time>2016-01-05T08:53:39Z</time>
      </trkpt>
      <trkpt lat="43.80705" lon="3.59755">
        <ele>267.86</ele>
        <time>2016-01-05T08:53:51Z</time>
      </trkpt>
      <trkpt lat="43.80696" lon="3.59764">
        <ele>267.38</ele>
        <time>2016-01-05T08:54:01Z</time>
      </trkpt>
      <trkpt lat="43.80686" lon="3.59769">
        <ele>268.83</ele>
        <time>2016-01-05T08:54:12Z</time>
      </trkpt>
      <trkpt lat="43.80674" lon="3.59775">
        <ele>271.23</ele>
        <time>2016-01-05T08:54:28Z</time>
      </trkpt>
      <trkpt lat="43.80679" lon="3.59761">
        <ele>273.63</ele>
        <time>2016-01-05T08:54:43Z</time>
      </trkpt>
      <trkpt lat="43.80669" lon="3.59758">
        <ele>276.52</ele>
        <time>2016-01-05T08:54:59Z</time>
      </trkpt>
      <trkpt lat="43.80657" lon="3.59761">
        <ele>278.44</ele>
        <time>2016-01-05T08:55:13Z</time>
      </trkpt>
      <trkpt lat="43.80647" lon="3.5977">
        <ele>278.44</ele>
        <time>2016-01-05T08:55:25Z</time>
      </trkpt>
      <trkpt lat="43.80638" lon="3.59773">
        <ele>278.92</ele>
        <time>2016-01-05T08:55:36Z</time>
      </trkpt>
      <trkpt lat="43.80628" lon="3.5978">
        <ele>277.48</ele>
        <time>2016-01-05T08:57:07Z</time>
      </trkpt>
      <trkpt lat="43.80618" lon="3.59786">
        <ele>277</ele>
        <time>2016-01-05T08:57:19Z</time>
      </trkpt>
      <trkpt lat="43.80607" lon="3.5979">
        <ele>277.96</ele>
        <time>2016-01-05T08:57:30Z</time>
      </trkpt>
      <trkpt lat="43.80597" lon="3.59794">
        <ele>277.96</ele>
        <time>2016-01-05T08:57:40Z</time>
      </trkpt>
      <trkpt lat="43.80587" lon="3.59796">
        <ele>278.44</ele>
        <time>2016-01-05T08:57:50Z</time>
      </trkpt>
      <trkpt lat="43.80577" lon="3.59801">
        <ele>278.44</ele>
        <time>2016-01-05T08:58:02Z</time>
      </trkpt>
      <trkpt lat="43.80562" lon="3.59808">
        <ele>278.44</ele>
        <time>2016-01-05T08:58:16Z</time>
      </trkpt>
      <trkpt lat="43.80549" lon="3.59807">
        <ele>279.88</ele>
        <time>2016-01-05T08:58:29Z</time>
      </trkpt>
      <trkpt lat="43.80534" lon="3.59799">
        <ele>279.88</ele>
        <time>2016-01-05T08:58:45Z</time>
      </trkpt>
      <trkpt lat="43.80521" lon="3.59795">
        <ele>280.84</ele>
        <time>2016-01-05T08:58:56Z</time>
      </trkpt>
      <trkpt lat="43.80509" lon="3.59793">
        <ele>282.77</ele>
        <time>2016-01-05T08:59:08Z</time>
      </trkpt>
      <trkpt lat="43.80496" lon="3.5979">
        <ele>287.57</ele>
        <time>2016-01-05T08:59:21Z</time>
      </trkpt>
      <trkpt lat="43.80481" lon="3.59788">
        <ele>290.46</ele>
        <time>2016-01-05T08:59:37Z</time>
      </trkpt>
      <trkpt lat="43.8047" lon="3.59797">
        <ele>290.94</ele>
        <time>2016-01-05T08:59:51Z</time>
      </trkpt>
      <trkpt lat="43.80467" lon="3.59813">
        <ele>290.94</ele>
        <time>2016-01-05T09:00:05Z</time>
      </trkpt>
      <trkpt lat="43.80465" lon="3.59829">
        <ele>290.94</ele>
        <time>2016-01-05T09:00:18Z</time>
      </trkpt>
      <trkpt lat="43.80463" lon="3.59847">
        <ele>293.34</ele>
        <time>2016-01-05T09:00:32Z</time>
      </trkpt>
      <trkpt lat="43.80459" lon="3.59865">
        <ele>294.78</ele>
        <time>2016-01-05T09:00:46Z</time>
      </trkpt>
      <trkpt lat="43.80457" lon="3.5988">
        <ele>297.18</ele>
        <time>2016-01-05T09:01:03Z</time>
      </trkpt>
      <trkpt lat="43.80458" lon="3.59897">
        <ele>299.11</ele>
        <time>2016-01-05T09:01:17Z</time>
      </trkpt>
      <trkpt lat="43.80459" lon="3.59913">
        <ele>300.07</ele>
        <time>2016-01-05T09:01:30Z</time>
      </trkpt>
      <trkpt lat="43.80459" lon="3.59929">
        <ele>301.51</ele>
        <time>2016-01-05T09:01:43Z</time>
      </trkpt>
      <trkpt lat="43.80453" lon="3.59917">
        <ele>303.91</ele>
        <time>2016-01-05T09:01:58Z</time>
      </trkpt>
      <trkpt lat="43.80446" lon="3.59924">
        <ele>307.28</ele>
        <time>2016-01-05T09:02:15Z</time>
      </trkpt>
      <trkpt lat="43.80445" lon="3.5994">
        <ele>309.2</ele>
        <time>2016-01-05T09:02:33Z</time>
      </trkpt>
      <trkpt lat="43.80449" lon="3.59956">
        <ele>310.16</ele>
        <time>2016-01-05T09:02:47Z</time>
      </trkpt>
      <trkpt lat="43.80454" lon="3.59969">
        <ele>309.68</ele>
        <time>2016-01-05T09:02:59Z</time>
      </trkpt>
      <trkpt lat="43.80458" lon="3.59983">
        <ele>311.12</ele>
        <time>2016-01-05T09:03:09Z</time>
      </trkpt>
      <trkpt lat="43.80461" lon="3.59998">
        <ele>313.05</ele>
        <time>2016-01-05T09:03:20Z</time>
      </trkpt>
      <trkpt lat="43.80453" lon="3.59996">
        <ele>317.37</ele>
        <time>2016-01-05T09:03:33Z</time>
      </trkpt>
      <trkpt lat="43.80446" lon="3.59986">
        <ele>319.3</ele>
        <time>2016-01-05T09:03:47Z</time>
      </trkpt>
      <trkpt lat="43.80436" lon="3.59976">
        <ele>319.78</ele>
        <time>2016-01-05T09:04:01Z</time>
      </trkpt>
      <trkpt lat="43.80428" lon="3.59973">
        <ele>320.74</ele>
        <time>2016-01-05T09:04:18Z</time>
      </trkpt>
      <trkpt lat="43.80434" lon="3.59986">
        <ele>323.62</ele>
        <time>2016-01-05T09:04:35Z</time>
      </trkpt>
      <trkpt lat="43.80438" lon="3.60004">
        <ele>325.54</ele>
        <time>2016-01-05T09:04:50Z</time>
      </trkpt>
      <trkpt lat="43.8044" lon="3.60019">
        <ele>327.95</ele>
        <time>2016-01-05T09:05:03Z</time>
      </trkpt>
      <trkpt lat="43.80444" lon="3.60035">
        <ele>329.39</ele>
        <time>2016-01-05T09:05:16Z</time>
      </trkpt>
      <trkpt lat="43.80446" lon="3.60048">
        <ele>330.83</ele>
        <time>2016-01-05T09:05:28Z</time>
      </trkpt>
      <trkpt lat="43.80452" lon="3.60061">
        <ele>334.2</ele>
        <time>2016-01-05T09:05:41Z</time>
      </trkpt>
      <trkpt lat="43.80458" lon="3.60074">
        <ele>334.68</ele>
        <time>2016-01-05T09:05:54Z</time>
      </trkpt>
      <trkpt lat="43.80461" lon="3.60089">
        <ele>336.6</ele>
        <time>2016-01-05T09:06:06Z</time>
      </trkpt>
      <trkpt lat="43.8046" lon="3.60105">
        <ele>341.41</ele>
        <time>2016-01-05T09:06:19Z</time>
      </trkpt>
      <trkpt lat="43.8045" lon="3.6011">
        <ele>340.92</ele>
        <time>2016-01-05T09:06:31Z</time>
      </trkpt>
      <trkpt lat="43.8044" lon="3.60112">
        <ele>342.37</ele>
        <time>2016-01-05T09:06:43Z</time>
      </trkpt>
      <trkpt lat="43.80429" lon="3.60112">
        <ele>344.29</ele>
        <time>2016-01-05T09:06:57Z</time>
      </trkpt>
      <trkpt lat="43.80417" lon="3.60113">
        <ele>346.69</ele>
        <time>2016-01-05T09:07:12Z</time>
      </trkpt>
      <trkpt lat="43.80406" lon="3.60114">
        <ele>348.62</ele>
        <time>2016-01-05T09:07:28Z</time>
      </trkpt>
      <trkpt lat="43.80393" lon="3.60114">
        <ele>351.5</ele>
        <time>2016-01-05T09:07:45Z</time>
      </trkpt>
      <trkpt lat="43.80383" lon="3.60106">
        <ele>353.9</ele>
        <time>2016-01-05T09:08:05Z</time>
      </trkpt>
      <trkpt lat="43.8039" lon="3.60097">
        <ele>357.27</ele>
        <time>2016-01-05T09:08:28Z</time>
      </trkpt>
      <trkpt lat="43.80384" lon="3.60093">
        <ele>359.67</ele>
        <time>2016-01-05T09:08:44Z</time>
      </trkpt>
      <trkpt lat="43.8037" lon="3.60089">
        <ele>361.11</ele>
        <time>2016-01-05T09:09:02Z</time>
      </trkpt>
      <trkpt lat="43.80355" lon="3.60094">
        <ele>363.52</ele>
        <time>2016-01-05T09:09:23Z</time>
      </trkpt>
      <trkpt lat="43.80342" lon="3.60097">
        <ele>366.88</ele>
        <time>2016-01-05T09:09:45Z</time>
      </trkpt>
      <trkpt lat="43.80332" lon="3.60086">
        <ele>372.65</ele>
        <time>2016-01-05T09:10:18Z</time>
      </trkpt>
      <trkpt lat="43.80328" lon="3.60073">
        <ele>375.53</ele>
        <time>2016-01-05T09:10:40Z</time>
      </trkpt>
      <trkpt lat="43.8032" lon="3.60062">
        <ele>381.3</ele>
        <time>2016-01-05T09:11:06Z</time>
      </trkpt>
      <trkpt lat="43.80312" lon="3.60067">
        <ele>385.15</ele>
        <time>2016-01-05T09:11:24Z</time>
      </trkpt>
      <trkpt lat="43.80307" lon="3.60053">
        <ele>388.99</ele>
        <time>2016-01-05T09:15:12Z</time>
      </trkpt>
      <trkpt lat="43.80303" lon="3.60066">
        <ele>388.51</ele>
        <time>2016-01-05T09:15:22Z</time>
      </trkpt>
      <trkpt lat="43.803" lon="3.6008">
        <ele>389.95</ele>
        <time>2016-01-05T09:15:34Z</time>
      </trkpt>
      <trkpt lat="43.80295" lon="3.60093">
        <ele>393.32</ele>
        <time>2016-01-05T09:15:45Z</time>
      </trkpt>
      <trkpt lat="43.80294" lon="3.60112">
        <ele>393.8</ele>
        <time>2016-01-05T09:15:59Z</time>
      </trkpt>
      <trkpt lat="43.8029" lon="3.60129">
        <ele>395.24</ele>
        <time>2016-01-05T09:16:14Z</time>
      </trkpt>
      <trkpt lat="43.80282" lon="3.60138">
        <ele>397.64</ele>
        <time>2016-01-05T09:16:26Z</time>
      </trkpt>
      <trkpt lat="43.80272" lon="3.60146">
        <ele>400.05</ele>
        <time>2016-01-05T09:16:43Z</time>
      </trkpt>
      <trkpt lat="43.80265" lon="3.60158">
        <ele>402.93</ele>
        <time>2016-01-05T09:17:02Z</time>
      </trkpt>
      <trkpt lat="43.80259" lon="3.60166">
        <ele>406.29</ele>
        <time>2016-01-05T09:17:19Z</time>
      </trkpt>
      <trkpt lat="43.8025" lon="3.60159">
        <ele>409.66</ele>
        <time>2016-01-05T09:17:38Z</time>
      </trkpt>
      <trkpt lat="43.8024" lon="3.60149">
        <ele>411.1</ele>
        <time>2016-01-05T09:17:54Z</time>
      </trkpt>
      <trkpt lat="43.80234" lon="3.60134">
        <ele>413.02</ele>
        <time>2016-01-05T09:18:29Z</time>
      </trkpt>
      <trkpt lat="43.8024" lon="3.60116">
        <ele>415.91</ele>
        <time>2016-01-05T09:18:59Z</time>
      </trkpt>
      <trkpt lat="43.80246" lon="3.60102">
        <ele>418.31</ele>
        <time>2016-01-05T09:19:17Z</time>
      </trkpt>
      <trkpt lat="43.8025" lon="3.60087">
        <ele>418.31</ele>
        <time>2016-01-05T09:19:30Z</time>
      </trkpt>
      <trkpt lat="43.80257" lon="3.60074">
        <ele>417.35</ele>
        <time>2016-01-05T09:19:42Z</time>
      </trkpt>
      <trkpt lat="43.80257" lon="3.60059">
        <ele>416.87</ele>
        <time>2016-01-05T09:19:57Z</time>
      </trkpt>
      <trkpt lat="43.80253" lon="3.60045">
        <ele>418.31</ele>
        <time>2016-01-05T09:20:15Z</time>
      </trkpt>
      <trkpt lat="43.80256" lon="3.6003">
        <ele>415.91</ele>
        <time>2016-01-05T09:20:35Z</time>
      </trkpt>
      <trkpt lat="43.80253" lon="3.60016">
        <ele>415.91</ele>
        <time>2016-01-05T09:20:53Z</time>
      </trkpt>
      <trkpt lat="43.80253" lon="3.59998">
        <ele>417.35</ele>
        <time>2016-01-05T09:21:13Z</time>
      </trkpt>
      <trkpt lat="43.80246" lon="3.59982">
        <ele>422.64</ele>
        <time>2016-01-05T09:21:48Z</time>
      </trkpt>
      <trkpt lat="43.80241" lon="3.59967">
        <ele>427.44</ele>
        <time>2016-01-05T09:22:31Z</time>
      </trkpt>
      <trkpt lat="43.8024" lon="3.59955">
        <ele>430.33</ele>
        <time>2016-01-05T09:23:04Z</time>
      </trkpt>
      <trkpt lat="43.80242" lon="3.59943">
        <ele>432.73</ele>
        <time>2016-01-05T09:23:49Z</time>
      </trkpt>
      <trkpt lat="43.80233" lon="3.59937">
        <ele>435.61</ele>
        <time>2016-01-05T09:24:13Z</time>
      </trkpt>
      <trkpt lat="43.8023" lon="3.59924">
        <ele>433.69</ele>
        <time>2016-01-05T09:24:28Z</time>
      </trkpt>
      <trkpt lat="43.80228" lon="3.59906">
        <ele>435.13</ele>
        <time>2016-01-05T09:25:50Z</time>
      </trkpt>
      <trkpt lat="43.80225" lon="3.59895">
        <ele>434.65</ele>
        <time>2016-01-05T09:26:06Z</time>
      </trkpt>
      <trkpt lat="43.80221" lon="3.59882">
        <ele>434.17</ele>
        <time>2016-01-05T09:26:23Z</time>
      </trkpt>
      <trkpt lat="43.80214" lon="3.59872">
        <ele>429.37</ele>
        <time>2016-01-05T09:26:44Z</time>
      </trkpt>
      <trkpt lat="43.80208" lon="3.59857">
        <ele>425.52</ele>
        <time>2016-01-05T09:26:59Z</time>
      </trkpt>
      <trkpt lat="43.80212" lon="3.59839">
        <ele>424.56</ele>
        <time>2016-01-05T09:27:15Z</time>
      </trkpt>
      <trkpt lat="43.80219" lon="3.59824">
        <ele>423.12</ele>
        <time>2016-01-05T09:27:29Z</time>
      </trkpt>
      <trkpt lat="43.80214" lon="3.59807">
        <ele>423.6</ele>
        <time>2016-01-05T09:28:06Z</time>
      </trkpt>
      <trkpt lat="43.80207" lon="3.598">
        <ele>424.08</ele>
        <time>2016-01-05T09:28:20Z</time>
      </trkpt>
      <trkpt lat="43.80202" lon="3.59784">
        <ele>425.04</ele>
        <time>2016-01-05T09:28:38Z</time>
      </trkpt>
      <trkpt lat="43.80197" lon="3.59769">
        <ele>423.12</ele>
        <time>2016-01-05T09:28:52Z</time>
      </trkpt>
      <trkpt lat="43.80197" lon="3.59752">
        <ele>428.4</ele>
        <time>2016-01-05T09:29:09Z</time>
      </trkpt>
      <trkpt lat="43.80193" lon="3.59734">
        <ele>431.77</ele>
        <time>2016-01-05T09:29:34Z</time>
      </trkpt>
      <trkpt lat="43.8019" lon="3.59721">
        <ele>434.17</ele>
        <time>2016-01-05T09:29:59Z</time>
      </trkpt>
      <trkpt lat="43.8018" lon="3.59718">
        <ele>433.21</ele>
        <time>2016-01-05T09:30:15Z</time>
      </trkpt>
      <trkpt lat="43.80171" lon="3.59719">
        <ele>432.25</ele>
        <time>2016-01-05T09:30:28Z</time>
      </trkpt>
      <trkpt lat="43.80162" lon="3.59727">
        <ele>431.77</ele>
        <time>2016-01-05T09:30:38Z</time>
      </trkpt>
      <trkpt lat="43.80155" lon="3.59739">
        <ele>431.29</ele>
        <time>2016-01-05T09:30:48Z</time>
      </trkpt>
      <trkpt lat="43.80143" lon="3.59746">
        <ele>433.69</ele>
        <time>2016-01-05T09:31:03Z</time>
      </trkpt>
      <trkpt lat="43.80133" lon="3.59747">
        <ele>433.69</ele>
        <time>2016-01-05T09:31:16Z</time>
      </trkpt>
      <trkpt lat="43.80122" lon="3.59752">
        <ele>436.58</ele>
        <time>2016-01-05T09:31:33Z</time>
      </trkpt>
      <trkpt lat="43.80111" lon="3.5975">
        <ele>440.9</ele>
        <time>2016-01-05T09:31:55Z</time>
      </trkpt>
      <trkpt lat="43.80098" lon="3.59754">
        <ele>443.79</ele>
        <time>2016-01-05T09:32:14Z</time>
      </trkpt>
      <trkpt lat="43.80088" lon="3.59757">
        <ele>444.27</ele>
        <time>2016-01-05T09:32:33Z</time>
      </trkpt>
      <trkpt lat="43.80079" lon="3.59768">
        <ele>446.67</ele>
        <time>2016-01-05T09:32:50Z</time>
      </trkpt>
      <trkpt lat="43.80067" lon="3.59773">
        <ele>447.63</ele>
        <time>2016-01-05T09:33:01Z</time>
      </trkpt>
      <trkpt lat="43.80056" lon="3.59775">
        <ele>447.63</ele>
        <time>2016-01-05T09:33:11Z</time>
      </trkpt>
      <trkpt lat="43.80044" lon="3.59774">
        <ele>447.15</ele>
        <time>2016-01-05T09:33:24Z</time>
      </trkpt>
      <trkpt lat="43.80033" lon="3.59771">
        <ele>449.07</ele>
        <time>2016-01-05T09:33:34Z</time>
      </trkpt>
      <trkpt lat="43.80022" lon="3.59772">
        <ele>449.07</ele>
        <time>2016-01-05T09:33:47Z</time>
      </trkpt>
      <trkpt lat="43.80016" lon="3.59768">
        <ele>448.59</ele>
        <time>2016-01-05T09:34:01Z</time>
      </trkpt>
      <trkpt lat="43.80018" lon="3.59752">
        <ele>448.11</ele>
        <time>2016-01-05T09:34:36Z</time>
      </trkpt>
      <trkpt lat="43.80008" lon="3.59741">
        <ele>452.44</ele>
        <time>2016-01-05T09:34:59Z</time>
      </trkpt>
      <trkpt lat="43.79997" lon="3.59733">
        <ele>457.72</ele>
        <time>2016-01-05T09:35:21Z</time>
      </trkpt>
      <trkpt lat="43.7999" lon="3.59737">
        <ele>462.53</ele>
        <time>2016-01-05T09:35:48Z</time>
      </trkpt>
      <trkpt lat="43.79981" lon="3.59738">
        <ele>464.93</ele>
        <time>2016-01-05T09:36:05Z</time>
      </trkpt>
      <trkpt lat="43.79969" lon="3.59731">
        <ele>466.86</ele>
        <time>2016-01-05T09:36:32Z</time>
      </trkpt>
      <trkpt lat="43.79958" lon="3.59728">
        <ele>469.74</ele>
        <time>2016-01-05T09:36:58Z</time>
      </trkpt>
      <trkpt lat="43.7995" lon="3.59729">
        <ele>479.84</ele>
        <time>2016-01-05T09:37:15Z</time>
      </trkpt>
      <trkpt lat="43.79943" lon="3.59724">
        <ele>480.8</ele>
        <time>2016-01-05T09:37:51Z</time>
      </trkpt>
      <trkpt lat="43.79933" lon="3.59722">
        <ele>481.28</ele>
        <time>2016-01-05T09:38:08Z</time>
      </trkpt>
      <trkpt lat="43.79921" lon="3.59719">
        <ele>485.12</ele>
        <time>2016-01-05T09:38:31Z</time>
      </trkpt>
      <trkpt lat="43.7991" lon="3.59714">
        <ele>488.49</ele>
        <time>2016-01-05T09:38:55Z</time>
      </trkpt>
      <trkpt lat="43.79899" lon="3.59714">
        <ele>494.26</ele>
        <time>2016-01-05T09:39:12Z</time>
      </trkpt>
      <trkpt lat="43.79894" lon="3.59706">
        <ele>495.7</ele>
        <time>2016-01-05T09:39:29Z</time>
      </trkpt>
      <trkpt lat="43.79888" lon="3.59695">
        <ele>496.18</ele>
        <time>2016-01-05T09:39:43Z</time>
      </trkpt>
      <trkpt lat="43.79883" lon="3.5968">
        <ele>498.58</ele>
        <time>2016-01-05T09:39:56Z</time>
      </trkpt>
      <trkpt lat="43.79881" lon="3.59666">
        <ele>505.79</ele>
        <time>2016-01-05T09:40:12Z</time>
      </trkpt>
      <trkpt lat="43.79883" lon="3.59648">
        <ele>503.39</ele>
        <time>2016-01-05T09:40:30Z</time>
      </trkpt>
      <trkpt lat="43.79878" lon="3.59637">
        <ele>501.95</ele>
        <time>2016-01-05T09:40:46Z</time>
      </trkpt>
      <trkpt lat="43.79868" lon="3.59627">
        <ele>507.23</ele>
        <time>2016-01-05T09:41:16Z</time>
      </trkpt>
      <trkpt lat="43.79862" lon="3.59616">
        <ele>507.71</ele>
        <time>2016-01-05T09:41:45Z</time>
      </trkpt>
      <trkpt lat="43.7986" lon="3.59601">
        <ele>513</ele>
        <time>2016-01-05T09:42:10Z</time>
      </trkpt>
      <trkpt lat="43.79854" lon="3.59586">
        <ele>515.88</ele>
        <time>2016-01-05T09:42:35Z</time>
      </trkpt>
      <trkpt lat="43.79845" lon="3.59572">
        <ele>522.61</ele>
        <time>2016-01-05T09:43:21Z</time>
      </trkpt>
      <trkpt lat="43.79844" lon="3.59555">
        <ele>524.06</ele>
        <time>2016-01-05T09:43:50Z</time>
      </trkpt>
      <trkpt lat="43.79836" lon="3.59544">
        <ele>526.46</ele>
        <time>2016-01-05T09:44:06Z</time>
      </trkpt>
      <trkpt lat="43.79828" lon="3.59532">
        <ele>528.86</ele>
        <time>2016-01-05T09:44:21Z</time>
      </trkpt>
      <trkpt lat="43.79827" lon="3.59517">
        <ele>532.71</ele>
        <time>2016-01-05T09:44:45Z</time>
      </trkpt>
      <trkpt lat="43.79824" lon="3.59503">
        <ele>534.63</ele>
        <time>2016-01-05T09:45:23Z</time>
      </trkpt>
      <trkpt lat="43.79827" lon="3.59491">
        <ele>538.48</ele>
        <time>2016-01-05T09:45:45Z</time>
      </trkpt>
      <trkpt lat="43.79819" lon="3.59481">
        <ele>542.8</ele>
        <time>2016-01-05T09:46:04Z</time>
      </trkpt>
      <trkpt lat="43.79813" lon="3.59467">
        <ele>544.72</ele>
        <time>2016-01-05T09:46:24Z</time>
      </trkpt>
      <trkpt lat="43.79804" lon="3.59457">
        <ele>544.72</ele>
        <time>2016-01-05T09:46:37Z</time>
      </trkpt>
      <trkpt lat="43.79795" lon="3.59445">
        <ele>544.24</ele>
        <time>2016-01-05T09:46:49Z</time>
      </trkpt>
      <trkpt lat="43.79787" lon="3.59433">
        <ele>544.24</ele>
        <time>2016-01-05T09:47:05Z</time>
      </trkpt>
      <trkpt lat="43.79776" lon="3.59425">
        <ele>543.28</ele>
        <time>2016-01-05T09:47:20Z</time>
      </trkpt>
      <trkpt lat="43.79769" lon="3.59412">
        <ele>544.24</ele>
        <time>2016-01-05T09:47:35Z</time>
      </trkpt>
      <trkpt lat="43.79762" lon="3.594">
        <ele>545.69</ele>
        <time>2016-01-05T09:47:51Z</time>
      </trkpt>
      <trkpt lat="43.79759" lon="3.59383">
        <ele>546.17</ele>
        <time>2016-01-05T09:48:05Z</time>
      </trkpt>
      <trkpt lat="43.79754" lon="3.59362">
        <ele>547.13</ele>
        <time>2016-01-05T09:48:26Z</time>
      </trkpt>
      <trkpt lat="43.79747" lon="3.59343">
        <ele>547.61</ele>
        <time>2016-01-05T09:48:47Z</time>
      </trkpt>
      <trkpt lat="43.79744" lon="3.59324">
        <ele>549.53</ele>
        <time>2016-01-05T09:49:06Z</time>
      </trkpt>
      <trkpt lat="43.7974" lon="3.59304">
        <ele>550.49</ele>
        <time>2016-01-05T09:49:24Z</time>
      </trkpt>
      <trkpt lat="43.79734" lon="3.59286">
        <ele>551.45</ele>
        <time>2016-01-05T09:49:38Z</time>
      </trkpt>
      <trkpt lat="43.79732" lon="3.59269">
        <ele>552.9</ele>
        <time>2016-01-05T09:49:56Z</time>
      </trkpt>
      <trkpt lat="43.79722" lon="3.59255">
        <ele>552.9</ele>
        <time>2016-01-05T09:50:27Z</time>
      </trkpt>
      <trkpt lat="43.79711" lon="3.59239">
        <ele>557.7</ele>
        <time>2016-01-05T09:51:37Z</time>
      </trkpt>
      <trkpt lat="43.797" lon="3.59233">
        <ele>555.3</ele>
        <time>2016-01-05T09:51:52Z</time>
      </trkpt>
      <trkpt lat="43.7969" lon="3.5922">
        <ele>559.62</ele>
        <time>2016-01-05T09:52:07Z</time>
      </trkpt>
      <trkpt lat="43.79683" lon="3.59202">
        <ele>563.47</ele>
        <time>2016-01-05T09:52:27Z</time>
      </trkpt>
      <trkpt lat="43.79675" lon="3.59189">
        <ele>567.32</ele>
        <time>2016-01-05T09:52:49Z</time>
      </trkpt>
      <trkpt lat="43.79663" lon="3.59188">
        <ele>566.35</ele>
        <time>2016-01-05T09:53:04Z</time>
      </trkpt>
      <trkpt lat="43.79646" lon="3.59179">
        <ele>560.59</ele>
        <time>2016-01-05T09:54:58Z</time>
      </trkpt>
      <trkpt lat="43.79638" lon="3.59167">
        <ele>559.14</ele>
        <time>2016-01-05T09:55:16Z</time>
      </trkpt>
      <trkpt lat="43.79629" lon="3.59155">
        <ele>560.11</ele>
        <time>2016-01-05T09:55:31Z</time>
      </trkpt>
      <trkpt lat="43.79617" lon="3.59145">
        <ele>554.34</ele>
        <time>2016-01-05T09:55:42Z</time>
      </trkpt>
      <trkpt lat="43.79607" lon="3.59134">
        <ele>559.14</ele>
        <time>2016-01-05T09:55:52Z</time>
      </trkpt>
      <trkpt lat="43.79601" lon="3.59119">
        <ele>548.57</ele>
        <time>2016-01-05T09:56:17Z</time>
      </trkpt>
      <trkpt lat="43.79598" lon="3.59107">
        <ele>551.93</ele>
        <time>2016-01-05T09:56:34Z</time>
      </trkpt>
      <trkpt lat="43.79587" lon="3.59101">
        <ele>550.97</ele>
        <time>2016-01-05T09:56:52Z</time>
      </trkpt>
      <trkpt lat="43.79587" lon="3.59099">
        <ele>549.53</ele>
        <time>2016-01-05T09:57:25Z</time>
      </trkpt>
      <trkpt lat="43.79594" lon="3.59101">
        <ele>554.34</ele>
        <time>2016-01-05T09:57:51Z</time>
      </trkpt>
      <trkpt lat="43.7959" lon="3.59094">
        <ele>552.41</ele>
        <time>2016-01-05T09:58:38Z</time>
      </trkpt>
      <trkpt lat="43.79591" lon="3.59082">
        <ele>552.41</ele>
        <time>2016-01-05T09:58:53Z</time>
      </trkpt>
      <trkpt lat="43.79583" lon="3.59074">
        <ele>555.3</ele>
        <time>2016-01-05T09:59:06Z</time>
      </trkpt>
      <trkpt lat="43.79576" lon="3.59062">
        <ele>555.3</ele>
        <time>2016-01-05T09:59:17Z</time>
      </trkpt>
      <trkpt lat="43.79567" lon="3.59049">
        <ele>558.18</ele>
        <time>2016-01-05T09:59:31Z</time>
      </trkpt>
      <trkpt lat="43.79559" lon="3.59041">
        <ele>553.86</ele>
        <time>2016-01-05T09:59:53Z</time>
      </trkpt>
      <trkpt lat="43.79551" lon="3.59036">
        <ele>554.34</ele>
        <time>2016-01-05T10:00:08Z</time>
      </trkpt>
      <trkpt lat="43.7955" lon="3.59024">
        <ele>553.86</ele>
        <time>2016-01-05T10:00:32Z</time>
      </trkpt>
      <trkpt lat="43.79545" lon="3.5901">
        <ele>555.3</ele>
        <time>2016-01-05T10:00:48Z</time>
      </trkpt>
      <trkpt lat="43.79541" lon="3.59001">
        <ele>550.49</ele>
        <time>2016-01-05T10:01:02Z</time>
      </trkpt>
      <trkpt lat="43.79537" lon="3.58987">
        <ele>552.41</ele>
        <time>2016-01-05T10:01:14Z</time>
      </trkpt>
      <trkpt lat="43.79532" lon="3.58966">
        <ele>559.62</ele>
        <time>2016-01-05T10:01:49Z</time>
      </trkpt>
      <trkpt lat="43.79538" lon="3.58959">
        <ele>564.43</ele>
        <time>2016-01-05T10:02:14Z</time>
      </trkpt>
      <trkpt lat="43.79536" lon="3.58945">
        <ele>551.93</ele>
        <time>2016-01-05T10:02:44Z</time>
      </trkpt>
      <trkpt lat="43.79525" lon="3.58939">
        <ele>568.28</ele>
        <time>2016-01-05T10:03:24Z</time>
      </trkpt>
      <trkpt lat="43.79516" lon="3.58934">
        <ele>572.6</ele>
        <time>2016-01-05T10:03:55Z</time>
      </trkpt>
      <trkpt lat="43.79511" lon="3.58924">
        <ele>569.72</ele>
        <time>2016-01-05T10:05:44Z</time>
      </trkpt>
      <trkpt lat="43.79509" lon="3.58911">
        <ele>565.87</ele>
        <time>2016-01-05T10:06:10Z</time>
      </trkpt>
      <trkpt lat="43.79502" lon="3.58901">
        <ele>565.39</ele>
        <time>2016-01-05T10:06:43Z</time>
      </trkpt>
      <trkpt lat="43.79494" lon="3.58888">
        <ele>569.24</ele>
        <time>2016-01-05T10:07:13Z</time>
      </trkpt>
      <trkpt lat="43.79486" lon="3.58878">
        <ele>571.16</ele>
        <time>2016-01-05T10:07:31Z</time>
      </trkpt>
      <trkpt lat="43.7948" lon="3.58866">
        <ele>571.64</ele>
        <time>2016-01-05T10:07:49Z</time>
      </trkpt>
      <trkpt lat="43.79473" lon="3.58856">
        <ele>575.01</ele>
        <time>2016-01-05T10:08:05Z</time>
      </trkpt>
      <trkpt lat="43.79468" lon="3.58843">
        <ele>574.53</ele>
        <time>2016-01-05T10:08:29Z</time>
      </trkpt>
      <trkpt lat="43.79459" lon="3.58839">
        <ele>577.89</ele>
        <time>2016-01-05T10:08:51Z</time>
      </trkpt>
      <trkpt lat="43.79449" lon="3.58841">
        <ele>578.37</ele>
        <time>2016-01-05T10:09:17Z</time>
      </trkpt>
      <trkpt lat="43.79437" lon="3.58837">
        <ele>578.85</ele>
        <time>2016-01-05T10:10:09Z</time>
      </trkpt>
      <trkpt lat="43.79427" lon="3.58831">
        <ele>579.33</ele>
        <time>2016-01-05T10:10:26Z</time>
      </trkpt>
      <trkpt lat="43.7942" lon="3.58821">
        <ele>582.7</ele>
        <time>2016-01-05T10:10:41Z</time>
      </trkpt>
      <trkpt lat="43.79411" lon="3.58817">
        <ele>582.22</ele>
        <time>2016-01-05T10:11:01Z</time>
      </trkpt>
      <trkpt lat="43.79405" lon="3.58811">
        <ele>579.81</ele>
        <time>2016-01-05T10:11:23Z</time>
      </trkpt>
      <trkpt lat="43.79396" lon="3.58815">
        <ele>586.06</ele>
        <time>2016-01-05T10:11:59Z</time>
      </trkpt>
      <trkpt lat="43.79388" lon="3.58812">
        <ele>589.91</ele>
        <time>2016-01-05T10:12:18Z</time>
      </trkpt>
      <trkpt lat="43.79377" lon="3.58808">
        <ele>593.27</ele>
        <time>2016-01-05T10:12:44Z</time>
      </trkpt>
      <trkpt lat="43.79368" lon="3.588">
        <ele>597.12</ele>
        <time>2016-01-05T10:13:01Z</time>
      </trkpt>
      <trkpt lat="43.79358" lon="3.58801">
        <ele>600.96</ele>
        <time>2016-01-05T10:13:28Z</time>
      </trkpt>
      <trkpt lat="43.79351" lon="3.58796">
        <ele>603.85</ele>
        <time>2016-01-05T10:14:16Z</time>
      </trkpt>
      <trkpt lat="43.79341" lon="3.58789">
        <ele>604.33</ele>
        <time>2016-01-05T10:14:33Z</time>
      </trkpt>
      <trkpt lat="43.79332" lon="3.58781">
        <ele>606.73</ele>
        <time>2016-01-05T10:14:52Z</time>
      </trkpt>
      <trkpt lat="43.79324" lon="3.58773">
        <ele>607.69</ele>
        <time>2016-01-05T10:15:11Z</time>
      </trkpt>
      <trkpt lat="43.79317" lon="3.58763">
        <ele>611.54</ele>
        <time>2016-01-05T10:15:31Z</time>
      </trkpt>
      <trkpt lat="43.79309" lon="3.58755">
        <ele>612.5</ele>
        <time>2016-01-05T10:15:49Z</time>
      </trkpt>
      <trkpt lat="43.79301" lon="3.58746">
        <ele>614.42</ele>
        <time>2016-01-05T10:16:07Z</time>
      </trkpt>
      <trkpt lat="43.79294" lon="3.58748">
        <ele>616.34</ele>
        <time>2016-01-05T10:16:27Z</time>
      </trkpt>
      <trkpt lat="43.79288" lon="3.58743">
        <ele>620.19</ele>
        <time>2016-01-05T10:16:56Z</time>
      </trkpt>
      <trkpt lat="43.79281" lon="3.58733">
        <ele>622.59</ele>
        <time>2016-01-05T10:17:14Z</time>
      </trkpt>
      <trkpt lat="43.79273" lon="3.58724">
        <ele>623.55</ele>
        <time>2016-01-05T10:17:30Z</time>
      </trkpt>
      <trkpt lat="43.79266" lon="3.58711">
        <ele>625.47</ele>
        <time>2016-01-05T10:17:53Z</time>
      </trkpt>
      <trkpt lat="43.79256" lon="3.58702">
        <ele>627.88</ele>
        <time>2016-01-05T10:18:12Z</time>
      </trkpt>
      <trkpt lat="43.79246" lon="3.58691">
        <ele>632.2</ele>
        <time>2016-01-05T10:18:42Z</time>
      </trkpt>
      <trkpt lat="43.79241" lon="3.58677">
        <ele>630.76</ele>
        <time>2016-01-05T10:19:02Z</time>
      </trkpt>
      <trkpt lat="43.79233" lon="3.58666">
        <ele>637.01</ele>
        <time>2016-01-05T10:19:24Z</time>
      </trkpt>
      <trkpt lat="43.79224" lon="3.58659">
        <ele>638.93</ele>
        <time>2016-01-05T10:19:43Z</time>
      </trkpt>
      <trkpt lat="43.79217" lon="3.58651">
        <ele>640.38</ele>
        <time>2016-01-05T10:20:08Z</time>
      </trkpt>
      <trkpt lat="43.7922" lon="3.58638">
        <ele>642.3</ele>
        <time>2016-01-05T10:20:25Z</time>
      </trkpt>
      <trkpt lat="43.79218" lon="3.58625">
        <ele>643.26</ele>
        <time>2016-01-05T10:20:41Z</time>
      </trkpt>
      <trkpt lat="43.7921" lon="3.58618">
        <ele>643.26</ele>
        <time>2016-01-05T10:20:55Z</time>
      </trkpt>
      <trkpt lat="43.79201" lon="3.5861">
        <ele>644.7</ele>
        <time>2016-01-05T10:21:07Z</time>
      </trkpt>
      <trkpt lat="43.79194" lon="3.58609">
        <ele>644.22</ele>
        <time>2016-01-05T10:22:43Z</time>
      </trkpt>
      <trkpt lat="43.79192" lon="3.58598">
        <ele>646.14</ele>
        <time>2016-01-05T10:24:37Z</time>
      </trkpt>
      <trkpt lat="43.79182" lon="3.58593">
        <ele>646.14</ele>
        <time>2016-01-05T10:24:48Z</time>
      </trkpt>
      <trkpt lat="43.79175" lon="3.58582">
        <ele>646.14</ele>
        <time>2016-01-05T10:24:58Z</time>
      </trkpt>
      <trkpt lat="43.79167" lon="3.58574">
        <ele>645.66</ele>
        <time>2016-01-05T10:25:08Z</time>
      </trkpt>
      <trkpt lat="43.79157" lon="3.58572">
        <ele>646.62</ele>
        <time>2016-01-05T10:25:17Z</time>
      </trkpt>
      <trkpt lat="43.79149" lon="3.5857">
        <ele>644.7</ele>
        <time>2016-01-05T10:25:26Z</time>
      </trkpt>
      <trkpt lat="43.79146" lon="3.58557">
        <ele>644.22</ele>
        <time>2016-01-05T10:25:36Z</time>
      </trkpt>
      <trkpt lat="43.79138" lon="3.58548">
        <ele>643.74</ele>
        <time>2016-01-05T10:25:46Z</time>
      </trkpt>
      <trkpt lat="43.79128" lon="3.5854">
        <ele>642.3</ele>
        <time>2016-01-05T10:25:57Z</time>
      </trkpt>
      <trkpt lat="43.79124" lon="3.5853">
        <ele>641.34</ele>
        <time>2016-01-05T10:26:08Z</time>
      </trkpt>
      <trkpt lat="43.79122" lon="3.58516">
        <ele>640.38</ele>
        <time>2016-01-05T10:26:21Z</time>
      </trkpt>
      <trkpt lat="43.79114" lon="3.58509">
        <ele>640.38</ele>
        <time>2016-01-05T10:26:35Z</time>
      </trkpt>
      <trkpt lat="43.79105" lon="3.58502">
        <ele>639.89</ele>
        <time>2016-01-05T10:26:56Z</time>
      </trkpt>
      <trkpt lat="43.79096" lon="3.58496">
        <ele>638.45</ele>
        <time>2016-01-05T10:27:10Z</time>
      </trkpt>
      <trkpt lat="43.79088" lon="3.58486">
        <ele>637.49</ele>
        <time>2016-01-05T10:27:25Z</time>
      </trkpt>
      <trkpt lat="43.7908" lon="3.58478">
        <ele>637.01</ele>
        <time>2016-01-05T10:27:43Z</time>
      </trkpt>
      <trkpt lat="43.79069" lon="3.58476">
        <ele>635.57</ele>
        <time>2016-01-05T10:27:54Z</time>
      </trkpt>
      <trkpt lat="43.79058" lon="3.58478">
        <ele>634.61</ele>
        <time>2016-01-05T10:28:07Z</time>
      </trkpt>
      <trkpt lat="43.79049" lon="3.58474">
        <ele>633.17</ele>
        <time>2016-01-05T10:28:19Z</time>
      </trkpt>
      <trkpt lat="43.79038" lon="3.58472">
        <ele>633.17</ele>
        <time>2016-01-05T10:28:31Z</time>
      </trkpt>
      <trkpt lat="43.79033" lon="3.58465">
        <ele>635.09</ele>
        <time>2016-01-05T10:28:44Z</time>
      </trkpt>
      <trkpt lat="43.79026" lon="3.58457">
        <ele>634.13</ele>
        <time>2016-01-05T10:28:59Z</time>
      </trkpt>
      <trkpt lat="43.79021" lon="3.58452">
        <ele>632.68</ele>
        <time>2016-01-05T10:29:11Z</time>
      </trkpt>
      <trkpt lat="43.79015" lon="3.58449">
        <ele>628.84</ele>
        <time>2016-01-05T10:29:38Z</time>
      </trkpt>
      <trkpt lat="43.79018" lon="3.58441">
        <ele>624.99</ele>
        <time>2016-01-05T10:30:12Z</time>
      </trkpt>
      <trkpt lat="43.79023" lon="3.58438">
        <ele>618.75</ele>
        <time>2016-01-05T10:30:39Z</time>
      </trkpt>
      <trkpt lat="43.79033" lon="3.58423">
        <ele>614.42</ele>
        <time>2016-01-05T10:31:08Z</time>
      </trkpt>
      <trkpt lat="43.79038" lon="3.58414">
        <ele>611.06</ele>
        <time>2016-01-05T10:31:34Z</time>
      </trkpt>
      <trkpt lat="43.79036" lon="3.58403">
        <ele>606.25</ele>
        <time>2016-01-05T10:34:18Z</time>
      </trkpt>
      <trkpt lat="43.79027" lon="3.58405">
        <ele>601.44</ele>
        <time>2016-01-05T10:34:40Z</time>
      </trkpt>
      <trkpt lat="43.79025" lon="3.58394">
        <ele>593.75</ele>
        <time>2016-01-05T10:35:34Z</time>
      </trkpt>
      <trkpt lat="43.79022" lon="3.58363">
        <ele>582.7</ele>
        <time>2016-01-05T10:36:20Z</time>
      </trkpt>
      <trkpt lat="43.79017" lon="3.58356">
        <ele>581.73</ele>
        <time>2016-01-05T10:40:29Z</time>
      </trkpt>
      <trkpt lat="43.79018" lon="3.58346">
        <ele>577.89</ele>
        <time>2016-01-05T10:41:36Z</time>
      </trkpt>
      <trkpt lat="43.79027" lon="3.58335">
        <ele>575.49</ele>
        <time>2016-01-05T10:41:46Z</time>
      </trkpt>
      <trkpt lat="43.79035" lon="3.58323">
        <ele>569.24</ele>
        <time>2016-01-05T10:41:56Z</time>
      </trkpt>
      <trkpt lat="43.79045" lon="3.58312">
        <ele>566.35</ele>
        <time>2016-01-05T10:42:04Z</time>
      </trkpt>
      <trkpt lat="43.79053" lon="3.583">
        <ele>563.47</ele>
        <time>2016-01-05T10:42:12Z</time>
      </trkpt>
      <trkpt lat="43.7906" lon="3.58291">
        <ele>561.07</ele>
        <time>2016-01-05T10:42:19Z</time>
      </trkpt>
      <trkpt lat="43.79064" lon="3.58276">
        <ele>558.66</ele>
        <time>2016-01-05T10:42:26Z</time>
      </trkpt>
      <trkpt lat="43.79069" lon="3.58261">
        <ele>555.3</ele>
        <time>2016-01-05T10:42:33Z</time>
      </trkpt>
      <trkpt lat="43.79072" lon="3.58247">
        <ele>554.34</ele>
        <time>2016-01-05T10:42:39Z</time>
      </trkpt>
      <trkpt lat="43.79077" lon="3.58233">
        <ele>553.38</ele>
        <time>2016-01-05T10:42:47Z</time>
      </trkpt>
      <trkpt lat="43.79085" lon="3.58227">
        <ele>552.9</ele>
        <time>2016-01-05T10:42:58Z</time>
      </trkpt>
      <trkpt lat="43.79095" lon="3.58223">
        <ele>548.57</ele>
        <time>2016-01-05T10:43:08Z</time>
      </trkpt>
      <trkpt lat="43.79109" lon="3.5821">
        <ele>547.13</ele>
        <time>2016-01-05T10:43:20Z</time>
      </trkpt>
      <trkpt lat="43.79109" lon="3.58193">
        <ele>542.8</ele>
        <time>2016-01-05T10:43:32Z</time>
      </trkpt>
      <trkpt lat="43.79103" lon="3.5818">
        <ele>540.4</ele>
        <time>2016-01-05T10:43:45Z</time>
      </trkpt>
      <trkpt lat="43.79098" lon="3.58161">
        <ele>539.92</ele>
        <time>2016-01-05T10:43:59Z</time>
      </trkpt>
      <trkpt lat="43.79089" lon="3.58148">
        <ele>537.99</ele>
        <time>2016-01-05T10:44:15Z</time>
      </trkpt>
      <trkpt lat="43.79081" lon="3.5813">
        <ele>538.96</ele>
        <time>2016-01-05T10:44:28Z</time>
      </trkpt>
      <trkpt lat="43.79075" lon="3.58114">
        <ele>538.48</ele>
        <time>2016-01-05T10:44:37Z</time>
      </trkpt>
      <trkpt lat="43.79068" lon="3.58097">
        <ele>540.4</ele>
        <time>2016-01-05T10:44:54Z</time>
      </trkpt>
      <trkpt lat="43.79061" lon="3.58075">
        <ele>538.48</ele>
        <time>2016-01-05T10:45:15Z</time>
      </trkpt>
      <trkpt lat="43.79053" lon="3.58061">
        <ele>537.99</ele>
        <time>2016-01-05T10:45:27Z</time>
      </trkpt>
      <trkpt lat="43.79047" lon="3.58047">
        <ele>540.88</ele>
        <time>2016-01-05T10:45:47Z</time>
      </trkpt>
      <trkpt lat="43.79035" lon="3.58042">
        <ele>543.28</ele>
        <time>2016-01-05T10:46:07Z</time>
      </trkpt>
      <trkpt lat="43.79022" lon="3.58026">
        <ele>546.17</ele>
        <time>2016-01-05T10:46:30Z</time>
      </trkpt>
      <trkpt lat="43.79013" lon="3.58008">
        <ele>552.41</ele>
        <time>2016-01-05T10:47:00Z</time>
      </trkpt>
      <trkpt lat="43.79002" lon="3.57993">
        <ele>558.18</ele>
        <time>2016-01-05T10:47:29Z</time>
      </trkpt>
      <trkpt lat="43.78985" lon="3.57983">
        <ele>556.26</ele>
        <time>2016-01-05T10:47:55Z</time>
      </trkpt>
      <trkpt lat="43.78969" lon="3.57971">
        <ele>552.9</ele>
        <time>2016-01-05T10:48:19Z</time>
      </trkpt>
      <trkpt lat="43.78954" lon="3.57957">
        <ele>550.97</ele>
        <time>2016-01-05T10:48:37Z</time>
      </trkpt>
      <trkpt lat="43.78936" lon="3.57942">
        <ele>549.53</ele>
        <time>2016-01-05T10:48:56Z</time>
      </trkpt>
      <trkpt lat="43.78919" lon="3.57928">
        <ele>548.09</ele>
        <time>2016-01-05T10:49:19Z</time>
      </trkpt>
      <trkpt lat="43.78904" lon="3.57915">
        <ele>544.72</ele>
        <time>2016-01-05T10:49:39Z</time>
      </trkpt>
      <trkpt lat="43.78888" lon="3.57899">
        <ele>543.28</ele>
        <time>2016-01-05T10:49:57Z</time>
      </trkpt>
      <trkpt lat="43.78871" lon="3.57888">
        <ele>542.8</ele>
        <time>2016-01-05T10:50:15Z</time>
      </trkpt>
      <trkpt lat="43.78855" lon="3.57873">
        <ele>539.92</ele>
        <time>2016-01-05T10:50:31Z</time>
      </trkpt>
      <trkpt lat="43.78833" lon="3.57858">
        <ele>541.84</ele>
        <time>2016-01-05T10:50:53Z</time>
      </trkpt>
      <trkpt lat="43.78819" lon="3.57845">
        <ele>541.36</ele>
        <time>2016-01-05T10:51:09Z</time>
      </trkpt>
      <trkpt lat="43.78811" lon="3.57825">
        <ele>541.36</ele>
        <time>2016-01-05T10:51:23Z</time>
      </trkpt>
      <trkpt lat="43.78808" lon="3.57806">
        <ele>541.36</ele>
        <time>2016-01-05T10:51:37Z</time>
      </trkpt>
      <trkpt lat="43.78802" lon="3.57785">
        <ele>540.4</ele>
        <time>2016-01-05T10:51:52Z</time>
      </trkpt>
      <trkpt lat="43.78797" lon="3.57763">
        <ele>540.4</ele>
        <time>2016-01-05T10:52:08Z</time>
      </trkpt>
      <trkpt lat="43.78792" lon="3.57743">
        <ele>539.92</ele>
        <time>2016-01-05T10:52:22Z</time>
      </trkpt>
      <trkpt lat="43.78783" lon="3.57722">
        <ele>537.51</ele>
        <time>2016-01-05T10:52:44Z</time>
      </trkpt>
      <trkpt lat="43.78776" lon="3.57698">
        <ele>536.55</ele>
        <time>2016-01-05T10:52:59Z</time>
      </trkpt>
      <trkpt lat="43.7877" lon="3.57678">
        <ele>537.51</ele>
        <time>2016-01-05T10:53:11Z</time>
      </trkpt>
      <trkpt lat="43.78765" lon="3.57659">
        <ele>537.03</ele>
        <time>2016-01-05T10:53:25Z</time>
      </trkpt>
      <trkpt lat="43.78761" lon="3.5764">
        <ele>537.03</ele>
        <time>2016-01-05T10:53:39Z</time>
      </trkpt>
      <trkpt lat="43.7876" lon="3.57621">
        <ele>540.4</ele>
        <time>2016-01-05T10:53:52Z</time>
      </trkpt>
      <trkpt lat="43.78758" lon="3.57602">
        <ele>540.4</ele>
        <time>2016-01-05T10:54:05Z</time>
      </trkpt>
      <trkpt lat="43.78749" lon="3.5759">
        <ele>539.92</ele>
        <time>2016-01-05T10:55:00Z</time>
      </trkpt>
      <trkpt lat="43.78745" lon="3.57573">
        <ele>540.88</ele>
        <time>2016-01-05T10:55:16Z</time>
      </trkpt>
      <trkpt lat="43.78741" lon="3.57557">
        <ele>541.36</ele>
        <time>2016-01-05T10:55:29Z</time>
      </trkpt>
      <trkpt lat="43.78736" lon="3.57542">
        <ele>541.84</ele>
        <time>2016-01-05T10:55:40Z</time>
      </trkpt>
      <trkpt lat="43.78729" lon="3.57529">
        <ele>540.88</ele>
        <time>2016-01-05T10:55:53Z</time>
      </trkpt>
      <trkpt lat="43.78728" lon="3.57509">
        <ele>544.72</ele>
        <time>2016-01-05T10:56:10Z</time>
      </trkpt>
      <trkpt lat="43.78726" lon="3.57493">
        <ele>546.17</ele>
        <time>2016-01-05T10:56:25Z</time>
      </trkpt>
      <trkpt lat="43.7872" lon="3.57477">
        <ele>546.17</ele>
        <time>2016-01-05T10:56:38Z</time>
      </trkpt>
      <trkpt lat="43.78715" lon="3.57461">
        <ele>548.57</ele>
        <time>2016-01-05T10:56:50Z</time>
      </trkpt>
      <trkpt lat="43.78708" lon="3.57445">
        <ele>546.17</ele>
        <time>2016-01-05T10:57:03Z</time>
      </trkpt>
      <trkpt lat="43.78705" lon="3.57431">
        <ele>549.53</ele>
        <time>2016-01-05T10:57:14Z</time>
      </trkpt>
      <trkpt lat="43.78705" lon="3.57416">
        <ele>552.9</ele>
        <time>2016-01-05T10:57:28Z</time>
      </trkpt>
      <trkpt lat="43.787" lon="3.57404">
        <ele>551.45</ele>
        <time>2016-01-05T10:57:36Z</time>
      </trkpt>
      <trkpt lat="43.78694" lon="3.57393">
        <ele>551.93</ele>
        <time>2016-01-05T10:57:46Z</time>
      </trkpt>
      <trkpt lat="43.78694" lon="3.57379">
        <ele>553.86</ele>
        <time>2016-01-05T10:57:58Z</time>
      </trkpt>
      <trkpt lat="43.78692" lon="3.57366">
        <ele>553.38</ele>
        <time>2016-01-05T10:58:07Z</time>
      </trkpt>
      <trkpt lat="43.78693" lon="3.57351">
        <ele>552.9</ele>
        <time>2016-01-05T10:58:15Z</time>
      </trkpt>
      <trkpt lat="43.78693" lon="3.57336">
        <ele>551.45</ele>
        <time>2016-01-05T10:58:25Z</time>
      </trkpt>
      <trkpt lat="43.78687" lon="3.57325">
        <ele>549.05</ele>
        <time>2016-01-05T10:58:34Z</time>
      </trkpt>
      <trkpt lat="43.7869" lon="3.57313">
        <ele>547.13</ele>
        <time>2016-01-05T10:58:43Z</time>
      </trkpt>
      <trkpt lat="43.78692" lon="3.57299">
        <ele>545.69</ele>
        <time>2016-01-05T10:58:55Z</time>
      </trkpt>
      <trkpt lat="43.78695" lon="3.57283">
        <ele>544.24</ele>
        <time>2016-01-05T10:59:04Z</time>
      </trkpt>
      <trkpt lat="43.78699" lon="3.57269">
        <ele>541.84</ele>
        <time>2016-01-05T10:59:15Z</time>
      </trkpt>
      <trkpt lat="43.78694" lon="3.57255">
        <ele>539.44</ele>
        <time>2016-01-05T10:59:30Z</time>
      </trkpt>
      <trkpt lat="43.78688" lon="3.57242">
        <ele>538.48</ele>
        <time>2016-01-05T10:59:40Z</time>
      </trkpt>
      <trkpt lat="43.78682" lon="3.57231">
        <ele>534.63</ele>
        <time>2016-01-05T10:59:52Z</time>
      </trkpt>
      <trkpt lat="43.78674" lon="3.57218">
        <ele>531.75</ele>
        <time>2016-01-05T11:00:05Z</time>
      </trkpt>
      <trkpt lat="43.7867" lon="3.57203">
        <ele>530.79</ele>
        <time>2016-01-05T11:00:14Z</time>
      </trkpt>
      <trkpt lat="43.78668" lon="3.57187">
        <ele>530.79</ele>
        <time>2016-01-05T11:00:23Z</time>
      </trkpt>
      <trkpt lat="43.7866" lon="3.57175">
        <ele>530.3</ele>
        <time>2016-01-05T11:00:32Z</time>
      </trkpt>
      <trkpt lat="43.7865" lon="3.57167">
        <ele>529.34</ele>
        <time>2016-01-05T11:00:41Z</time>
      </trkpt>
      <trkpt lat="43.78641" lon="3.57161">
        <ele>528.86</ele>
        <time>2016-01-05T11:00:51Z</time>
      </trkpt>
      <trkpt lat="43.78633" lon="3.57148">
        <ele>528.38</ele>
        <time>2016-01-05T11:01:02Z</time>
      </trkpt>
      <trkpt lat="43.78626" lon="3.57132">
        <ele>530.3</ele>
        <time>2016-01-05T11:01:14Z</time>
      </trkpt>
      <trkpt lat="43.78618" lon="3.57124">
        <ele>531.27</ele>
        <time>2016-01-05T11:01:23Z</time>
      </trkpt>
      <trkpt lat="43.78611" lon="3.57114">
        <ele>530.3</ele>
        <time>2016-01-05T11:01:33Z</time>
      </trkpt>
      <trkpt lat="43.78609" lon="3.57098">
        <ele>532.23</ele>
        <time>2016-01-05T11:01:45Z</time>
      </trkpt>
      <trkpt lat="43.78603" lon="3.57085">
        <ele>532.71</ele>
        <time>2016-01-05T11:01:55Z</time>
      </trkpt>
      <trkpt lat="43.78596" lon="3.57073">
        <ele>533.19</ele>
        <time>2016-01-05T11:02:05Z</time>
      </trkpt>
      <trkpt lat="43.78587" lon="3.57065">
        <ele>532.71</ele>
        <time>2016-01-05T11:02:14Z</time>
      </trkpt>
      <trkpt lat="43.78577" lon="3.57066">
        <ele>533.19</ele>
        <time>2016-01-05T11:02:22Z</time>
      </trkpt>
      <trkpt lat="43.78567" lon="3.5707">
        <ele>531.75</ele>
        <time>2016-01-05T11:02:31Z</time>
      </trkpt>
      <trkpt lat="43.78557" lon="3.5707">
        <ele>530.79</ele>
        <time>2016-01-05T11:02:39Z</time>
      </trkpt>
      <trkpt lat="43.78548" lon="3.57065">
        <ele>530.3</ele>
        <time>2016-01-05T11:02:48Z</time>
      </trkpt>
      <trkpt lat="43.78538" lon="3.57061">
        <ele>530.3</ele>
        <time>2016-01-05T11:02:57Z</time>
      </trkpt>
      <trkpt lat="43.78529" lon="3.57054">
        <ele>531.27</ele>
        <time>2016-01-05T11:03:06Z</time>
      </trkpt>
      <trkpt lat="43.78521" lon="3.57045">
        <ele>531.75</ele>
        <time>2016-01-05T11:03:14Z</time>
      </trkpt>
      <trkpt lat="43.78513" lon="3.57036">
        <ele>531.27</ele>
        <time>2016-01-05T11:03:23Z</time>
      </trkpt>
      <trkpt lat="43.78504" lon="3.57028">
        <ele>531.27</ele>
        <time>2016-01-05T11:03:31Z</time>
      </trkpt>
      <trkpt lat="43.78495" lon="3.57021">
        <ele>530.79</ele>
        <time>2016-01-05T11:03:40Z</time>
      </trkpt>
      <trkpt lat="43.78486" lon="3.57012">
        <ele>530.3</ele>
        <time>2016-01-05T11:03:49Z</time>
      </trkpt>
      <trkpt lat="43.78478" lon="3.57002">
        <ele>530.3</ele>
        <time>2016-01-05T11:03:57Z</time>
      </trkpt>
      <trkpt lat="43.78469" lon="3.56994">
        <ele>531.27</ele>
        <time>2016-01-05T11:04:05Z</time>
      </trkpt>
      <trkpt lat="43.78463" lon="3.56984">
        <ele>530.3</ele>
        <time>2016-01-05T11:04:13Z</time>
      </trkpt>
      <trkpt lat="43.78456" lon="3.56973">
        <ele>528.86</ele>
        <time>2016-01-05T11:04:21Z</time>
      </trkpt>
      <trkpt lat="43.7845" lon="3.56964">
        <ele>527.9</ele>
        <time>2016-01-05T11:04:29Z</time>
      </trkpt>
      <trkpt lat="43.78442" lon="3.56955">
        <ele>527.42</ele>
        <time>2016-01-05T11:04:37Z</time>
      </trkpt>
      <trkpt lat="43.78437" lon="3.56945">
        <ele>526.94</ele>
        <time>2016-01-05T11:04:45Z</time>
      </trkpt>
      <trkpt lat="43.7843" lon="3.56936">
        <ele>526.46</ele>
        <time>2016-01-05T11:04:53Z</time>
      </trkpt>
      <trkpt lat="43.78422" lon="3.56928">
        <ele>525.5</ele>
        <time>2016-01-05T11:05:01Z</time>
      </trkpt>
      <trkpt lat="43.78414" lon="3.56921">
        <ele>525.02</ele>
        <time>2016-01-05T11:05:08Z</time>
      </trkpt>
      <trkpt lat="43.78407" lon="3.56911">
        <ele>523.58</ele>
        <time>2016-01-05T11:05:16Z</time>
      </trkpt>
      <trkpt lat="43.78399" lon="3.56905">
        <ele>525.02</ele>
        <time>2016-01-05T11:05:24Z</time>
      </trkpt>
      <trkpt lat="43.7839" lon="3.56896">
        <ele>525.02</ele>
        <time>2016-01-05T11:05:33Z</time>
      </trkpt>
      <trkpt lat="43.78385" lon="3.56885">
        <ele>526.94</ele>
        <time>2016-01-05T11:05:48Z</time>
      </trkpt>
      <trkpt lat="43.78383" lon="3.56874">
        <ele>527.9</ele>
        <time>2016-01-05T11:05:59Z</time>
      </trkpt>
      <trkpt lat="43.78377" lon="3.56864">
        <ele>527.9</ele>
        <time>2016-01-05T11:06:08Z</time>
      </trkpt>
      <trkpt lat="43.78369" lon="3.56856">
        <ele>527.42</ele>
        <time>2016-01-05T11:06:16Z</time>
      </trkpt>
      <trkpt lat="43.78363" lon="3.56845">
        <ele>527.9</ele>
        <time>2016-01-05T11:06:24Z</time>
      </trkpt>
      <trkpt lat="43.78356" lon="3.56836">
        <ele>529.82</ele>
        <time>2016-01-05T11:06:32Z</time>
      </trkpt>
      <trkpt lat="43.78347" lon="3.56826">
        <ele>529.34</ele>
        <time>2016-01-05T11:06:41Z</time>
      </trkpt>
      <trkpt lat="43.78337" lon="3.56818">
        <ele>528.38</ele>
        <time>2016-01-05T11:06:50Z</time>
      </trkpt>
      <trkpt lat="43.78328" lon="3.56807">
        <ele>527.42</ele>
        <time>2016-01-05T11:06:59Z</time>
      </trkpt>
      <trkpt lat="43.78322" lon="3.56796">
        <ele>527.9</ele>
        <time>2016-01-05T11:07:09Z</time>
      </trkpt>
      <trkpt lat="43.78313" lon="3.56787">
        <ele>530.79</ele>
        <time>2016-01-05T11:07:21Z</time>
      </trkpt>
      <trkpt lat="43.78304" lon="3.56782">
        <ele>532.71</ele>
        <time>2016-01-05T11:07:34Z</time>
      </trkpt>
      <trkpt lat="43.78296" lon="3.56771">
        <ele>533.67</ele>
        <time>2016-01-05T11:07:49Z</time>
      </trkpt>
      <trkpt lat="43.7829" lon="3.5676">
        <ele>533.67</ele>
        <time>2016-01-05T11:07:59Z</time>
      </trkpt>
      <trkpt lat="43.78283" lon="3.56748">
        <ele>535.11</ele>
        <time>2016-01-05T11:08:12Z</time>
      </trkpt>
      <trkpt lat="43.78273" lon="3.56741">
        <ele>537.51</ele>
        <time>2016-01-05T11:08:23Z</time>
      </trkpt>
      <trkpt lat="43.78265" lon="3.56732">
        <ele>537.99</ele>
        <time>2016-01-05T11:08:38Z</time>
      </trkpt>
      <trkpt lat="43.78255" lon="3.56724">
        <ele>539.92</ele>
        <time>2016-01-05T11:09:14Z</time>
      </trkpt>
      <trkpt lat="43.78249" lon="3.56715">
        <ele>543.76</ele>
        <time>2016-01-05T11:09:34Z</time>
      </trkpt>
      <trkpt lat="43.78243" lon="3.56702">
        <ele>544.72</ele>
        <time>2016-01-05T11:09:48Z</time>
      </trkpt>
      <trkpt lat="43.78234" lon="3.5669">
        <ele>546.65</ele>
        <time>2016-01-05T11:10:01Z</time>
      </trkpt>
      <trkpt lat="43.78228" lon="3.56679">
        <ele>548.09</ele>
        <time>2016-01-05T11:10:15Z</time>
      </trkpt>
      <trkpt lat="43.78231" lon="3.56663">
        <ele>550.97</ele>
        <time>2016-01-05T11:10:34Z</time>
      </trkpt>
      <trkpt lat="43.78231" lon="3.5665">
        <ele>552.41</ele>
        <time>2016-01-05T11:10:46Z</time>
      </trkpt>
      <trkpt lat="43.78229" lon="3.56636">
        <ele>554.34</ele>
        <time>2016-01-05T11:10:58Z</time>
      </trkpt>
      <trkpt lat="43.78227" lon="3.56622">
        <ele>552.9</ele>
        <time>2016-01-05T11:11:09Z</time>
      </trkpt>
      <trkpt lat="43.78226" lon="3.56606">
        <ele>550.97</ele>
        <time>2016-01-05T11:11:20Z</time>
      </trkpt>
      <trkpt lat="43.78221" lon="3.56591">
        <ele>550.01</ele>
        <time>2016-01-05T11:11:31Z</time>
      </trkpt>
      <trkpt lat="43.78221" lon="3.56576">
        <ele>549.53</ele>
        <time>2016-01-05T11:11:42Z</time>
      </trkpt>
      <trkpt lat="43.78222" lon="3.5656">
        <ele>547.61</ele>
        <time>2016-01-05T11:11:56Z</time>
      </trkpt>
      <trkpt lat="43.78224" lon="3.56544">
        <ele>544.72</ele>
        <time>2016-01-05T11:12:07Z</time>
      </trkpt>
      <trkpt lat="43.78225" lon="3.56529">
        <ele>544.72</ele>
        <time>2016-01-05T11:12:17Z</time>
      </trkpt>
      <trkpt lat="43.78226" lon="3.56512">
        <ele>542.8</ele>
        <time>2016-01-05T11:12:28Z</time>
      </trkpt>
      <trkpt lat="43.78226" lon="3.56497">
        <ele>542.32</ele>
        <time>2016-01-05T11:12:38Z</time>
      </trkpt>
      <trkpt lat="43.78225" lon="3.56481">
        <ele>542.32</ele>
        <time>2016-01-05T11:13:00Z</time>
      </trkpt>
      <trkpt lat="43.78226" lon="3.56464">
        <ele>541.36</ele>
        <time>2016-01-05T11:13:15Z</time>
      </trkpt>
      <trkpt lat="43.78222" lon="3.56449">
        <ele>541.84</ele>
        <time>2016-01-05T11:13:26Z</time>
      </trkpt>
      <trkpt lat="43.78216" lon="3.56435">
        <ele>542.32</ele>
        <time>2016-01-05T11:13:39Z</time>
      </trkpt>
      <trkpt lat="43.78212" lon="3.56422">
        <ele>543.28</ele>
        <time>2016-01-05T11:13:49Z</time>
      </trkpt>
      <trkpt lat="43.78207" lon="3.56408">
        <ele>543.76</ele>
        <time>2016-01-05T11:14:00Z</time>
      </trkpt>
      <trkpt lat="43.78202" lon="3.56394">
        <ele>543.76</ele>
        <time>2016-01-05T11:14:12Z</time>
      </trkpt>
      <trkpt lat="43.782" lon="3.56379">
        <ele>541.84</ele>
        <time>2016-01-05T11:14:23Z</time>
      </trkpt>
      <trkpt lat="43.78196" lon="3.56366">
        <ele>542.8</ele>
        <time>2016-01-05T11:14:36Z</time>
      </trkpt>
      <trkpt lat="43.78198" lon="3.56355">
        <ele>542.32</ele>
        <time>2016-01-05T11:16:11Z</time>
      </trkpt>
      <trkpt lat="43.78199" lon="3.56341">
        <ele>540.4</ele>
        <time>2016-01-05T11:16:23Z</time>
      </trkpt>
      <trkpt lat="43.78207" lon="3.56336">
        <ele>536.55</ele>
        <time>2016-01-05T11:16:35Z</time>
      </trkpt>
      <trkpt lat="43.7821" lon="3.56322">
        <ele>537.03</ele>
        <time>2016-01-05T11:16:46Z</time>
      </trkpt>
      <trkpt lat="43.78205" lon="3.56313">
        <ele>538.48</ele>
        <time>2016-01-05T11:16:57Z</time>
      </trkpt>
      <trkpt lat="43.78201" lon="3.56301">
        <ele>537.51</ele>
        <time>2016-01-05T11:17:10Z</time>
      </trkpt>
      <trkpt lat="43.78193" lon="3.56292">
        <ele>538.96</ele>
        <time>2016-01-05T11:17:24Z</time>
      </trkpt>
      <trkpt lat="43.78185" lon="3.56279">
        <ele>540.88</ele>
        <time>2016-01-05T11:17:39Z</time>
      </trkpt>
      <trkpt lat="43.78178" lon="3.56266">
        <ele>541.84</ele>
        <time>2016-01-05T11:17:52Z</time>
      </trkpt>
      <trkpt lat="43.78176" lon="3.56253">
        <ele>539.44</ele>
        <time>2016-01-05T11:18:05Z</time>
      </trkpt>
      <trkpt lat="43.7818" lon="3.56256">
        <ele>540.88</ele>
        <time>2016-01-05T11:18:30Z</time>
      </trkpt>
      <trkpt lat="43.78189" lon="3.5626">
        <ele>538.96</ele>
        <time>2016-01-05T11:19:01Z</time>
      </trkpt>
      <trkpt lat="43.78191" lon="3.56248">
        <ele>538.48</ele>
        <time>2016-01-05T11:19:17Z</time>
      </trkpt>
      <trkpt lat="43.78186" lon="3.56237">
        <ele>538.48</ele>
        <time>2016-01-05T11:19:33Z</time>
      </trkpt>
      <trkpt lat="43.78183" lon="3.56228">
        <ele>537.51</ele>
        <time>2016-01-05T11:20:18Z</time>
      </trkpt>
      <trkpt lat="43.78179" lon="3.56221">
        <ele>539.44</ele>
        <time>2016-01-05T11:20:34Z</time>
      </trkpt>
      <trkpt lat="43.78182" lon="3.56205">
        <ele>537.99</ele>
        <time>2016-01-05T11:20:55Z</time>
      </trkpt>
      <trkpt lat="43.78176" lon="3.56196">
        <ele>539.44</ele>
        <time>2016-01-05T11:21:11Z</time>
      </trkpt>
      <trkpt lat="43.78168" lon="3.56189">
        <ele>539.92</ele>
        <time>2016-01-05T11:21:24Z</time>
      </trkpt>
      <trkpt lat="43.78168" lon="3.56176">
        <ele>538.48</ele>
        <time>2016-01-05T11:21:40Z</time>
      </trkpt>
      <trkpt lat="43.78159" lon="3.56175">
        <ele>538.96</ele>
        <time>2016-01-05T11:21:51Z</time>
      </trkpt>
      <trkpt lat="43.78156" lon="3.56164">
        <ele>538.96</ele>
        <time>2016-01-05T11:22:03Z</time>
      </trkpt>
      <trkpt lat="43.78153" lon="3.56147">
        <ele>537.03</ele>
        <time>2016-01-05T11:22:17Z</time>
      </trkpt>
      <trkpt lat="43.78155" lon="3.56133">
        <ele>536.07</ele>
        <time>2016-01-05T11:22:31Z</time>
      </trkpt>
      <trkpt lat="43.78154" lon="3.56117">
        <ele>536.07</ele>
        <time>2016-01-05T11:22:46Z</time>
      </trkpt>
      <trkpt lat="43.78159" lon="3.56111">
        <ele>536.07</ele>
        <time>2016-01-05T11:23:10Z</time>
      </trkpt>
      <trkpt lat="43.78168" lon="3.56104">
        <ele>535.11</ele>
        <time>2016-01-05T11:23:25Z</time>
      </trkpt>
      <trkpt lat="43.78167" lon="3.56087">
        <ele>535.59</ele>
        <time>2016-01-05T11:23:42Z</time>
      </trkpt>
      <trkpt lat="43.78161" lon="3.56075">
        <ele>535.11</ele>
        <time>2016-01-05T11:23:53Z</time>
      </trkpt>
      <trkpt lat="43.78154" lon="3.56064">
        <ele>536.55</ele>
        <time>2016-01-05T11:24:05Z</time>
      </trkpt>
      <trkpt lat="43.78149" lon="3.5605">
        <ele>536.55</ele>
        <time>2016-01-05T11:24:21Z</time>
      </trkpt>
      <trkpt lat="43.78152" lon="3.5604">
        <ele>536.55</ele>
        <time>2016-01-05T11:24:33Z</time>
      </trkpt>
      <trkpt lat="43.78162" lon="3.56032">
        <ele>537.99</ele>
        <time>2016-01-05T11:24:45Z</time>
      </trkpt>
      <trkpt lat="43.78168" lon="3.56018">
        <ele>539.44</ele>
        <time>2016-01-05T11:25:08Z</time>
      </trkpt>
      <trkpt lat="43.78172" lon="3.56005">
        <ele>540.88</ele>
        <time>2016-01-05T11:25:21Z</time>
      </trkpt>
      <trkpt lat="43.78181" lon="3.55997">
        <ele>542.32</ele>
        <time>2016-01-05T11:25:43Z</time>
      </trkpt>
      <trkpt lat="43.78189" lon="3.55987">
        <ele>545.2</ele>
        <time>2016-01-05T11:26:01Z</time>
      </trkpt>
      <trkpt lat="43.78197" lon="3.5598">
        <ele>548.09</ele>
        <time>2016-01-05T11:26:22Z</time>
      </trkpt>
      <trkpt lat="43.78207" lon="3.55978">
        <ele>550.49</ele>
        <time>2016-01-05T11:26:41Z</time>
      </trkpt>
      <trkpt lat="43.78214" lon="3.55971">
        <ele>551.93</ele>
        <time>2016-01-05T11:26:58Z</time>
      </trkpt>
      <trkpt lat="43.78221" lon="3.55965">
        <ele>552.9</ele>
        <time>2016-01-05T11:27:12Z</time>
      </trkpt>
      <trkpt lat="43.78225" lon="3.55954">
        <ele>554.34</ele>
        <time>2016-01-05T11:27:35Z</time>
      </trkpt>
      <trkpt lat="43.78219" lon="3.55943">
        <ele>554.82</ele>
        <time>2016-01-05T11:27:47Z</time>
      </trkpt>
      <trkpt lat="43.78213" lon="3.5593">
        <ele>554.82</ele>
        <time>2016-01-05T11:28:03Z</time>
      </trkpt>
      <trkpt lat="43.78206" lon="3.5592">
        <ele>554.82</ele>
        <time>2016-01-05T11:28:12Z</time>
      </trkpt>
      <trkpt lat="43.78198" lon="3.55912">
        <ele>554.82</ele>
        <time>2016-01-05T11:28:21Z</time>
      </trkpt>
      <trkpt lat="43.78191" lon="3.559">
        <ele>554.34</ele>
        <time>2016-01-05T11:28:31Z</time>
      </trkpt>
      <trkpt lat="43.78194" lon="3.55889">
        <ele>555.3</ele>
        <time>2016-01-05T11:28:42Z</time>
      </trkpt>
      <trkpt lat="43.782" lon="3.55875">
        <ele>556.74</ele>
        <time>2016-01-05T11:28:53Z</time>
      </trkpt>
      <trkpt lat="43.78201" lon="3.55862">
        <ele>557.7</ele>
        <time>2016-01-05T11:29:02Z</time>
      </trkpt>
      <trkpt lat="43.78197" lon="3.5585">
        <ele>556.26</ele>
        <time>2016-01-05T11:29:10Z</time>
      </trkpt>
      <trkpt lat="43.78191" lon="3.55839">
        <ele>555.78</ele>
        <time>2016-01-05T11:29:18Z</time>
      </trkpt>
      <trkpt lat="43.78187" lon="3.55824">
        <ele>556.26</ele>
        <time>2016-01-05T11:29:27Z</time>
      </trkpt>
      <trkpt lat="43.78183" lon="3.5581">
        <ele>555.3</ele>
        <time>2016-01-05T11:29:36Z</time>
      </trkpt>
      <trkpt lat="43.78186" lon="3.55797">
        <ele>555.3</ele>
        <time>2016-01-05T11:29:45Z</time>
      </trkpt>
      <trkpt lat="43.78189" lon="3.55783">
        <ele>556.74</ele>
        <time>2016-01-05T11:29:54Z</time>
      </trkpt>
      <trkpt lat="43.78191" lon="3.5577">
        <ele>556.26</ele>
        <time>2016-01-05T11:30:03Z</time>
      </trkpt>
      <trkpt lat="43.78189" lon="3.55756">
        <ele>555.78</ele>
        <time>2016-01-05T11:30:11Z</time>
      </trkpt>
      <trkpt lat="43.78193" lon="3.55743">
        <ele>555.78</ele>
        <time>2016-01-05T11:30:19Z</time>
      </trkpt>
      <trkpt lat="43.7819" lon="3.5573">
        <ele>554.82</ele>
        <time>2016-01-05T11:30:27Z</time>
      </trkpt>
      <trkpt lat="43.78187" lon="3.55716">
        <ele>554.34</ele>
        <time>2016-01-05T11:30:36Z</time>
      </trkpt>
      <trkpt lat="43.78189" lon="3.55702">
        <ele>554.34</ele>
        <time>2016-01-05T11:30:44Z</time>
      </trkpt>
      <trkpt lat="43.78192" lon="3.55689">
        <ele>553.86</ele>
        <time>2016-01-05T11:30:53Z</time>
      </trkpt>
      <trkpt lat="43.78193" lon="3.55675">
        <ele>552.9</ele>
        <time>2016-01-05T11:31:01Z</time>
      </trkpt>
      <trkpt lat="43.78192" lon="3.55661">
        <ele>552.9</ele>
        <time>2016-01-05T11:31:09Z</time>
      </trkpt>
      <trkpt lat="43.78192" lon="3.55645">
        <ele>553.38</ele>
        <time>2016-01-05T11:31:18Z</time>
      </trkpt>
      <trkpt lat="43.78193" lon="3.5563">
        <ele>553.86</ele>
        <time>2016-01-05T11:31:28Z</time>
      </trkpt>
      <trkpt lat="43.78194" lon="3.55615">
        <ele>555.78</ele>
        <time>2016-01-05T11:31:38Z</time>
      </trkpt>
      <trkpt lat="43.78195" lon="3.55601">
        <ele>556.74</ele>
        <time>2016-01-05T11:31:47Z</time>
      </trkpt>
      <trkpt lat="43.78197" lon="3.55587">
        <ele>558.18</ele>
        <time>2016-01-05T11:31:58Z</time>
      </trkpt>
      <trkpt lat="43.78196" lon="3.55572">
        <ele>558.66</ele>
        <time>2016-01-05T11:32:07Z</time>
      </trkpt>
      <trkpt lat="43.78192" lon="3.55559">
        <ele>559.62</ele>
        <time>2016-01-05T11:32:16Z</time>
      </trkpt>
      <trkpt lat="43.78184" lon="3.5555">
        <ele>559.62</ele>
        <time>2016-01-05T11:32:25Z</time>
      </trkpt>
      <trkpt lat="43.78175" lon="3.55544">
        <ele>559.62</ele>
        <time>2016-01-05T11:32:34Z</time>
      </trkpt>
      <trkpt lat="43.78168" lon="3.55536">
        <ele>559.14</ele>
        <time>2016-01-05T11:32:42Z</time>
      </trkpt>
      <trkpt lat="43.78168" lon="3.55523">
        <ele>560.11</ele>
        <time>2016-01-05T11:32:50Z</time>
      </trkpt>
      <trkpt lat="43.78167" lon="3.55509">
        <ele>561.55</ele>
        <time>2016-01-05T11:33:00Z</time>
      </trkpt>
      <trkpt lat="43.78162" lon="3.55498">
        <ele>562.03</ele>
        <time>2016-01-05T11:33:08Z</time>
      </trkpt>
      <trkpt lat="43.78159" lon="3.55483">
        <ele>562.03</ele>
        <time>2016-01-05T11:33:18Z</time>
      </trkpt>
      <trkpt lat="43.78155" lon="3.55471">
        <ele>562.03</ele>
        <time>2016-01-05T11:33:28Z</time>
      </trkpt>
      <trkpt lat="43.78146" lon="3.55471">
        <ele>562.99</ele>
        <time>2016-01-05T11:33:47Z</time>
      </trkpt>
      <trkpt lat="43.78138" lon="3.55476">
        <ele>561.55</ele>
        <time>2016-01-05T11:34:26Z</time>
      </trkpt>
      <trkpt lat="43.78136" lon="3.55479">
        <ele>561.07</ele>
        <time>2016-01-05T11:34:47Z</time>
      </trkpt>
      <trkpt lat="43.78141" lon="3.55469">
        <ele>562.03</ele>
        <time>2016-01-05T11:35:00Z</time>
      </trkpt>
      <trkpt lat="43.78138" lon="3.55475">
        <ele>561.55</ele>
        <time>2016-01-05T11:35:37Z</time>
      </trkpt>
      <trkpt lat="43.78142" lon="3.55466">
        <ele>562.03</ele>
        <time>2016-01-05T11:36:17Z</time>
      </trkpt>
      <trkpt lat="43.78142" lon="3.55477">
        <ele>561.55</ele>
        <time>2016-01-05T11:37:23Z</time>
      </trkpt>
      <trkpt lat="43.78141" lon="3.55472">
        <ele>561.55</ele>
        <time>2016-01-05T11:37:45Z</time>
      </trkpt>
      <trkpt lat="43.78141" lon="3.55468">
        <ele>564.91</ele>
        <time>2016-01-05T12:10:17Z</time>
      </trkpt>
      <trkpt lat="43.78143" lon="3.55459">
        <ele>566.35</ele>
        <time>2016-01-05T12:12:23Z</time>
      </trkpt>
      <trkpt lat="43.78145" lon="3.55447">
        <ele>565.87</ele>
        <time>2016-01-05T12:12:32Z</time>
      </trkpt>
      <trkpt lat="43.7814" lon="3.55434">
        <ele>566.83</ele>
        <time>2016-01-05T12:12:41Z</time>
      </trkpt>
      <trkpt lat="43.78134" lon="3.55423">
        <ele>566.83</ele>
        <time>2016-01-05T12:12:50Z</time>
      </trkpt>
      <trkpt lat="43.78125" lon="3.55415">
        <ele>567.8</ele>
        <time>2016-01-05T12:12:59Z</time>
      </trkpt>
      <trkpt lat="43.78121" lon="3.55402">
        <ele>568.76</ele>
        <time>2016-01-05T12:13:08Z</time>
      </trkpt>
      <trkpt lat="43.78123" lon="3.55388">
        <ele>569.24</ele>
        <time>2016-01-05T12:13:18Z</time>
      </trkpt>
      <trkpt lat="43.78124" lon="3.55373">
        <ele>569.24</ele>
        <time>2016-01-05T12:13:28Z</time>
      </trkpt>
      <trkpt lat="43.78121" lon="3.55357">
        <ele>570.68</ele>
        <time>2016-01-05T12:13:38Z</time>
      </trkpt>
      <trkpt lat="43.78117" lon="3.55343">
        <ele>571.16</ele>
        <time>2016-01-05T12:13:47Z</time>
      </trkpt>
      <trkpt lat="43.78112" lon="3.55331">
        <ele>571.64</ele>
        <time>2016-01-05T12:13:54Z</time>
      </trkpt>
      <trkpt lat="43.78108" lon="3.55318">
        <ele>572.6</ele>
        <time>2016-01-05T12:14:03Z</time>
      </trkpt>
      <trkpt lat="43.78105" lon="3.55304">
        <ele>572.12</ele>
        <time>2016-01-05T12:14:11Z</time>
      </trkpt>
      <trkpt lat="43.78103" lon="3.55291">
        <ele>571.16</ele>
        <time>2016-01-05T12:14:19Z</time>
      </trkpt>
      <trkpt lat="43.78099" lon="3.55277">
        <ele>573.08</ele>
        <time>2016-01-05T12:14:27Z</time>
      </trkpt>
      <trkpt lat="43.78095" lon="3.55265">
        <ele>573.08</ele>
        <time>2016-01-05T12:14:35Z</time>
      </trkpt>
      <trkpt lat="43.78091" lon="3.55253">
        <ele>573.08</ele>
        <time>2016-01-05T12:14:42Z</time>
      </trkpt>
      <trkpt lat="43.7809" lon="3.5524">
        <ele>573.56</ele>
        <time>2016-01-05T12:14:50Z</time>
      </trkpt>
      <trkpt lat="43.78099" lon="3.55231">
        <ele>575.01</ele>
        <time>2016-01-05T12:14:59Z</time>
      </trkpt>
      <trkpt lat="43.78104" lon="3.5522">
        <ele>576.45</ele>
        <time>2016-01-05T12:15:07Z</time>
      </trkpt>
      <trkpt lat="43.7811" lon="3.55209">
        <ele>575.49</ele>
        <time>2016-01-05T12:15:15Z</time>
      </trkpt>
      <trkpt lat="43.78114" lon="3.55195">
        <ele>576.93</ele>
        <time>2016-01-05T12:15:24Z</time>
      </trkpt>
      <trkpt lat="43.78114" lon="3.55181">
        <ele>577.41</ele>
        <time>2016-01-05T12:15:32Z</time>
      </trkpt>
      <trkpt lat="43.78114" lon="3.55168">
        <ele>576.93</ele>
        <time>2016-01-05T12:15:39Z</time>
      </trkpt>
      <trkpt lat="43.78113" lon="3.55154">
        <ele>577.41</ele>
        <time>2016-01-05T12:15:47Z</time>
      </trkpt>
      <trkpt lat="43.78113" lon="3.55141">
        <ele>577.41</ele>
        <time>2016-01-05T12:15:53Z</time>
      </trkpt>
      <trkpt lat="43.7811" lon="3.55129">
        <ele>577.89</ele>
        <time>2016-01-05T12:16:00Z</time>
      </trkpt>
      <trkpt lat="43.78108" lon="3.55116">
        <ele>578.37</ele>
        <time>2016-01-05T12:16:08Z</time>
      </trkpt>
      <trkpt lat="43.78104" lon="3.55104">
        <ele>579.33</ele>
        <time>2016-01-05T12:16:15Z</time>
      </trkpt>
      <trkpt lat="43.78101" lon="3.55091">
        <ele>576.45</ele>
        <time>2016-01-05T12:16:22Z</time>
      </trkpt>
      <trkpt lat="43.78095" lon="3.55081">
        <ele>576.93</ele>
        <time>2016-01-05T12:16:29Z</time>
      </trkpt>
      <trkpt lat="43.78088" lon="3.55071">
        <ele>577.41</ele>
        <time>2016-01-05T12:16:36Z</time>
      </trkpt>
      <trkpt lat="43.78081" lon="3.55061">
        <ele>577.89</ele>
        <time>2016-01-05T12:16:43Z</time>
      </trkpt>
      <trkpt lat="43.78072" lon="3.55055">
        <ele>577.41</ele>
        <time>2016-01-05T12:16:50Z</time>
      </trkpt>
      <trkpt lat="43.78064" lon="3.55046">
        <ele>577.41</ele>
        <time>2016-01-05T12:16:57Z</time>
      </trkpt>
      <trkpt lat="43.78056" lon="3.5504">
        <ele>576.93</ele>
        <time>2016-01-05T12:17:04Z</time>
      </trkpt>
      <trkpt lat="43.7805" lon="3.5503">
        <ele>577.41</ele>
        <time>2016-01-05T12:17:11Z</time>
      </trkpt>
      <trkpt lat="43.78042" lon="3.55022">
        <ele>576.45</ele>
        <time>2016-01-05T12:17:18Z</time>
      </trkpt>
      <trkpt lat="43.78036" lon="3.55013">
        <ele>575.97</ele>
        <time>2016-01-05T12:17:25Z</time>
      </trkpt>
      <trkpt lat="43.78029" lon="3.55004">
        <ele>575.49</ele>
        <time>2016-01-05T12:17:32Z</time>
      </trkpt>
      <trkpt lat="43.78023" lon="3.54994">
        <ele>575.01</ele>
        <time>2016-01-05T12:17:39Z</time>
      </trkpt>
      <trkpt lat="43.78018" lon="3.54984">
        <ele>574.53</ele>
        <time>2016-01-05T12:17:46Z</time>
      </trkpt>
      <trkpt lat="43.78012" lon="3.54972">
        <ele>574.04</ele>
        <time>2016-01-05T12:17:54Z</time>
      </trkpt>
      <trkpt lat="43.78006" lon="3.5496">
        <ele>574.04</ele>
        <time>2016-01-05T12:18:02Z</time>
      </trkpt>
      <trkpt lat="43.78001" lon="3.54948">
        <ele>573.08</ele>
        <time>2016-01-05T12:18:09Z</time>
      </trkpt>
      <trkpt lat="43.77995" lon="3.54938">
        <ele>572.12</ele>
        <time>2016-01-05T12:18:16Z</time>
      </trkpt>
      <trkpt lat="43.7799" lon="3.54924">
        <ele>571.64</ele>
        <time>2016-01-05T12:18:23Z</time>
      </trkpt>
      <trkpt lat="43.77983" lon="3.54913">
        <ele>571.16</ele>
        <time>2016-01-05T12:18:31Z</time>
      </trkpt>
      <trkpt lat="43.77977" lon="3.54901">
        <ele>570.68</ele>
        <time>2016-01-05T12:18:38Z</time>
      </trkpt>
      <trkpt lat="43.77972" lon="3.54888">
        <ele>570.68</ele>
        <time>2016-01-05T12:18:45Z</time>
      </trkpt>
      <trkpt lat="43.77966" lon="3.54876">
        <ele>570.68</ele>
        <time>2016-01-05T12:18:52Z</time>
      </trkpt>
      <trkpt lat="43.7796" lon="3.54864">
        <ele>570.2</ele>
        <time>2016-01-05T12:18:59Z</time>
      </trkpt>
      <trkpt lat="43.77957" lon="3.54851">
        <ele>570.2</ele>
        <time>2016-01-05T12:19:06Z</time>
      </trkpt>
      <trkpt lat="43.77952" lon="3.54839">
        <ele>569.72</ele>
        <time>2016-01-05T12:19:13Z</time>
      </trkpt>
      <trkpt lat="43.77948" lon="3.54827">
        <ele>569.24</ele>
        <time>2016-01-05T12:19:20Z</time>
      </trkpt>
      <trkpt lat="43.77943" lon="3.54814">
        <ele>568.28</ele>
        <time>2016-01-05T12:19:27Z</time>
      </trkpt>
      <trkpt lat="43.77935" lon="3.54805">
        <ele>567.8</ele>
        <time>2016-01-05T12:19:34Z</time>
      </trkpt>
      <trkpt lat="43.77929" lon="3.54793">
        <ele>567.32</ele>
        <time>2016-01-05T12:19:41Z</time>
      </trkpt>
      <trkpt lat="43.77924" lon="3.54781">
        <ele>567.8</ele>
        <time>2016-01-05T12:19:48Z</time>
      </trkpt>
      <trkpt lat="43.77918" lon="3.54771">
        <ele>568.28</ele>
        <time>2016-01-05T12:19:56Z</time>
      </trkpt>
      <trkpt lat="43.77913" lon="3.54756">
        <ele>568.76</ele>
        <time>2016-01-05T12:20:05Z</time>
      </trkpt>
      <trkpt lat="43.77909" lon="3.54742">
        <ele>569.24</ele>
        <time>2016-01-05T12:20:12Z</time>
      </trkpt>
      <trkpt lat="43.77907" lon="3.54728">
        <ele>570.2</ele>
        <time>2016-01-05T12:20:20Z</time>
      </trkpt>
      <trkpt lat="43.77909" lon="3.54715">
        <ele>570.68</ele>
        <time>2016-01-05T12:20:28Z</time>
      </trkpt>
      <trkpt lat="43.77913" lon="3.54702">
        <ele>570.68</ele>
        <time>2016-01-05T12:20:37Z</time>
      </trkpt>
      <trkpt lat="43.77917" lon="3.5469">
        <ele>571.16</ele>
        <time>2016-01-05T12:20:45Z</time>
      </trkpt>
      <trkpt lat="43.77921" lon="3.54677">
        <ele>571.64</ele>
        <time>2016-01-05T12:20:53Z</time>
      </trkpt>
      <trkpt lat="43.77925" lon="3.54663">
        <ele>571.64</ele>
        <time>2016-01-05T12:21:01Z</time>
      </trkpt>
      <trkpt lat="43.7793" lon="3.54653">
        <ele>571.64</ele>
        <time>2016-01-05T12:21:08Z</time>
      </trkpt>
      <trkpt lat="43.77934" lon="3.54639">
        <ele>570.68</ele>
        <time>2016-01-05T12:21:16Z</time>
      </trkpt>
      <trkpt lat="43.77934" lon="3.54625">
        <ele>570.68</ele>
        <time>2016-01-05T12:21:23Z</time>
      </trkpt>
      <trkpt lat="43.77932" lon="3.5461">
        <ele>571.16</ele>
        <time>2016-01-05T12:21:31Z</time>
      </trkpt>
      <trkpt lat="43.77927" lon="3.54598">
        <ele>571.16</ele>
        <time>2016-01-05T12:21:38Z</time>
      </trkpt>
      <trkpt lat="43.77922" lon="3.54585">
        <ele>571.64</ele>
        <time>2016-01-05T12:21:46Z</time>
      </trkpt>
      <trkpt lat="43.77916" lon="3.54574">
        <ele>571.64</ele>
        <time>2016-01-05T12:21:53Z</time>
      </trkpt>
      <trkpt lat="43.7791" lon="3.54562">
        <ele>571.64</ele>
        <time>2016-01-05T12:22:01Z</time>
      </trkpt>
      <trkpt lat="43.77904" lon="3.54552">
        <ele>572.12</ele>
        <time>2016-01-05T12:22:08Z</time>
      </trkpt>
      <trkpt lat="43.77897" lon="3.54541">
        <ele>572.12</ele>
        <time>2016-01-05T12:22:16Z</time>
      </trkpt>
      <trkpt lat="43.77892" lon="3.54529">
        <ele>572.12</ele>
        <time>2016-01-05T12:22:24Z</time>
      </trkpt>
      <trkpt lat="43.77889" lon="3.54515">
        <ele>571.64</ele>
        <time>2016-01-05T12:22:32Z</time>
      </trkpt>
      <trkpt lat="43.7789" lon="3.54501">
        <ele>571.16</ele>
        <time>2016-01-05T12:22:40Z</time>
      </trkpt>
      <trkpt lat="43.77893" lon="3.54488">
        <ele>571.16</ele>
        <time>2016-01-05T12:22:47Z</time>
      </trkpt>
      <trkpt lat="43.77895" lon="3.54476">
        <ele>570.68</ele>
        <time>2016-01-05T12:22:54Z</time>
      </trkpt>
      <trkpt lat="43.77898" lon="3.54463">
        <ele>570.2</ele>
        <time>2016-01-05T12:23:01Z</time>
      </trkpt>
      <trkpt lat="43.77901" lon="3.54449">
        <ele>568.76</ele>
        <time>2016-01-05T12:23:09Z</time>
      </trkpt>
      <trkpt lat="43.77899" lon="3.54436">
        <ele>568.28</ele>
        <time>2016-01-05T12:23:16Z</time>
      </trkpt>
      <trkpt lat="43.77896" lon="3.54424">
        <ele>568.28</ele>
        <time>2016-01-05T12:23:23Z</time>
      </trkpt>
      <trkpt lat="43.77892" lon="3.54412">
        <ele>568.28</ele>
        <time>2016-01-05T12:23:30Z</time>
      </trkpt>
      <trkpt lat="43.77891" lon="3.54398">
        <ele>568.28</ele>
        <time>2016-01-05T12:23:37Z</time>
      </trkpt>
      <trkpt lat="43.77887" lon="3.54385">
        <ele>567.32</ele>
        <time>2016-01-05T12:23:44Z</time>
      </trkpt>
      <trkpt lat="43.77885" lon="3.54371">
        <ele>567.32</ele>
        <time>2016-01-05T12:23:52Z</time>
      </trkpt>
      <trkpt lat="43.77881" lon="3.54357">
        <ele>566.83</ele>
        <time>2016-01-05T12:24:00Z</time>
      </trkpt>
      <trkpt lat="43.77877" lon="3.54343">
        <ele>564.91</ele>
        <time>2016-01-05T12:24:09Z</time>
      </trkpt>
      <trkpt lat="43.77874" lon="3.5433">
        <ele>564.91</ele>
        <time>2016-01-05T12:24:19Z</time>
      </trkpt>
      <trkpt lat="43.77869" lon="3.54318">
        <ele>564.91</ele>
        <time>2016-01-05T12:24:27Z</time>
      </trkpt>
      <trkpt lat="43.77864" lon="3.54305">
        <ele>565.39</ele>
        <time>2016-01-05T12:24:35Z</time>
      </trkpt>
      <trkpt lat="43.77859" lon="3.54292">
        <ele>564.91</ele>
        <time>2016-01-05T12:24:43Z</time>
      </trkpt>
      <trkpt lat="43.77857" lon="3.54279">
        <ele>564.43</ele>
        <time>2016-01-05T12:24:51Z</time>
      </trkpt>
      <trkpt lat="43.77855" lon="3.54265">
        <ele>562.99</ele>
        <time>2016-01-05T12:24:58Z</time>
      </trkpt>
      <trkpt lat="43.77852" lon="3.54251">
        <ele>562.51</ele>
        <time>2016-01-05T12:25:05Z</time>
      </trkpt>
      <trkpt lat="43.77853" lon="3.54239">
        <ele>562.03</ele>
        <time>2016-01-05T12:25:12Z</time>
      </trkpt>
      <trkpt lat="43.77853" lon="3.54225">
        <ele>561.07</ele>
        <time>2016-01-05T12:25:20Z</time>
      </trkpt>
      <trkpt lat="43.77853" lon="3.5421">
        <ele>561.55</ele>
        <time>2016-01-05T12:25:28Z</time>
      </trkpt>
      <trkpt lat="43.77854" lon="3.54195">
        <ele>560.59</ele>
        <time>2016-01-05T12:25:35Z</time>
      </trkpt>
      <trkpt lat="43.77854" lon="3.5418">
        <ele>559.62</ele>
        <time>2016-01-05T12:25:42Z</time>
      </trkpt>
      <trkpt lat="43.7785" lon="3.54167">
        <ele>558.66</ele>
        <time>2016-01-05T12:25:49Z</time>
      </trkpt>
      <trkpt lat="43.77847" lon="3.54152">
        <ele>557.7</ele>
        <time>2016-01-05T12:25:57Z</time>
      </trkpt>
      <trkpt lat="43.77844" lon="3.54139">
        <ele>557.22</ele>
        <time>2016-01-05T12:26:04Z</time>
      </trkpt>
      <trkpt lat="43.77838" lon="3.54126">
        <ele>556.74</ele>
        <time>2016-01-05T12:26:11Z</time>
      </trkpt>
      <trkpt lat="43.77833" lon="3.54116">
        <ele>556.74</ele>
        <time>2016-01-05T12:26:17Z</time>
      </trkpt>
      <trkpt lat="43.77827" lon="3.54103">
        <ele>555.3</ele>
        <time>2016-01-05T12:26:25Z</time>
      </trkpt>
      <trkpt lat="43.7782" lon="3.5409">
        <ele>555.78</ele>
        <time>2016-01-05T12:26:33Z</time>
      </trkpt>
      <trkpt lat="43.77816" lon="3.54077">
        <ele>554.34</ele>
        <time>2016-01-05T12:26:40Z</time>
      </trkpt>
      <trkpt lat="43.77811" lon="3.54065">
        <ele>553.38</ele>
        <time>2016-01-05T12:26:47Z</time>
      </trkpt>
      <trkpt lat="43.77807" lon="3.54053">
        <ele>552.41</ele>
        <time>2016-01-05T12:26:55Z</time>
      </trkpt>
      <trkpt lat="43.77804" lon="3.54039">
        <ele>551.93</ele>
        <time>2016-01-05T12:27:03Z</time>
      </trkpt>
      <trkpt lat="43.77799" lon="3.54025">
        <ele>550.97</ele>
        <time>2016-01-05T12:27:11Z</time>
      </trkpt>
      <trkpt lat="43.77794" lon="3.54013">
        <ele>550.49</ele>
        <time>2016-01-05T12:27:18Z</time>
      </trkpt>
      <trkpt lat="43.77789" lon="3.54">
        <ele>550.01</ele>
        <time>2016-01-05T12:27:26Z</time>
      </trkpt>
      <trkpt lat="43.77783" lon="3.53987">
        <ele>549.05</ele>
        <time>2016-01-05T12:27:34Z</time>
      </trkpt>
      <trkpt lat="43.77776" lon="3.53975">
        <ele>548.09</ele>
        <time>2016-01-05T12:27:42Z</time>
      </trkpt>
      <trkpt lat="43.77771" lon="3.53963">
        <ele>547.13</ele>
        <time>2016-01-05T12:27:50Z</time>
      </trkpt>
      <trkpt lat="43.77767" lon="3.53951">
        <ele>546.65</ele>
        <time>2016-01-05T12:28:01Z</time>
      </trkpt>
      <trkpt lat="43.77761" lon="3.53943">
        <ele>545.2</ele>
        <time>2016-01-05T12:28:34Z</time>
      </trkpt>
      <trkpt lat="43.77756" lon="3.5395">
        <ele>544.24</ele>
        <time>2016-01-05T12:29:50Z</time>
      </trkpt>
      <trkpt lat="43.77747" lon="3.53944">
        <ele>543.28</ele>
        <time>2016-01-05T12:29:58Z</time>
      </trkpt>
      <trkpt lat="43.77742" lon="3.53932">
        <ele>542.8</ele>
        <time>2016-01-05T12:30:05Z</time>
      </trkpt>
      <trkpt lat="43.77738" lon="3.5392">
        <ele>541.84</ele>
        <time>2016-01-05T12:30:12Z</time>
      </trkpt>
      <trkpt lat="43.77733" lon="3.53908">
        <ele>539.92</ele>
        <time>2016-01-05T12:30:20Z</time>
      </trkpt>
      <trkpt lat="43.77727" lon="3.53898">
        <ele>538.96</ele>
        <time>2016-01-05T12:30:27Z</time>
      </trkpt>
      <trkpt lat="43.77721" lon="3.53888">
        <ele>537.51</ele>
        <time>2016-01-05T12:30:34Z</time>
      </trkpt>
      <trkpt lat="43.77715" lon="3.53877">
        <ele>536.55</ele>
        <time>2016-01-05T12:30:42Z</time>
      </trkpt>
      <trkpt lat="43.7771" lon="3.53864">
        <ele>536.07</ele>
        <time>2016-01-05T12:30:50Z</time>
      </trkpt>
      <trkpt lat="43.77704" lon="3.53852">
        <ele>535.59</ele>
        <time>2016-01-05T12:30:57Z</time>
      </trkpt>
      <trkpt lat="43.77706" lon="3.53847">
        <ele>536.55</ele>
        <time>2016-01-05T12:31:09Z</time>
      </trkpt>
      <trkpt lat="43.77708" lon="3.53842">
        <ele>537.03</ele>
        <time>2016-01-05T12:31:26Z</time>
      </trkpt>
      <trkpt lat="43.77701" lon="3.53837">
        <ele>534.63</ele>
        <time>2016-01-05T12:31:36Z</time>
      </trkpt>
      <trkpt lat="43.77693" lon="3.53829">
        <ele>533.19</ele>
        <time>2016-01-05T12:31:44Z</time>
      </trkpt>
      <trkpt lat="43.77686" lon="3.53819">
        <ele>531.75</ele>
        <time>2016-01-05T12:31:51Z</time>
      </trkpt>
      <trkpt lat="43.7768" lon="3.53806">
        <ele>531.27</ele>
        <time>2016-01-05T12:31:59Z</time>
      </trkpt>
      <trkpt lat="43.77674" lon="3.53792">
        <ele>531.75</ele>
        <time>2016-01-05T12:33:05Z</time>
      </trkpt>
      <trkpt lat="43.77676" lon="3.53781">
        <ele>531.75</ele>
        <time>2016-01-05T12:33:16Z</time>
      </trkpt>
      <trkpt lat="43.77685" lon="3.53774">
        <ele>533.67</ele>
        <time>2016-01-05T12:33:26Z</time>
      </trkpt>
      <trkpt lat="43.77695" lon="3.53773">
        <ele>536.07</ele>
        <time>2016-01-05T12:33:38Z</time>
      </trkpt>
      <trkpt lat="43.77708" lon="3.53774">
        <ele>537.99</ele>
        <time>2016-01-05T12:33:50Z</time>
      </trkpt>
      <trkpt lat="43.77719" lon="3.53777">
        <ele>539.44</ele>
        <time>2016-01-05T12:34:02Z</time>
      </trkpt>
      <trkpt lat="43.77731" lon="3.53776">
        <ele>541.84</ele>
        <time>2016-01-05T12:34:17Z</time>
      </trkpt>
      <trkpt lat="43.77742" lon="3.5377">
        <ele>543.76</ele>
        <time>2016-01-05T12:34:55Z</time>
      </trkpt>
      <trkpt lat="43.7775" lon="3.53773">
        <ele>543.76</ele>
        <time>2016-01-05T12:36:20Z</time>
      </trkpt>
      <trkpt lat="43.77759" lon="3.53776">
        <ele>545.69</ele>
        <time>2016-01-05T12:36:30Z</time>
      </trkpt>
      <trkpt lat="43.77769" lon="3.53782">
        <ele>549.05</ele>
        <time>2016-01-05T12:36:44Z</time>
      </trkpt>
      <trkpt lat="43.77778" lon="3.53778">
        <ele>550.97</ele>
        <time>2016-01-05T12:36:56Z</time>
      </trkpt>
      <trkpt lat="43.7779" lon="3.53784">
        <ele>551.45</ele>
        <time>2016-01-05T12:37:09Z</time>
      </trkpt>
      <trkpt lat="43.77801" lon="3.53793">
        <ele>551.45</ele>
        <time>2016-01-05T12:37:30Z</time>
      </trkpt>
      <trkpt lat="43.77808" lon="3.53804">
        <ele>554.34</ele>
        <time>2016-01-05T12:37:43Z</time>
      </trkpt>
      <trkpt lat="43.77818" lon="3.53811">
        <ele>558.18</ele>
        <time>2016-01-05T12:37:54Z</time>
      </trkpt>
      <trkpt lat="43.77828" lon="3.53817">
        <ele>559.14</ele>
        <time>2016-01-05T12:38:05Z</time>
      </trkpt>
      <trkpt lat="43.7784" lon="3.53821">
        <ele>559.62</ele>
        <time>2016-01-05T12:38:19Z</time>
      </trkpt>
      <trkpt lat="43.7785" lon="3.53828">
        <ele>562.03</ele>
        <time>2016-01-05T12:38:31Z</time>
      </trkpt>
      <trkpt lat="43.77861" lon="3.53833">
        <ele>562.99</ele>
        <time>2016-01-05T12:38:45Z</time>
      </trkpt>
      <trkpt lat="43.7787" lon="3.53825">
        <ele>564.91</ele>
        <time>2016-01-05T12:38:57Z</time>
      </trkpt>
      <trkpt lat="43.77879" lon="3.53814">
        <ele>568.28</ele>
        <time>2016-01-05T12:39:12Z</time>
      </trkpt>
      <trkpt lat="43.77889" lon="3.53811">
        <ele>570.68</ele>
        <time>2016-01-05T12:39:34Z</time>
      </trkpt>
      <trkpt lat="43.779" lon="3.53808">
        <ele>572.6</ele>
        <time>2016-01-05T12:39:52Z</time>
      </trkpt>
      <trkpt lat="43.77908" lon="3.53796">
        <ele>578.37</ele>
        <time>2016-01-05T12:40:14Z</time>
      </trkpt>
      <trkpt lat="43.77918" lon="3.53798">
        <ele>581.73</ele>
        <time>2016-01-05T12:40:31Z</time>
      </trkpt>
      <trkpt lat="43.7793" lon="3.53807">
        <ele>584.14</ele>
        <time>2016-01-05T12:40:55Z</time>
      </trkpt>
      <trkpt lat="43.77941" lon="3.53815">
        <ele>585.58</ele>
        <time>2016-01-05T12:41:09Z</time>
      </trkpt>
      <trkpt lat="43.7795" lon="3.53827">
        <ele>586.06</ele>
        <time>2016-01-05T12:41:24Z</time>
      </trkpt>
      <trkpt lat="43.7796" lon="3.53841">
        <ele>587.02</ele>
        <time>2016-01-05T12:41:37Z</time>
      </trkpt>
      <trkpt lat="43.77969" lon="3.53852">
        <ele>587.98</ele>
        <time>2016-01-05T12:41:48Z</time>
      </trkpt>
      <trkpt lat="43.77982" lon="3.53862">
        <ele>588.46</ele>
        <time>2016-01-05T12:42:03Z</time>
      </trkpt>
      <trkpt lat="43.77995" lon="3.53864">
        <ele>591.35</ele>
        <time>2016-01-05T12:42:18Z</time>
      </trkpt>
      <trkpt lat="43.78006" lon="3.53867">
        <ele>590.87</ele>
        <time>2016-01-05T12:42:29Z</time>
      </trkpt>
      <trkpt lat="43.78019" lon="3.5387">
        <ele>590.39</ele>
        <time>2016-01-05T12:42:38Z</time>
      </trkpt>
      <trkpt lat="43.78033" lon="3.53869">
        <ele>591.35</ele>
        <time>2016-01-05T12:42:50Z</time>
      </trkpt>
      <trkpt lat="43.78045" lon="3.53867">
        <ele>592.79</ele>
        <time>2016-01-05T12:43:02Z</time>
      </trkpt>
      <trkpt lat="43.7806" lon="3.53868">
        <ele>594.23</ele>
        <time>2016-01-05T12:43:16Z</time>
      </trkpt>
      <trkpt lat="43.78076" lon="3.53872">
        <ele>597.12</ele>
        <time>2016-01-05T12:43:33Z</time>
      </trkpt>
      <trkpt lat="43.78088" lon="3.53871">
        <ele>599.04</ele>
        <time>2016-01-05T12:43:47Z</time>
      </trkpt>
      <trkpt lat="43.781" lon="3.53882">
        <ele>600.96</ele>
        <time>2016-01-05T12:44:06Z</time>
      </trkpt>
      <trkpt lat="43.78106" lon="3.53887">
        <ele>602.4</ele>
        <time>2016-01-05T12:46:29Z</time>
      </trkpt>
      <trkpt lat="43.78115" lon="3.53893">
        <ele>604.33</ele>
        <time>2016-01-05T12:46:41Z</time>
      </trkpt>
      <trkpt lat="43.78131" lon="3.53894">
        <ele>607.21</ele>
        <time>2016-01-05T12:47:02Z</time>
      </trkpt>
      <trkpt lat="43.78144" lon="3.5389">
        <ele>609.61</ele>
        <time>2016-01-05T12:47:18Z</time>
      </trkpt>
      <trkpt lat="43.78157" lon="3.53885">
        <ele>612.98</ele>
        <time>2016-01-05T12:47:38Z</time>
      </trkpt>
      <trkpt lat="43.78171" lon="3.53884">
        <ele>616.34</ele>
        <time>2016-01-05T12:47:59Z</time>
      </trkpt>
      <trkpt lat="43.78186" lon="3.53882">
        <ele>617.78</ele>
        <time>2016-01-05T12:48:19Z</time>
      </trkpt>
      <trkpt lat="43.78203" lon="3.53881">
        <ele>620.19</ele>
        <time>2016-01-05T12:48:39Z</time>
      </trkpt>
      <trkpt lat="43.7822" lon="3.5388">
        <ele>623.07</ele>
        <time>2016-01-05T12:48:59Z</time>
      </trkpt>
      <trkpt lat="43.78232" lon="3.53877">
        <ele>626.92</ele>
        <time>2016-01-05T12:49:28Z</time>
      </trkpt>
      <trkpt lat="43.78249" lon="3.53887">
        <ele>631.72</ele>
        <time>2016-01-05T12:50:11Z</time>
      </trkpt>
      <trkpt lat="43.78257" lon="3.5389">
        <ele>635.57</ele>
        <time>2016-01-05T12:50:43Z</time>
      </trkpt>
      <trkpt lat="43.78261" lon="3.53871">
        <ele>640.38</ele>
        <time>2016-01-05T12:51:39Z</time>
      </trkpt>
      <trkpt lat="43.78266" lon="3.53869">
        <ele>643.74</ele>
        <time>2016-01-05T12:52:01Z</time>
      </trkpt>
      <trkpt lat="43.78272" lon="3.53883">
        <ele>645.66</ele>
        <time>2016-01-05T12:52:20Z</time>
      </trkpt>
      <trkpt lat="43.78277" lon="3.5387">
        <ele>648.07</ele>
        <time>2016-01-05T12:52:37Z</time>
      </trkpt>
      <trkpt lat="43.7828" lon="3.53856">
        <ele>651.43</ele>
        <time>2016-01-05T12:53:01Z</time>
      </trkpt>
      <trkpt lat="43.78285" lon="3.53871">
        <ele>654.31</ele>
        <time>2016-01-05T12:53:20Z</time>
      </trkpt>
      <trkpt lat="43.78287" lon="3.53854">
        <ele>656.72</ele>
        <time>2016-01-05T12:53:43Z</time>
      </trkpt>
      <trkpt lat="43.78294" lon="3.53851">
        <ele>660.08</ele>
        <time>2016-01-05T12:54:09Z</time>
      </trkpt>
      <trkpt lat="43.783" lon="3.53862">
        <ele>662.97</ele>
        <time>2016-01-05T12:54:31Z</time>
      </trkpt>
      <trkpt lat="43.78304" lon="3.53883">
        <ele>666.33</ele>
        <time>2016-01-05T12:54:56Z</time>
      </trkpt>
      <trkpt lat="43.7831" lon="3.53896">
        <ele>668.73</ele>
        <time>2016-01-05T12:55:14Z</time>
      </trkpt>
      <trkpt lat="43.78318" lon="3.53907">
        <ele>671.14</ele>
        <time>2016-01-05T12:55:35Z</time>
      </trkpt>
      <trkpt lat="43.78327" lon="3.5392">
        <ele>673.54</ele>
        <time>2016-01-05T12:55:55Z</time>
      </trkpt>
      <trkpt lat="43.78337" lon="3.53928">
        <ele>676.91</ele>
        <time>2016-01-05T12:56:20Z</time>
      </trkpt>
      <trkpt lat="43.78347" lon="3.53935">
        <ele>680.27</ele>
        <time>2016-01-05T12:56:42Z</time>
      </trkpt>
      <trkpt lat="43.78359" lon="3.53941">
        <ele>683.15</ele>
        <time>2016-01-05T12:57:19Z</time>
      </trkpt>
      <trkpt lat="43.7837" lon="3.53951">
        <ele>685.08</ele>
        <time>2016-01-05T12:57:36Z</time>
      </trkpt>
      <trkpt lat="43.7838" lon="3.53962">
        <ele>685.56</ele>
        <time>2016-01-05T12:57:51Z</time>
      </trkpt>
      <trkpt lat="43.78388" lon="3.53979">
        <ele>684.6</ele>
        <time>2016-01-05T12:58:05Z</time>
      </trkpt>
      <trkpt lat="43.78398" lon="3.53991">
        <ele>685.56</ele>
        <time>2016-01-05T12:58:19Z</time>
      </trkpt>
      <trkpt lat="43.78408" lon="3.54001">
        <ele>687.96</ele>
        <time>2016-01-05T12:58:38Z</time>
      </trkpt>
      <trkpt lat="43.78409" lon="3.53989">
        <ele>688.92</ele>
        <time>2016-01-05T12:58:52Z</time>
      </trkpt>
      <trkpt lat="43.78418" lon="3.53996">
        <ele>691.81</ele>
        <time>2016-01-05T12:59:08Z</time>
      </trkpt>
      <trkpt lat="43.78428" lon="3.54005">
        <ele>693.73</ele>
        <time>2016-01-05T12:59:23Z</time>
      </trkpt>
      <trkpt lat="43.78434" lon="3.54017">
        <ele>694.21</ele>
        <time>2016-01-05T12:59:37Z</time>
      </trkpt>
      <trkpt lat="43.78443" lon="3.5403">
        <ele>695.17</ele>
        <time>2016-01-05T12:59:52Z</time>
      </trkpt>
      <trkpt lat="43.7845" lon="3.54045">
        <ele>694.69</ele>
        <time>2016-01-05T13:00:06Z</time>
      </trkpt>
      <trkpt lat="43.78459" lon="3.54057">
        <ele>694.21</ele>
        <time>2016-01-05T13:00:17Z</time>
      </trkpt>
      <trkpt lat="43.78467" lon="3.54068">
        <ele>693.73</ele>
        <time>2016-01-05T13:00:29Z</time>
      </trkpt>
      <trkpt lat="43.78478" lon="3.54072">
        <ele>694.21</ele>
        <time>2016-01-05T13:00:41Z</time>
      </trkpt>
      <trkpt lat="43.78488" lon="3.54076">
        <ele>695.17</ele>
        <time>2016-01-05T13:00:51Z</time>
      </trkpt>
      <trkpt lat="43.78495" lon="3.54087">
        <ele>693.73</ele>
        <time>2016-01-05T13:01:02Z</time>
      </trkpt>
      <trkpt lat="43.78505" lon="3.54091">
        <ele>692.77</ele>
        <time>2016-01-05T13:01:14Z</time>
      </trkpt>
      <trkpt lat="43.78516" lon="3.54093">
        <ele>691.81</ele>
        <time>2016-01-05T13:01:24Z</time>
      </trkpt>
      <trkpt lat="43.78527" lon="3.54097">
        <ele>691.81</ele>
        <time>2016-01-05T13:01:34Z</time>
      </trkpt>
      <trkpt lat="43.78539" lon="3.54096">
        <ele>691.81</ele>
        <time>2016-01-05T13:01:46Z</time>
      </trkpt>
      <trkpt lat="43.7855" lon="3.54097">
        <ele>692.29</ele>
        <time>2016-01-05T13:01:55Z</time>
      </trkpt>
      <trkpt lat="43.78562" lon="3.54098">
        <ele>692.77</ele>
        <time>2016-01-05T13:02:26Z</time>
      </trkpt>
      <trkpt lat="43.78572" lon="3.54094">
        <ele>690.84</ele>
        <time>2016-01-05T13:02:41Z</time>
      </trkpt>
      <trkpt lat="43.78583" lon="3.54092">
        <ele>689.4</ele>
        <time>2016-01-05T13:02:53Z</time>
      </trkpt>
      <trkpt lat="43.78594" lon="3.54093">
        <ele>688.44</ele>
        <time>2016-01-05T13:03:05Z</time>
      </trkpt>
      <trkpt lat="43.78606" lon="3.54093">
        <ele>684.6</ele>
        <time>2016-01-05T13:03:18Z</time>
      </trkpt>
      <trkpt lat="43.78616" lon="3.54095">
        <ele>683.63</ele>
        <time>2016-01-05T13:03:34Z</time>
      </trkpt>
      <trkpt lat="43.78627" lon="3.54101">
        <ele>679.79</ele>
        <time>2016-01-05T13:03:49Z</time>
      </trkpt>
      <trkpt lat="43.78635" lon="3.5411">
        <ele>676.91</ele>
        <time>2016-01-05T13:04:00Z</time>
      </trkpt>
      <trkpt lat="43.78642" lon="3.54121">
        <ele>674.5</ele>
        <time>2016-01-05T13:04:10Z</time>
      </trkpt>
      <trkpt lat="43.78651" lon="3.54129">
        <ele>675.46</ele>
        <time>2016-01-05T13:04:20Z</time>
      </trkpt>
      <trkpt lat="43.78661" lon="3.54138">
        <ele>677.39</ele>
        <time>2016-01-05T13:04:34Z</time>
      </trkpt>
      <trkpt lat="43.78671" lon="3.54147">
        <ele>679.31</ele>
        <time>2016-01-05T13:04:47Z</time>
      </trkpt>
      <trkpt lat="43.78675" lon="3.54161">
        <ele>679.31</ele>
        <time>2016-01-05T13:04:55Z</time>
      </trkpt>
      <trkpt lat="43.7868" lon="3.54174">
        <ele>679.79</ele>
        <time>2016-01-05T13:05:03Z</time>
      </trkpt>
      <trkpt lat="43.78683" lon="3.54188">
        <ele>680.27</ele>
        <time>2016-01-05T13:05:12Z</time>
      </trkpt>
      <trkpt lat="43.78688" lon="3.542">
        <ele>680.75</ele>
        <time>2016-01-05T13:05:21Z</time>
      </trkpt>
      <trkpt lat="43.78693" lon="3.54212">
        <ele>680.75</ele>
        <time>2016-01-05T13:05:29Z</time>
      </trkpt>
      <trkpt lat="43.78696" lon="3.54225">
        <ele>679.79</ele>
        <time>2016-01-05T13:05:38Z</time>
      </trkpt>
      <trkpt lat="43.78699" lon="3.54238">
        <ele>679.31</ele>
        <time>2016-01-05T13:05:47Z</time>
      </trkpt>
      <trkpt lat="43.78705" lon="3.5425">
        <ele>679.31</ele>
        <time>2016-01-05T13:05:57Z</time>
      </trkpt>
      <trkpt lat="43.78709" lon="3.5426">
        <ele>680.27</ele>
        <time>2016-01-05T13:06:52Z</time>
      </trkpt>
      <trkpt lat="43.78715" lon="3.54271">
        <ele>680.75</ele>
        <time>2016-01-05T13:07:03Z</time>
      </trkpt>
      <trkpt lat="43.78724" lon="3.54278">
        <ele>679.79</ele>
        <time>2016-01-05T13:07:12Z</time>
      </trkpt>
      <trkpt lat="43.78736" lon="3.5428">
        <ele>680.75</ele>
        <time>2016-01-05T13:07:22Z</time>
      </trkpt>
      <trkpt lat="43.78746" lon="3.5428">
        <ele>682.19</ele>
        <time>2016-01-05T13:07:32Z</time>
      </trkpt>
      <trkpt lat="43.78758" lon="3.54276">
        <ele>684.6</ele>
        <time>2016-01-05T13:07:44Z</time>
      </trkpt>
      <trkpt lat="43.7877" lon="3.54278">
        <ele>684.6</ele>
        <time>2016-01-05T13:07:55Z</time>
      </trkpt>
      <trkpt lat="43.7878" lon="3.5428">
        <ele>684.6</ele>
        <time>2016-01-05T13:08:05Z</time>
      </trkpt>
      <trkpt lat="43.78792" lon="3.54285">
        <ele>685.08</ele>
        <time>2016-01-05T13:08:17Z</time>
      </trkpt>
      <trkpt lat="43.78804" lon="3.54283">
        <ele>687.96</ele>
        <time>2016-01-05T13:08:34Z</time>
      </trkpt>
      <trkpt lat="43.78817" lon="3.54281">
        <ele>690.36</ele>
        <time>2016-01-05T13:08:49Z</time>
      </trkpt>
      <trkpt lat="43.78828" lon="3.54279">
        <ele>692.29</ele>
        <time>2016-01-05T13:09:02Z</time>
      </trkpt>
      <trkpt lat="43.7884" lon="3.54284">
        <ele>694.21</ele>
        <time>2016-01-05T13:09:19Z</time>
      </trkpt>
      <trkpt lat="43.78853" lon="3.54289">
        <ele>696.13</ele>
        <time>2016-01-05T13:09:34Z</time>
      </trkpt>
      <trkpt lat="43.78866" lon="3.54297">
        <ele>698.05</ele>
        <time>2016-01-05T13:09:51Z</time>
      </trkpt>
      <trkpt lat="43.78881" lon="3.54306">
        <ele>699.98</ele>
        <time>2016-01-05T13:10:06Z</time>
      </trkpt>
      <trkpt lat="43.78896" lon="3.54313">
        <ele>700.94</ele>
        <time>2016-01-05T13:10:18Z</time>
      </trkpt>
      <trkpt lat="43.78906" lon="3.54319">
        <ele>701.42</ele>
        <time>2016-01-05T13:10:28Z</time>
      </trkpt>
      <trkpt lat="43.78922" lon="3.54321">
        <ele>702.38</ele>
        <time>2016-01-05T13:10:42Z</time>
      </trkpt>
      <trkpt lat="43.78935" lon="3.54324">
        <ele>703.82</ele>
        <time>2016-01-05T13:10:56Z</time>
      </trkpt>
      <trkpt lat="43.78946" lon="3.54324">
        <ele>705.75</ele>
        <time>2016-01-05T13:11:09Z</time>
      </trkpt>
      <trkpt lat="43.78959" lon="3.54321">
        <ele>707.67</ele>
        <time>2016-01-05T13:11:23Z</time>
      </trkpt>
      <trkpt lat="43.78972" lon="3.54321">
        <ele>708.63</ele>
        <time>2016-01-05T13:11:36Z</time>
      </trkpt>
      <trkpt lat="43.78984" lon="3.54319">
        <ele>711.51</ele>
        <time>2016-01-05T13:11:49Z</time>
      </trkpt>
      <trkpt lat="43.78998" lon="3.54318">
        <ele>711.51</ele>
        <time>2016-01-05T13:12:02Z</time>
      </trkpt>
      <trkpt lat="43.79009" lon="3.54318">
        <ele>712.95</ele>
        <time>2016-01-05T13:12:13Z</time>
      </trkpt>
      <trkpt lat="43.79022" lon="3.54319">
        <ele>714.88</ele>
        <time>2016-01-05T13:12:27Z</time>
      </trkpt>
      <trkpt lat="43.79034" lon="3.54317">
        <ele>714.88</ele>
        <time>2016-01-05T13:12:38Z</time>
      </trkpt>
      <trkpt lat="43.79046" lon="3.5432">
        <ele>715.84</ele>
        <time>2016-01-05T13:12:49Z</time>
      </trkpt>
      <trkpt lat="43.79062" lon="3.54322">
        <ele>716.32</ele>
        <time>2016-01-05T13:13:02Z</time>
      </trkpt>
      <trkpt lat="43.79073" lon="3.54326">
        <ele>717.28</ele>
        <time>2016-01-05T13:13:13Z</time>
      </trkpt>
      <trkpt lat="43.79085" lon="3.54322">
        <ele>717.76</ele>
        <time>2016-01-05T13:13:24Z</time>
      </trkpt>
      <trkpt lat="43.79096" lon="3.54319">
        <ele>718.24</ele>
        <time>2016-01-05T13:13:34Z</time>
      </trkpt>
      <trkpt lat="43.79108" lon="3.54316">
        <ele>718.72</ele>
        <time>2016-01-05T13:13:46Z</time>
      </trkpt>
      <trkpt lat="43.79121" lon="3.54318">
        <ele>720.16</ele>
        <time>2016-01-05T13:13:58Z</time>
      </trkpt>
      <trkpt lat="43.79134" lon="3.54317">
        <ele>720.65</ele>
        <time>2016-01-05T13:14:09Z</time>
      </trkpt>
      <trkpt lat="43.79146" lon="3.5432">
        <ele>722.09</ele>
        <time>2016-01-05T13:14:22Z</time>
      </trkpt>
      <trkpt lat="43.79158" lon="3.54325">
        <ele>721.61</ele>
        <time>2016-01-05T13:15:37Z</time>
      </trkpt>
      <trkpt lat="43.79169" lon="3.54326">
        <ele>722.09</ele>
        <time>2016-01-05T13:15:47Z</time>
      </trkpt>
      <trkpt lat="43.7918" lon="3.54331">
        <ele>721.61</ele>
        <time>2016-01-05T13:15:57Z</time>
      </trkpt>
      <trkpt lat="43.7919" lon="3.54339">
        <ele>723.53</ele>
        <time>2016-01-05T13:16:09Z</time>
      </trkpt>
      <trkpt lat="43.79199" lon="3.54351">
        <ele>724.97</ele>
        <time>2016-01-05T13:16:21Z</time>
      </trkpt>
      <trkpt lat="43.79207" lon="3.54362">
        <ele>726.41</ele>
        <time>2016-01-05T13:16:32Z</time>
      </trkpt>
      <trkpt lat="43.79216" lon="3.54373">
        <ele>726.89</ele>
        <time>2016-01-05T13:16:42Z</time>
      </trkpt>
      <trkpt lat="43.79224" lon="3.54385">
        <ele>727.37</ele>
        <time>2016-01-05T13:16:52Z</time>
      </trkpt>
      <trkpt lat="43.79231" lon="3.54397">
        <ele>727.37</ele>
        <time>2016-01-05T13:17:04Z</time>
      </trkpt>
      <trkpt lat="43.7924" lon="3.54406">
        <ele>727.37</ele>
        <time>2016-01-05T13:17:14Z</time>
      </trkpt>
      <trkpt lat="43.79247" lon="3.54419">
        <ele>725.93</ele>
        <time>2016-01-05T13:17:23Z</time>
      </trkpt>
      <trkpt lat="43.79254" lon="3.54432">
        <ele>725.45</ele>
        <time>2016-01-05T13:17:33Z</time>
      </trkpt>
      <trkpt lat="43.7926" lon="3.54447">
        <ele>724.97</ele>
        <time>2016-01-05T13:17:43Z</time>
      </trkpt>
      <trkpt lat="43.79268" lon="3.54459">
        <ele>724.49</ele>
        <time>2016-01-05T13:17:53Z</time>
      </trkpt>
      <trkpt lat="43.79274" lon="3.54472">
        <ele>724.49</ele>
        <time>2016-01-05T13:18:02Z</time>
      </trkpt>
      <trkpt lat="43.79281" lon="3.54487">
        <ele>724.97</ele>
        <time>2016-01-05T13:18:12Z</time>
      </trkpt>
      <trkpt lat="43.79287" lon="3.54499">
        <ele>725.45</ele>
        <time>2016-01-05T13:18:22Z</time>
      </trkpt>
      <trkpt lat="43.79293" lon="3.54513">
        <ele>726.41</ele>
        <time>2016-01-05T13:18:33Z</time>
      </trkpt>
      <trkpt lat="43.793" lon="3.54527">
        <ele>726.89</ele>
        <time>2016-01-05T13:18:43Z</time>
      </trkpt>
      <trkpt lat="43.79309" lon="3.54539">
        <ele>728.34</ele>
        <time>2016-01-05T13:18:53Z</time>
      </trkpt>
      <trkpt lat="43.79313" lon="3.54554">
        <ele>729.3</ele>
        <time>2016-01-05T13:19:03Z</time>
      </trkpt>
      <trkpt lat="43.79316" lon="3.5457">
        <ele>729.78</ele>
        <time>2016-01-05T13:19:14Z</time>
      </trkpt>
      <trkpt lat="43.7932" lon="3.54585">
        <ele>730.26</ele>
        <time>2016-01-05T13:19:26Z</time>
      </trkpt>
      <trkpt lat="43.79327" lon="3.54598">
        <ele>730.26</ele>
        <time>2016-01-05T13:19:35Z</time>
      </trkpt>
      <trkpt lat="43.79335" lon="3.54612">
        <ele>730.74</ele>
        <time>2016-01-05T13:19:45Z</time>
      </trkpt>
      <trkpt lat="43.79343" lon="3.54624">
        <ele>730.74</ele>
        <time>2016-01-05T13:19:54Z</time>
      </trkpt>
      <trkpt lat="43.79351" lon="3.54636">
        <ele>729.78</ele>
        <time>2016-01-05T13:20:03Z</time>
      </trkpt>
      <trkpt lat="43.79357" lon="3.54649">
        <ele>729.78</ele>
        <time>2016-01-05T13:20:13Z</time>
      </trkpt>
      <trkpt lat="43.79367" lon="3.5466">
        <ele>728.82</ele>
        <time>2016-01-05T13:20:23Z</time>
      </trkpt>
      <trkpt lat="43.79377" lon="3.54671">
        <ele>728.82</ele>
        <time>2016-01-05T13:20:32Z</time>
      </trkpt>
      <trkpt lat="43.79387" lon="3.54678">
        <ele>728.34</ele>
        <time>2016-01-05T13:20:42Z</time>
      </trkpt>
      <trkpt lat="43.79397" lon="3.54685">
        <ele>727.86</ele>
        <time>2016-01-05T13:20:52Z</time>
      </trkpt>
      <trkpt lat="43.79408" lon="3.54693">
        <ele>726.89</ele>
        <time>2016-01-05T13:21:03Z</time>
      </trkpt>
      <trkpt lat="43.7942" lon="3.547">
        <ele>725.45</ele>
        <time>2016-01-05T13:21:13Z</time>
      </trkpt>
      <trkpt lat="43.79431" lon="3.54708">
        <ele>725.93</ele>
        <time>2016-01-05T13:21:22Z</time>
      </trkpt>
      <trkpt lat="43.79441" lon="3.54719">
        <ele>724.49</ele>
        <time>2016-01-05T13:21:31Z</time>
      </trkpt>
      <trkpt lat="43.79448" lon="3.54731">
        <ele>722.09</ele>
        <time>2016-01-05T13:21:43Z</time>
      </trkpt>
      <trkpt lat="43.79457" lon="3.54744">
        <ele>720.65</ele>
        <time>2016-01-05T13:22:15Z</time>
      </trkpt>
      <trkpt lat="43.79464" lon="3.54757">
        <ele>719.2</ele>
        <time>2016-01-05T13:22:26Z</time>
      </trkpt>
      <trkpt lat="43.79472" lon="3.54773">
        <ele>716.8</ele>
        <time>2016-01-05T13:22:39Z</time>
      </trkpt>
      <trkpt lat="43.79479" lon="3.54788">
        <ele>715.36</ele>
        <time>2016-01-05T13:22:49Z</time>
      </trkpt>
      <trkpt lat="43.79487" lon="3.54803">
        <ele>713.92</ele>
        <time>2016-01-05T13:22:58Z</time>
      </trkpt>
      <trkpt lat="43.79499" lon="3.54811">
        <ele>713.44</ele>
        <time>2016-01-05T13:23:07Z</time>
      </trkpt>
      <trkpt lat="43.79508" lon="3.5482">
        <ele>713.44</ele>
        <time>2016-01-05T13:23:15Z</time>
      </trkpt>
      <trkpt lat="43.79517" lon="3.54828">
        <ele>711.99</ele>
        <time>2016-01-05T13:23:25Z</time>
      </trkpt>
      <trkpt lat="43.79528" lon="3.54838">
        <ele>711.03</ele>
        <time>2016-01-05T13:23:35Z</time>
      </trkpt>
      <trkpt lat="43.79537" lon="3.54847">
        <ele>710.55</ele>
        <time>2016-01-05T13:23:44Z</time>
      </trkpt>
      <trkpt lat="43.79543" lon="3.54861">
        <ele>709.59</ele>
        <time>2016-01-05T13:23:54Z</time>
      </trkpt>
      <trkpt lat="43.79548" lon="3.54876">
        <ele>707.67</ele>
        <time>2016-01-05T13:24:04Z</time>
      </trkpt>
      <trkpt lat="43.79554" lon="3.5489">
        <ele>706.71</ele>
        <time>2016-01-05T13:24:12Z</time>
      </trkpt>
      <trkpt lat="43.79559" lon="3.54904">
        <ele>705.75</ele>
        <time>2016-01-05T13:24:21Z</time>
      </trkpt>
      <trkpt lat="43.79566" lon="3.54918">
        <ele>704.3</ele>
        <time>2016-01-05T13:24:30Z</time>
      </trkpt>
      <trkpt lat="43.79575" lon="3.54929">
        <ele>703.82</ele>
        <time>2016-01-05T13:24:40Z</time>
      </trkpt>
      <trkpt lat="43.79582" lon="3.54943">
        <ele>702.86</ele>
        <time>2016-01-05T13:24:49Z</time>
      </trkpt>
      <trkpt lat="43.79588" lon="3.54958">
        <ele>701.9</ele>
        <time>2016-01-05T13:24:58Z</time>
      </trkpt>
      <trkpt lat="43.79589" lon="3.54972">
        <ele>701.42</ele>
        <time>2016-01-05T13:25:07Z</time>
      </trkpt>
      <trkpt lat="43.79593" lon="3.54987">
        <ele>700.94</ele>
        <time>2016-01-05T13:25:16Z</time>
      </trkpt>
      <trkpt lat="43.796" lon="3.54999">
        <ele>699.98</ele>
        <time>2016-01-05T13:25:24Z</time>
      </trkpt>
      <trkpt lat="43.79611" lon="3.55006">
        <ele>699.98</ele>
        <time>2016-01-05T13:25:33Z</time>
      </trkpt>
      <trkpt lat="43.79622" lon="3.55009">
        <ele>700.46</ele>
        <time>2016-01-05T13:25:42Z</time>
      </trkpt>
      <trkpt lat="43.79633" lon="3.5501">
        <ele>699.98</ele>
        <time>2016-01-05T13:25:50Z</time>
      </trkpt>
      <trkpt lat="43.79645" lon="3.5501">
        <ele>699.5</ele>
        <time>2016-01-05T13:26:00Z</time>
      </trkpt>
      <trkpt lat="43.79655" lon="3.55011">
        <ele>699.02</ele>
        <time>2016-01-05T13:26:08Z</time>
      </trkpt>
      <trkpt lat="43.79666" lon="3.55012">
        <ele>699.02</ele>
        <time>2016-01-05T13:26:16Z</time>
      </trkpt>
      <trkpt lat="43.79677" lon="3.55014">
        <ele>699.02</ele>
        <time>2016-01-05T13:26:24Z</time>
      </trkpt>
      <trkpt lat="43.7969" lon="3.55014">
        <ele>699.02</ele>
        <time>2016-01-05T13:26:34Z</time>
      </trkpt>
      <trkpt lat="43.79702" lon="3.55018">
        <ele>698.53</ele>
        <time>2016-01-05T13:26:44Z</time>
      </trkpt>
      <trkpt lat="43.79713" lon="3.55022">
        <ele>699.02</ele>
        <time>2016-01-05T13:26:53Z</time>
      </trkpt>
      <trkpt lat="43.79722" lon="3.55032">
        <ele>699.02</ele>
        <time>2016-01-05T13:27:02Z</time>
      </trkpt>
      <trkpt lat="43.79728" lon="3.55045">
        <ele>699.5</ele>
        <time>2016-01-05T13:27:11Z</time>
      </trkpt>
      <trkpt lat="43.79732" lon="3.55058">
        <ele>699.5</ele>
        <time>2016-01-05T13:27:19Z</time>
      </trkpt>
      <trkpt lat="43.79735" lon="3.55072">
        <ele>699.5</ele>
        <time>2016-01-05T13:27:28Z</time>
      </trkpt>
      <trkpt lat="43.7974" lon="3.55087">
        <ele>699.5</ele>
        <time>2016-01-05T13:27:37Z</time>
      </trkpt>
      <trkpt lat="43.79744" lon="3.55101">
        <ele>699.5</ele>
        <time>2016-01-05T13:27:45Z</time>
      </trkpt>
      <trkpt lat="43.79749" lon="3.55113">
        <ele>699.5</ele>
        <time>2016-01-05T13:27:53Z</time>
      </trkpt>
      <trkpt lat="43.79757" lon="3.55122">
        <ele>699.5</ele>
        <time>2016-01-05T13:28:02Z</time>
      </trkpt>
      <trkpt lat="43.79767" lon="3.55128">
        <ele>699.02</ele>
        <time>2016-01-05T13:28:10Z</time>
      </trkpt>
      <trkpt lat="43.79778" lon="3.55132">
        <ele>698.53</ele>
        <time>2016-01-05T13:28:19Z</time>
      </trkpt>
      <trkpt lat="43.79786" lon="3.55138">
        <ele>699.02</ele>
        <time>2016-01-05T13:28:26Z</time>
      </trkpt>
      <trkpt lat="43.79795" lon="3.55145">
        <ele>699.02</ele>
        <time>2016-01-05T13:28:34Z</time>
      </trkpt>
      <trkpt lat="43.79803" lon="3.55154">
        <ele>699.02</ele>
        <time>2016-01-05T13:28:42Z</time>
      </trkpt>
      <trkpt lat="43.7981" lon="3.55164">
        <ele>698.53</ele>
        <time>2016-01-05T13:28:50Z</time>
      </trkpt>
      <trkpt lat="43.79818" lon="3.55174">
        <ele>698.05</ele>
        <time>2016-01-05T13:28:58Z</time>
      </trkpt>
      <trkpt lat="43.79827" lon="3.55185">
        <ele>699.5</ele>
        <time>2016-01-05T13:29:06Z</time>
      </trkpt>
      <trkpt lat="43.79835" lon="3.55196">
        <ele>699.02</ele>
        <time>2016-01-05T13:29:15Z</time>
      </trkpt>
      <trkpt lat="43.79842" lon="3.55207">
        <ele>698.53</ele>
        <time>2016-01-05T13:29:23Z</time>
      </trkpt>
      <trkpt lat="43.79848" lon="3.55218">
        <ele>698.05</ele>
        <time>2016-01-05T13:29:31Z</time>
      </trkpt>
      <trkpt lat="43.79855" lon="3.5523">
        <ele>698.53</ele>
        <time>2016-01-05T13:29:39Z</time>
      </trkpt>
      <trkpt lat="43.79863" lon="3.55238">
        <ele>698.05</ele>
        <time>2016-01-05T13:29:46Z</time>
      </trkpt>
      <trkpt lat="43.7987" lon="3.55247">
        <ele>698.53</ele>
        <time>2016-01-05T13:29:53Z</time>
      </trkpt>
      <trkpt lat="43.79878" lon="3.55255">
        <ele>698.05</ele>
        <time>2016-01-05T13:30:00Z</time>
      </trkpt>
      <trkpt lat="43.79888" lon="3.55263">
        <ele>698.05</ele>
        <time>2016-01-05T13:30:08Z</time>
      </trkpt>
      <trkpt lat="43.79898" lon="3.55271">
        <ele>697.57</ele>
        <time>2016-01-05T13:30:16Z</time>
      </trkpt>
      <trkpt lat="43.79906" lon="3.55281">
        <ele>696.61</ele>
        <time>2016-01-05T13:30:24Z</time>
      </trkpt>
      <trkpt lat="43.79913" lon="3.55292">
        <ele>696.61</ele>
        <time>2016-01-05T13:30:33Z</time>
      </trkpt>
      <trkpt lat="43.79921" lon="3.55304">
        <ele>695.65</ele>
        <time>2016-01-05T13:30:42Z</time>
      </trkpt>
      <trkpt lat="43.79928" lon="3.55317">
        <ele>694.21</ele>
        <time>2016-01-05T13:30:51Z</time>
      </trkpt>
      <trkpt lat="43.79933" lon="3.55329">
        <ele>693.73</ele>
        <time>2016-01-05T13:30:59Z</time>
      </trkpt>
      <trkpt lat="43.7994" lon="3.55342">
        <ele>692.77</ele>
        <time>2016-01-05T13:31:09Z</time>
      </trkpt>
      <trkpt lat="43.79947" lon="3.55355">
        <ele>691.81</ele>
        <time>2016-01-05T13:31:20Z</time>
      </trkpt>
      <trkpt lat="43.79952" lon="3.55368">
        <ele>690.84</ele>
        <time>2016-01-05T13:31:31Z</time>
      </trkpt>
      <trkpt lat="43.7996" lon="3.55383">
        <ele>689.88</ele>
        <time>2016-01-05T13:31:44Z</time>
      </trkpt>
      <trkpt lat="43.79968" lon="3.55397">
        <ele>688.44</ele>
        <time>2016-01-05T13:31:54Z</time>
      </trkpt>
      <trkpt lat="43.79975" lon="3.55412">
        <ele>687.96</ele>
        <time>2016-01-05T13:32:04Z</time>
      </trkpt>
      <trkpt lat="43.79982" lon="3.55427">
        <ele>687.96</ele>
        <time>2016-01-05T13:32:12Z</time>
      </trkpt>
      <trkpt lat="43.79988" lon="3.5544">
        <ele>687.96</ele>
        <time>2016-01-05T13:32:19Z</time>
      </trkpt>
      <trkpt lat="43.79996" lon="3.55455">
        <ele>687.96</ele>
        <time>2016-01-05T13:32:28Z</time>
      </trkpt>
      <trkpt lat="43.80002" lon="3.5547">
        <ele>687.48</ele>
        <time>2016-01-05T13:32:36Z</time>
      </trkpt>
      <trkpt lat="43.80009" lon="3.55482">
        <ele>687.48</ele>
        <time>2016-01-05T13:32:44Z</time>
      </trkpt>
      <trkpt lat="43.80015" lon="3.55495">
        <ele>687.96</ele>
        <time>2016-01-05T13:32:53Z</time>
      </trkpt>
      <trkpt lat="43.80021" lon="3.55508">
        <ele>688.44</ele>
        <time>2016-01-05T13:33:03Z</time>
      </trkpt>
      <trkpt lat="43.80027" lon="3.55521">
        <ele>688.44</ele>
        <time>2016-01-05T13:33:13Z</time>
      </trkpt>
      <trkpt lat="43.80033" lon="3.55536">
        <ele>689.4</ele>
        <time>2016-01-05T13:33:22Z</time>
      </trkpt>
      <trkpt lat="43.80039" lon="3.5555">
        <ele>689.4</ele>
        <time>2016-01-05T13:33:30Z</time>
      </trkpt>
      <trkpt lat="43.80046" lon="3.55558">
        <ele>689.4</ele>
        <time>2016-01-05T13:33:39Z</time>
      </trkpt>
      <trkpt lat="43.80055" lon="3.55568">
        <ele>688.92</ele>
        <time>2016-01-05T13:33:49Z</time>
      </trkpt>
      <trkpt lat="43.80062" lon="3.55578">
        <ele>687.96</ele>
        <time>2016-01-05T13:34:00Z</time>
      </trkpt>
      <trkpt lat="43.80067" lon="3.55594">
        <ele>687.48</ele>
        <time>2016-01-05T13:34:08Z</time>
      </trkpt>
      <trkpt lat="43.80074" lon="3.55605">
        <ele>687</ele>
        <time>2016-01-05T13:34:16Z</time>
      </trkpt>
      <trkpt lat="43.80083" lon="3.55614">
        <ele>686.04</ele>
        <time>2016-01-05T13:34:24Z</time>
      </trkpt>
      <trkpt lat="43.80093" lon="3.55624">
        <ele>683.63</ele>
        <time>2016-01-05T13:34:35Z</time>
      </trkpt>
      <trkpt lat="43.80102" lon="3.55636">
        <ele>683.15</ele>
        <time>2016-01-05T13:34:45Z</time>
      </trkpt>
      <trkpt lat="43.80106" lon="3.55649">
        <ele>681.23</ele>
        <time>2016-01-05T13:34:53Z</time>
      </trkpt>
      <trkpt lat="43.80106" lon="3.55664">
        <ele>681.23</ele>
        <time>2016-01-05T13:35:02Z</time>
      </trkpt>
      <trkpt lat="43.80099" lon="3.55675">
        <ele>681.23</ele>
        <time>2016-01-05T13:35:12Z</time>
      </trkpt>
      <trkpt lat="43.80095" lon="3.55688">
        <ele>680.27</ele>
        <time>2016-01-05T13:35:24Z</time>
      </trkpt>
      <trkpt lat="43.801" lon="3.55699">
        <ele>678.83</ele>
        <time>2016-01-05T13:35:33Z</time>
      </trkpt>
      <trkpt lat="43.801" lon="3.55714">
        <ele>678.35</ele>
        <time>2016-01-05T13:35:42Z</time>
      </trkpt>
      <trkpt lat="43.80097" lon="3.55727">
        <ele>679.31</ele>
        <time>2016-01-05T13:35:51Z</time>
      </trkpt>
      <trkpt lat="43.80091" lon="3.55739">
        <ele>679.31</ele>
        <time>2016-01-05T13:36:00Z</time>
      </trkpt>
      <trkpt lat="43.80082" lon="3.5575">
        <ele>679.79</ele>
        <time>2016-01-05T13:36:09Z</time>
      </trkpt>
      <trkpt lat="43.80073" lon="3.55761">
        <ele>680.27</ele>
        <time>2016-01-05T13:36:19Z</time>
      </trkpt>
      <trkpt lat="43.8007" lon="3.55776">
        <ele>680.27</ele>
        <time>2016-01-05T13:36:29Z</time>
      </trkpt>
      <trkpt lat="43.80074" lon="3.55788">
        <ele>678.83</ele>
        <time>2016-01-05T13:36:37Z</time>
      </trkpt>
      <trkpt lat="43.80082" lon="3.55797">
        <ele>677.87</ele>
        <time>2016-01-05T13:36:47Z</time>
      </trkpt>
      <trkpt lat="43.8009" lon="3.55804">
        <ele>676.42</ele>
        <time>2016-01-05T13:36:57Z</time>
      </trkpt>
      <trkpt lat="43.80101" lon="3.55809">
        <ele>674.98</ele>
        <time>2016-01-05T13:37:08Z</time>
      </trkpt>
      <trkpt lat="43.80113" lon="3.55816">
        <ele>673.54</ele>
        <time>2016-01-05T13:37:17Z</time>
      </trkpt>
      <trkpt lat="43.80125" lon="3.55821">
        <ele>672.58</ele>
        <time>2016-01-05T13:37:26Z</time>
      </trkpt>
      <trkpt lat="43.80135" lon="3.55825">
        <ele>671.14</ele>
        <time>2016-01-05T13:37:34Z</time>
      </trkpt>
      <trkpt lat="43.80144" lon="3.55833">
        <ele>669.7</ele>
        <time>2016-01-05T13:37:42Z</time>
      </trkpt>
      <trkpt lat="43.80151" lon="3.55844">
        <ele>669.22</ele>
        <time>2016-01-05T13:37:50Z</time>
      </trkpt>
      <trkpt lat="43.8016" lon="3.55856">
        <ele>668.25</ele>
        <time>2016-01-05T13:37:59Z</time>
      </trkpt>
      <trkpt lat="43.80168" lon="3.55866">
        <ele>668.25</ele>
        <time>2016-01-05T13:38:07Z</time>
      </trkpt>
      <trkpt lat="43.80177" lon="3.55877">
        <ele>667.77</ele>
        <time>2016-01-05T13:38:15Z</time>
      </trkpt>
      <trkpt lat="43.80183" lon="3.55887">
        <ele>668.25</ele>
        <time>2016-01-05T13:38:45Z</time>
      </trkpt>
      <trkpt lat="43.80192" lon="3.55882">
        <ele>666.81</ele>
        <time>2016-01-05T13:38:55Z</time>
      </trkpt>
      <trkpt lat="43.80202" lon="3.5588">
        <ele>666.81</ele>
        <time>2016-01-05T13:39:04Z</time>
      </trkpt>
      <trkpt lat="43.80211" lon="3.55887">
        <ele>666.33</ele>
        <time>2016-01-05T13:39:14Z</time>
      </trkpt>
      <trkpt lat="43.80221" lon="3.55895">
        <ele>666.33</ele>
        <time>2016-01-05T13:39:26Z</time>
      </trkpt>
      <trkpt lat="43.80224" lon="3.55906">
        <ele>666.81</ele>
        <time>2016-01-05T13:40:32Z</time>
      </trkpt>
      <trkpt lat="43.80222" lon="3.55921">
        <ele>666.33</ele>
        <time>2016-01-05T13:40:45Z</time>
      </trkpt>
      <trkpt lat="43.8022" lon="3.55938">
        <ele>666.81</ele>
        <time>2016-01-05T13:40:58Z</time>
      </trkpt>
      <trkpt lat="43.80216" lon="3.55956">
        <ele>668.25</ele>
        <time>2016-01-05T13:41:13Z</time>
      </trkpt>
      <trkpt lat="43.80216" lon="3.55975">
        <ele>667.77</ele>
        <time>2016-01-05T13:42:11Z</time>
      </trkpt>
      <trkpt lat="43.80226" lon="3.55985">
        <ele>667.77</ele>
        <time>2016-01-05T13:42:53Z</time>
      </trkpt>
      <trkpt lat="43.80235" lon="3.55998">
        <ele>667.29</ele>
        <time>2016-01-05T13:43:06Z</time>
      </trkpt>
      <trkpt lat="43.80244" lon="3.56007">
        <ele>667.29</ele>
        <time>2016-01-05T13:43:16Z</time>
      </trkpt>
      <trkpt lat="43.80252" lon="3.56015">
        <ele>667.29</ele>
        <time>2016-01-05T13:43:25Z</time>
      </trkpt>
      <trkpt lat="43.80263" lon="3.56023">
        <ele>667.77</ele>
        <time>2016-01-05T13:43:34Z</time>
      </trkpt>
      <trkpt lat="43.80271" lon="3.56033">
        <ele>667.29</ele>
        <time>2016-01-05T13:43:43Z</time>
      </trkpt>
      <trkpt lat="43.80282" lon="3.56037">
        <ele>667.29</ele>
        <time>2016-01-05T13:43:53Z</time>
      </trkpt>
      <trkpt lat="43.8029" lon="3.56049">
        <ele>666.81</ele>
        <time>2016-01-05T13:44:02Z</time>
      </trkpt>
      <trkpt lat="43.80299" lon="3.56059">
        <ele>667.29</ele>
        <time>2016-01-05T13:44:11Z</time>
      </trkpt>
      <trkpt lat="43.80307" lon="3.56064">
        <ele>666.81</ele>
        <time>2016-01-05T13:44:19Z</time>
      </trkpt>
      <trkpt lat="43.80319" lon="3.56065">
        <ele>664.41</ele>
        <time>2016-01-05T13:44:30Z</time>
      </trkpt>
      <trkpt lat="43.8033" lon="3.56065">
        <ele>663.93</ele>
        <time>2016-01-05T13:44:39Z</time>
      </trkpt>
      <trkpt lat="43.80341" lon="3.56071">
        <ele>662.01</ele>
        <time>2016-01-05T13:44:49Z</time>
      </trkpt>
      <trkpt lat="43.80351" lon="3.56082">
        <ele>662.01</ele>
        <time>2016-01-05T13:44:59Z</time>
      </trkpt>
      <trkpt lat="43.80361" lon="3.56091">
        <ele>660.56</ele>
        <time>2016-01-05T13:45:09Z</time>
      </trkpt>
      <trkpt lat="43.80371" lon="3.561">
        <ele>659.6</ele>
        <time>2016-01-05T13:45:19Z</time>
      </trkpt>
      <trkpt lat="43.8038" lon="3.56107">
        <ele>658.64</ele>
        <time>2016-01-05T13:45:27Z</time>
      </trkpt>
      <trkpt lat="43.80391" lon="3.5611">
        <ele>657.2</ele>
        <time>2016-01-05T13:45:36Z</time>
      </trkpt>
      <trkpt lat="43.80404" lon="3.56114">
        <ele>655.28</ele>
        <time>2016-01-05T13:45:47Z</time>
      </trkpt>
      <trkpt lat="43.80418" lon="3.56118">
        <ele>654.8</ele>
        <time>2016-01-05T13:45:57Z</time>
      </trkpt>
      <trkpt lat="43.8043" lon="3.56121">
        <ele>654.31</ele>
        <time>2016-01-05T13:46:06Z</time>
      </trkpt>
      <trkpt lat="43.80442" lon="3.56124">
        <ele>653.83</ele>
        <time>2016-01-05T13:46:16Z</time>
      </trkpt>
      <trkpt lat="43.80454" lon="3.56128">
        <ele>653.35</ele>
        <time>2016-01-05T13:46:25Z</time>
      </trkpt>
      <trkpt lat="43.80466" lon="3.56133">
        <ele>652.87</ele>
        <time>2016-01-05T13:46:34Z</time>
      </trkpt>
      <trkpt lat="43.80479" lon="3.56136">
        <ele>651.43</ele>
        <time>2016-01-05T13:46:44Z</time>
      </trkpt>
      <trkpt lat="43.8049" lon="3.5614">
        <ele>651.43</ele>
        <time>2016-01-05T13:46:52Z</time>
      </trkpt>
      <trkpt lat="43.80502" lon="3.56144">
        <ele>651.43</ele>
        <time>2016-01-05T13:47:01Z</time>
      </trkpt>
      <trkpt lat="43.80513" lon="3.56146">
        <ele>651.91</ele>
        <time>2016-01-05T13:47:09Z</time>
      </trkpt>
      <trkpt lat="43.80523" lon="3.56149">
        <ele>650.47</ele>
        <time>2016-01-05T13:47:17Z</time>
      </trkpt>
      <trkpt lat="43.80533" lon="3.56154">
        <ele>650.47</ele>
        <time>2016-01-05T13:47:26Z</time>
      </trkpt>
      <trkpt lat="43.80542" lon="3.56163">
        <ele>650.47</ele>
        <time>2016-01-05T13:47:35Z</time>
      </trkpt>
      <trkpt lat="43.80557" lon="3.56166">
        <ele>650.47</ele>
        <time>2016-01-05T13:47:49Z</time>
      </trkpt>
      <trkpt lat="43.80567" lon="3.56166">
        <ele>650.47</ele>
        <time>2016-01-05T13:47:58Z</time>
      </trkpt>
      <trkpt lat="43.80578" lon="3.5617">
        <ele>651.43</ele>
        <time>2016-01-05T13:48:06Z</time>
      </trkpt>
      <trkpt lat="43.80588" lon="3.5617">
        <ele>651.91</ele>
        <time>2016-01-05T13:48:15Z</time>
      </trkpt>
      <trkpt lat="43.80597" lon="3.56167">
        <ele>652.87</ele>
        <time>2016-01-05T13:48:24Z</time>
      </trkpt>
      <trkpt lat="43.80602" lon="3.56155">
        <ele>652.39</ele>
        <time>2016-01-05T13:48:33Z</time>
      </trkpt>
      <trkpt lat="43.80612" lon="3.5615">
        <ele>652.87</ele>
        <time>2016-01-05T13:48:42Z</time>
      </trkpt>
      <trkpt lat="43.80616" lon="3.56159">
        <ele>654.31</ele>
        <time>2016-01-05T13:48:53Z</time>
      </trkpt>
      <trkpt lat="43.80611" lon="3.56173">
        <ele>654.8</ele>
        <time>2016-01-05T13:49:03Z</time>
      </trkpt>
      <trkpt lat="43.80606" lon="3.56187">
        <ele>655.28</ele>
        <time>2016-01-05T13:49:13Z</time>
      </trkpt>
      <trkpt lat="43.80599" lon="3.56199">
        <ele>654.31</ele>
        <time>2016-01-05T13:49:22Z</time>
      </trkpt>
      <trkpt lat="43.80596" lon="3.56215">
        <ele>654.8</ele>
        <time>2016-01-05T13:49:31Z</time>
      </trkpt>
      <trkpt lat="43.80598" lon="3.56228">
        <ele>654.8</ele>
        <time>2016-01-05T13:49:40Z</time>
      </trkpt>
      <trkpt lat="43.80592" lon="3.56239">
        <ele>652.87</ele>
        <time>2016-01-05T13:50:03Z</time>
      </trkpt>
      <trkpt lat="43.80581" lon="3.5624">
        <ele>652.39</ele>
        <time>2016-01-05T13:50:14Z</time>
      </trkpt>
      <trkpt lat="43.80569" lon="3.56238">
        <ele>651.91</ele>
        <time>2016-01-05T13:50:24Z</time>
      </trkpt>
      <trkpt lat="43.80558" lon="3.56234">
        <ele>651.91</ele>
        <time>2016-01-05T13:50:35Z</time>
      </trkpt>
      <trkpt lat="43.80547" lon="3.56229">
        <ele>651.91</ele>
        <time>2016-01-05T13:50:47Z</time>
      </trkpt>
      <trkpt lat="43.80536" lon="3.56227">
        <ele>652.39</ele>
        <time>2016-01-05T13:51:56Z</time>
      </trkpt>
      <trkpt lat="43.80532" lon="3.56225">
        <ele>652.87</ele>
        <time>2016-01-05T13:53:00Z</time>
      </trkpt>
      <trkpt lat="43.80541" lon="3.56224">
        <ele>652.39</ele>
        <time>2016-01-05T13:53:17Z</time>
      </trkpt>
      <trkpt lat="43.80552" lon="3.56228">
        <ele>651.91</ele>
        <time>2016-01-05T13:53:28Z</time>
      </trkpt>
      <trkpt lat="43.80561" lon="3.56234">
        <ele>652.39</ele>
        <time>2016-01-05T13:53:41Z</time>
      </trkpt>
      <trkpt lat="43.80573" lon="3.56236">
        <ele>652.39</ele>
        <time>2016-01-05T13:53:53Z</time>
      </trkpt>
      <trkpt lat="43.80584" lon="3.56239">
        <ele>652.87</ele>
        <time>2016-01-05T13:54:06Z</time>
      </trkpt>
      <trkpt lat="43.80598" lon="3.56236">
        <ele>654.8</ele>
        <time>2016-01-05T13:54:24Z</time>
      </trkpt>
      <trkpt lat="43.80605" lon="3.56249">
        <ele>654.8</ele>
        <time>2016-01-05T13:54:36Z</time>
      </trkpt>
      <trkpt lat="43.80614" lon="3.56265">
        <ele>653.35</ele>
        <time>2016-01-05T13:54:52Z</time>
      </trkpt>
      <trkpt lat="43.80627" lon="3.56273">
        <ele>652.39</ele>
        <time>2016-01-05T13:55:06Z</time>
      </trkpt>
      <trkpt lat="43.80639" lon="3.56281">
        <ele>649.99</ele>
        <time>2016-01-05T13:55:18Z</time>
      </trkpt>
      <trkpt lat="43.80651" lon="3.56284">
        <ele>648.55</ele>
        <time>2016-01-05T13:55:29Z</time>
      </trkpt>
      <trkpt lat="43.80665" lon="3.56283">
        <ele>647.1</ele>
        <time>2016-01-05T13:55:41Z</time>
      </trkpt>
      <trkpt lat="43.80678" lon="3.5628">
        <ele>645.18</ele>
        <time>2016-01-05T13:55:54Z</time>
      </trkpt>
      <trkpt lat="43.80694" lon="3.56276">
        <ele>644.7</ele>
        <time>2016-01-05T13:56:04Z</time>
      </trkpt>
      <trkpt lat="43.80703" lon="3.56269">
        <ele>645.18</ele>
        <time>2016-01-05T13:56:12Z</time>
      </trkpt>
      <trkpt lat="43.80713" lon="3.56268">
        <ele>645.18</ele>
        <time>2016-01-05T13:56:20Z</time>
      </trkpt>
      <trkpt lat="43.80723" lon="3.56263">
        <ele>644.7</ele>
        <time>2016-01-05T13:56:30Z</time>
      </trkpt>
      <trkpt lat="43.80736" lon="3.56256">
        <ele>644.7</ele>
        <time>2016-01-05T13:56:41Z</time>
      </trkpt>
      <trkpt lat="43.80748" lon="3.56254">
        <ele>643.74</ele>
        <time>2016-01-05T13:56:51Z</time>
      </trkpt>
      <trkpt lat="43.80759" lon="3.5626">
        <ele>642.78</ele>
        <time>2016-01-05T13:56:59Z</time>
      </trkpt>
      <trkpt lat="43.80768" lon="3.56265">
        <ele>641.82</ele>
        <time>2016-01-05T13:57:07Z</time>
      </trkpt>
      <trkpt lat="43.80776" lon="3.56276">
        <ele>640.38</ele>
        <time>2016-01-05T13:57:18Z</time>
      </trkpt>
      <trkpt lat="43.80786" lon="3.56281">
        <ele>638.93</ele>
        <time>2016-01-05T13:57:27Z</time>
      </trkpt>
      <trkpt lat="43.80796" lon="3.56281">
        <ele>638.93</ele>
        <time>2016-01-05T13:57:36Z</time>
      </trkpt>
      <trkpt lat="43.80806" lon="3.56282">
        <ele>638.93</ele>
        <time>2016-01-05T13:57:44Z</time>
      </trkpt>
      <trkpt lat="43.80816" lon="3.56285">
        <ele>637.49</ele>
        <time>2016-01-05T13:57:52Z</time>
      </trkpt>
      <trkpt lat="43.80827" lon="3.56287">
        <ele>637.97</ele>
        <time>2016-01-05T13:58:00Z</time>
      </trkpt>
      <trkpt lat="43.80837" lon="3.56296">
        <ele>639.89</ele>
        <time>2016-01-05T13:58:10Z</time>
      </trkpt>
      <trkpt lat="43.80847" lon="3.56306">
        <ele>640.38</ele>
        <time>2016-01-05T13:58:19Z</time>
      </trkpt>
      <trkpt lat="43.80857" lon="3.56313">
        <ele>640.86</ele>
        <time>2016-01-05T13:58:28Z</time>
      </trkpt>
      <trkpt lat="43.80866" lon="3.56322">
        <ele>642.3</ele>
        <time>2016-01-05T13:58:38Z</time>
      </trkpt>
      <trkpt lat="43.80874" lon="3.56337">
        <ele>643.26</ele>
        <time>2016-01-05T13:58:50Z</time>
      </trkpt>
      <trkpt lat="43.80878" lon="3.56354">
        <ele>644.22</ele>
        <time>2016-01-05T13:59:00Z</time>
      </trkpt>
      <trkpt lat="43.80884" lon="3.56368">
        <ele>645.18</ele>
        <time>2016-01-05T13:59:10Z</time>
      </trkpt>
      <trkpt lat="43.80888" lon="3.56382">
        <ele>647.1</ele>
        <time>2016-01-05T13:59:21Z</time>
      </trkpt>
      <trkpt lat="43.80893" lon="3.56395">
        <ele>649.03</ele>
        <time>2016-01-05T13:59:32Z</time>
      </trkpt>
      <trkpt lat="43.80899" lon="3.56409">
        <ele>649.99</ele>
        <time>2016-01-05T13:59:41Z</time>
      </trkpt>
      <trkpt lat="43.80902" lon="3.56424">
        <ele>650.95</ele>
        <time>2016-01-05T13:59:50Z</time>
      </trkpt>
      <trkpt lat="43.80903" lon="3.56441">
        <ele>650.47</ele>
        <time>2016-01-05T14:00:31Z</time>
      </trkpt>
      <trkpt lat="43.80908" lon="3.56454">
        <ele>649.99</ele>
        <time>2016-01-05T14:00:44Z</time>
      </trkpt>
      <trkpt lat="43.80915" lon="3.56465">
        <ele>650.47</ele>
        <time>2016-01-05T14:00:56Z</time>
      </trkpt>
      <trkpt lat="43.80921" lon="3.56476">
        <ele>651.43</ele>
        <time>2016-01-05T14:01:04Z</time>
      </trkpt>
      <trkpt lat="43.80926" lon="3.56488">
        <ele>651.43</ele>
        <time>2016-01-05T14:01:12Z</time>
      </trkpt>
      <trkpt lat="43.80931" lon="3.565">
        <ele>650.95</ele>
        <time>2016-01-05T14:01:20Z</time>
      </trkpt>
      <trkpt lat="43.8093" lon="3.56514">
        <ele>649.99</ele>
        <time>2016-01-05T14:01:28Z</time>
      </trkpt>
      <trkpt lat="43.80934" lon="3.56527">
        <ele>649.51</ele>
        <time>2016-01-05T14:01:35Z</time>
      </trkpt>
      <trkpt lat="43.80934" lon="3.56542">
        <ele>647.59</ele>
        <time>2016-01-05T14:01:43Z</time>
      </trkpt>
      <trkpt lat="43.80934" lon="3.56558">
        <ele>647.59</ele>
        <time>2016-01-05T14:01:52Z</time>
      </trkpt>
      <trkpt lat="43.80932" lon="3.56572">
        <ele>645.66</ele>
        <time>2016-01-05T14:02:00Z</time>
      </trkpt>
      <trkpt lat="43.80932" lon="3.56585">
        <ele>644.7</ele>
        <time>2016-01-05T14:02:08Z</time>
      </trkpt>
      <trkpt lat="43.80929" lon="3.56602">
        <ele>644.22</ele>
        <time>2016-01-05T14:02:17Z</time>
      </trkpt>
      <trkpt lat="43.80928" lon="3.56616">
        <ele>643.26</ele>
        <time>2016-01-05T14:02:27Z</time>
      </trkpt>
      <trkpt lat="43.8093" lon="3.5663">
        <ele>642.78</ele>
        <time>2016-01-05T14:02:35Z</time>
      </trkpt>
      <trkpt lat="43.80934" lon="3.56645">
        <ele>641.82</ele>
        <time>2016-01-05T14:02:54Z</time>
      </trkpt>
      <trkpt lat="43.80941" lon="3.56659">
        <ele>641.34</ele>
        <time>2016-01-05T14:03:04Z</time>
      </trkpt>
      <trkpt lat="43.80949" lon="3.56667">
        <ele>642.3</ele>
        <time>2016-01-05T14:03:13Z</time>
      </trkpt>
      <trkpt lat="43.80958" lon="3.56675">
        <ele>642.3</ele>
        <time>2016-01-05T14:03:22Z</time>
      </trkpt>
      <trkpt lat="43.80966" lon="3.56682">
        <ele>643.74</ele>
        <time>2016-01-05T14:03:32Z</time>
      </trkpt>
      <trkpt lat="43.80975" lon="3.56693">
        <ele>644.22</ele>
        <time>2016-01-05T14:03:52Z</time>
      </trkpt>
      <trkpt lat="43.80974" lon="3.56711">
        <ele>643.26</ele>
        <time>2016-01-05T14:04:06Z</time>
      </trkpt>
      <trkpt lat="43.80969" lon="3.56726">
        <ele>641.34</ele>
        <time>2016-01-05T14:04:18Z</time>
      </trkpt>
      <trkpt lat="43.8097" lon="3.5674">
        <ele>639.89</ele>
        <time>2016-01-05T14:04:28Z</time>
      </trkpt>
      <trkpt lat="43.80967" lon="3.56754">
        <ele>639.41</ele>
        <time>2016-01-05T14:04:39Z</time>
      </trkpt>
      <trkpt lat="43.80957" lon="3.56764">
        <ele>637.01</ele>
        <time>2016-01-05T14:04:58Z</time>
      </trkpt>
      <trkpt lat="43.80956" lon="3.56782">
        <ele>635.57</ele>
        <time>2016-01-05T14:05:11Z</time>
      </trkpt>
      <trkpt lat="43.80962" lon="3.56794">
        <ele>635.09</ele>
        <time>2016-01-05T14:05:22Z</time>
      </trkpt>
      <trkpt lat="43.80964" lon="3.56809">
        <ele>634.13</ele>
        <time>2016-01-05T14:05:38Z</time>
      </trkpt>
      <trkpt lat="43.80956" lon="3.56818">
        <ele>632.68</ele>
        <time>2016-01-05T14:05:53Z</time>
      </trkpt>
      <trkpt lat="43.80956" lon="3.56837">
        <ele>631.24</ele>
        <time>2016-01-05T14:06:15Z</time>
      </trkpt>
      <trkpt lat="43.80958" lon="3.56854">
        <ele>629.8</ele>
        <time>2016-01-05T14:06:29Z</time>
      </trkpt>
      <trkpt lat="43.80961" lon="3.56868">
        <ele>628.36</ele>
        <time>2016-01-05T14:06:43Z</time>
      </trkpt>
      <trkpt lat="43.80966" lon="3.56888">
        <ele>624.99</ele>
        <time>2016-01-05T14:07:05Z</time>
      </trkpt>
      <trkpt lat="43.8096" lon="3.56902">
        <ele>623.07</ele>
        <time>2016-01-05T14:07:19Z</time>
      </trkpt>
      <trkpt lat="43.80961" lon="3.56917">
        <ele>622.11</ele>
        <time>2016-01-05T14:07:33Z</time>
      </trkpt>
      <trkpt lat="43.80964" lon="3.56932">
        <ele>619.23</ele>
        <time>2016-01-05T14:07:48Z</time>
      </trkpt>
      <trkpt lat="43.80969" lon="3.56951">
        <ele>617.3</ele>
        <time>2016-01-05T14:08:05Z</time>
      </trkpt>
      <trkpt lat="43.80974" lon="3.56964">
        <ele>615.86</ele>
        <time>2016-01-05T14:08:18Z</time>
      </trkpt>
      <trkpt lat="43.80979" lon="3.56979">
        <ele>613.94</ele>
        <time>2016-01-05T14:08:33Z</time>
      </trkpt>
      <trkpt lat="43.80982" lon="3.56995">
        <ele>612.02</ele>
        <time>2016-01-05T14:08:47Z</time>
      </trkpt>
      <trkpt lat="43.80988" lon="3.57011">
        <ele>610.57</ele>
        <time>2016-01-05T14:09:03Z</time>
      </trkpt>
      <trkpt lat="43.80992" lon="3.57025">
        <ele>608.65</ele>
        <time>2016-01-05T14:09:16Z</time>
      </trkpt>
      <trkpt lat="43.80994" lon="3.57039">
        <ele>607.69</ele>
        <time>2016-01-05T14:09:28Z</time>
      </trkpt>
      <trkpt lat="43.80995" lon="3.57057">
        <ele>605.77</ele>
        <time>2016-01-05T14:09:44Z</time>
      </trkpt>
      <trkpt lat="43.81" lon="3.57073">
        <ele>604.33</ele>
        <time>2016-01-05T14:09:58Z</time>
      </trkpt>
      <trkpt lat="43.81005" lon="3.57088">
        <ele>602.88</ele>
        <time>2016-01-05T14:10:11Z</time>
      </trkpt>
      <trkpt lat="43.81005" lon="3.57105">
        <ele>600</ele>
        <time>2016-01-05T14:10:27Z</time>
      </trkpt>
      <trkpt lat="43.81004" lon="3.57124">
        <ele>597.12</ele>
        <time>2016-01-05T14:10:41Z</time>
      </trkpt>
      <trkpt lat="43.81003" lon="3.57141">
        <ele>594.23</ele>
        <time>2016-01-05T14:10:57Z</time>
      </trkpt>
      <trkpt lat="43.80999" lon="3.57156">
        <ele>591.35</ele>
        <time>2016-01-05T14:11:09Z</time>
      </trkpt>
      <trkpt lat="43.81004" lon="3.57171">
        <ele>589.43</ele>
        <time>2016-01-05T14:11:19Z</time>
      </trkpt>
      <trkpt lat="43.81007" lon="3.5719">
        <ele>587.02</ele>
        <time>2016-01-05T14:11:32Z</time>
      </trkpt>
      <trkpt lat="43.81006" lon="3.572">
        <ele>584.62</ele>
        <time>2016-01-05T14:11:45Z</time>
      </trkpt>
      <trkpt lat="43.80995" lon="3.57202">
        <ele>582.7</ele>
        <time>2016-01-05T14:11:57Z</time>
      </trkpt>
      <trkpt lat="43.80985" lon="3.57195">
        <ele>579.81</ele>
        <time>2016-01-05T14:12:09Z</time>
      </trkpt>
      <trkpt lat="43.80972" lon="3.572">
        <ele>576.45</ele>
        <time>2016-01-05T14:12:28Z</time>
      </trkpt>
      <trkpt lat="43.8096" lon="3.57215">
        <ele>573.56</ele>
        <time>2016-01-05T14:12:43Z</time>
      </trkpt>
      <trkpt lat="43.80947" lon="3.57225">
        <ele>571.16</ele>
        <time>2016-01-05T14:12:57Z</time>
      </trkpt>
      <trkpt lat="43.80938" lon="3.57236">
        <ele>570.2</ele>
        <time>2016-01-05T14:13:09Z</time>
      </trkpt>
      <trkpt lat="43.80933" lon="3.57253">
        <ele>569.72</ele>
        <time>2016-01-05T14:13:21Z</time>
      </trkpt>
      <trkpt lat="43.80927" lon="3.57269">
        <ele>568.76</ele>
        <time>2016-01-05T14:13:32Z</time>
      </trkpt>
      <trkpt lat="43.80921" lon="3.57283">
        <ele>566.83</ele>
        <time>2016-01-05T14:13:44Z</time>
      </trkpt>
      <trkpt lat="43.80912" lon="3.57294">
        <ele>565.39</ele>
        <time>2016-01-05T14:13:55Z</time>
      </trkpt>
      <trkpt lat="43.80901" lon="3.57305">
        <ele>563.95</ele>
        <time>2016-01-05T14:14:06Z</time>
      </trkpt>
      <trkpt lat="43.80891" lon="3.57314">
        <ele>562.99</ele>
        <time>2016-01-05T14:14:16Z</time>
      </trkpt>
      <trkpt lat="43.80883" lon="3.57328">
        <ele>561.55</ele>
        <time>2016-01-05T14:14:26Z</time>
      </trkpt>
      <trkpt lat="43.80875" lon="3.57338">
        <ele>558.66</ele>
        <time>2016-01-05T14:14:50Z</time>
      </trkpt>
      <trkpt lat="43.80866" lon="3.5735">
        <ele>556.26</ele>
        <time>2016-01-05T14:15:01Z</time>
      </trkpt>
      <trkpt lat="43.80856" lon="3.5736">
        <ele>553.38</ele>
        <time>2016-01-05T14:15:15Z</time>
      </trkpt>
      <trkpt lat="43.80846" lon="3.57372">
        <ele>551.45</ele>
        <time>2016-01-05T14:15:27Z</time>
      </trkpt>
      <trkpt lat="43.80834" lon="3.57379">
        <ele>549.53</ele>
        <time>2016-01-05T14:15:39Z</time>
      </trkpt>
      <trkpt lat="43.80825" lon="3.57386">
        <ele>548.09</ele>
        <time>2016-01-05T14:15:49Z</time>
      </trkpt>
      <trkpt lat="43.80817" lon="3.57391">
        <ele>546.65</ele>
        <time>2016-01-05T14:15:58Z</time>
      </trkpt>
      <trkpt lat="43.80806" lon="3.57394">
        <ele>545.2</ele>
        <time>2016-01-05T14:16:08Z</time>
      </trkpt>
      <trkpt lat="43.80795" lon="3.57398">
        <ele>544.24</ele>
        <time>2016-01-05T14:16:17Z</time>
      </trkpt>
      <trkpt lat="43.80785" lon="3.57403">
        <ele>543.76</ele>
        <time>2016-01-05T14:16:25Z</time>
      </trkpt>
      <trkpt lat="43.80774" lon="3.57406">
        <ele>542.32</ele>
        <time>2016-01-05T14:16:34Z</time>
      </trkpt>
      <trkpt lat="43.80763" lon="3.57406">
        <ele>540.88</ele>
        <time>2016-01-05T14:16:43Z</time>
      </trkpt>
      <trkpt lat="43.80753" lon="3.57411">
        <ele>538.96</ele>
        <time>2016-01-05T14:16:54Z</time>
      </trkpt>
      <trkpt lat="43.80742" lon="3.57414">
        <ele>536.55</ele>
        <time>2016-01-05T14:17:05Z</time>
      </trkpt>
      <trkpt lat="43.8073" lon="3.57413">
        <ele>535.11</ele>
        <time>2016-01-05T14:17:14Z</time>
      </trkpt>
      <trkpt lat="43.80718" lon="3.57411">
        <ele>533.19</ele>
        <time>2016-01-05T14:17:26Z</time>
      </trkpt>
      <trkpt lat="43.80707" lon="3.57413">
        <ele>530.79</ele>
        <time>2016-01-05T14:17:38Z</time>
      </trkpt>
      <trkpt lat="43.80695" lon="3.57415">
        <ele>528.38</ele>
        <time>2016-01-05T14:17:49Z</time>
      </trkpt>
      <trkpt lat="43.80684" lon="3.57418">
        <ele>526.46</ele>
        <time>2016-01-05T14:17:59Z</time>
      </trkpt>
      <trkpt lat="43.80671" lon="3.5742">
        <ele>523.58</ele>
        <time>2016-01-05T14:18:15Z</time>
      </trkpt>
      <trkpt lat="43.8066" lon="3.57425">
        <ele>521.17</ele>
        <time>2016-01-05T14:18:25Z</time>
      </trkpt>
      <trkpt lat="43.80649" lon="3.57426">
        <ele>518.77</ele>
        <time>2016-01-05T14:18:35Z</time>
      </trkpt>
      <trkpt lat="43.80639" lon="3.57427">
        <ele>516.37</ele>
        <time>2016-01-05T14:18:44Z</time>
      </trkpt>
      <trkpt lat="43.80628" lon="3.57426">
        <ele>514.44</ele>
        <time>2016-01-05T14:18:54Z</time>
      </trkpt>
      <trkpt lat="43.80617" lon="3.57424">
        <ele>513</ele>
        <time>2016-01-05T14:19:04Z</time>
      </trkpt>
      <trkpt lat="43.80605" lon="3.57428">
        <ele>512.52</ele>
        <time>2016-01-05T14:21:57Z</time>
      </trkpt>
      <trkpt lat="43.80597" lon="3.57424">
        <ele>511.08</ele>
        <time>2016-01-05T14:22:12Z</time>
      </trkpt>
      <trkpt lat="43.80588" lon="3.57421">
        <ele>509.16</ele>
        <time>2016-01-05T14:22:22Z</time>
      </trkpt>
      <trkpt lat="43.80578" lon="3.57413">
        <ele>507.71</ele>
        <time>2016-01-05T14:22:32Z</time>
      </trkpt>
      <trkpt lat="43.8057" lon="3.57407">
        <ele>506.75</ele>
        <time>2016-01-05T14:22:40Z</time>
      </trkpt>
      <trkpt lat="43.80561" lon="3.57403">
        <ele>505.79</ele>
        <time>2016-01-05T14:22:49Z</time>
      </trkpt>
      <trkpt lat="43.80553" lon="3.57394">
        <ele>505.79</ele>
        <time>2016-01-05T14:22:59Z</time>
      </trkpt>
      <trkpt lat="43.80544" lon="3.57387">
        <ele>505.79</ele>
        <time>2016-01-05T14:23:08Z</time>
      </trkpt>
      <trkpt lat="43.80533" lon="3.57384">
        <ele>504.35</ele>
        <time>2016-01-05T14:23:17Z</time>
      </trkpt>
      <trkpt lat="43.80523" lon="3.57384">
        <ele>502.43</ele>
        <time>2016-01-05T14:23:27Z</time>
      </trkpt>
      <trkpt lat="43.80513" lon="3.57386">
        <ele>500.98</ele>
        <time>2016-01-05T14:23:37Z</time>
      </trkpt>
      <trkpt lat="43.80502" lon="3.57387">
        <ele>499.54</ele>
        <time>2016-01-05T14:23:46Z</time>
      </trkpt>
      <trkpt lat="43.8049" lon="3.57387">
        <ele>499.06</ele>
        <time>2016-01-05T14:23:55Z</time>
      </trkpt>
      <trkpt lat="43.80479" lon="3.57387">
        <ele>497.14</ele>
        <time>2016-01-05T14:24:05Z</time>
      </trkpt>
      <trkpt lat="43.80468" lon="3.57389">
        <ele>495.7</ele>
        <time>2016-01-05T14:24:15Z</time>
      </trkpt>
      <trkpt lat="43.80456" lon="3.5739">
        <ele>493.77</ele>
        <time>2016-01-05T14:24:25Z</time>
      </trkpt>
      <trkpt lat="43.80445" lon="3.5739">
        <ele>492.81</ele>
        <time>2016-01-05T14:24:35Z</time>
      </trkpt>
      <trkpt lat="43.80435" lon="3.57392">
        <ele>490.89</ele>
        <time>2016-01-05T14:24:45Z</time>
      </trkpt>
      <trkpt lat="43.80423" lon="3.57393">
        <ele>488.97</ele>
        <time>2016-01-05T14:24:54Z</time>
      </trkpt>
      <trkpt lat="43.80413" lon="3.57392">
        <ele>488.01</ele>
        <time>2016-01-05T14:25:03Z</time>
      </trkpt>
      <trkpt lat="43.80403" lon="3.57388">
        <ele>487.05</ele>
        <time>2016-01-05T14:25:11Z</time>
      </trkpt>
      <trkpt lat="43.80394" lon="3.57381">
        <ele>486.56</ele>
        <time>2016-01-05T14:25:20Z</time>
      </trkpt>
      <trkpt lat="43.80385" lon="3.57376">
        <ele>485.6</ele>
        <time>2016-01-05T14:25:30Z</time>
      </trkpt>
      <trkpt lat="43.80375" lon="3.57373">
        <ele>483.68</ele>
        <time>2016-01-05T14:25:40Z</time>
      </trkpt>
      <trkpt lat="43.80365" lon="3.57374">
        <ele>481.76</ele>
        <time>2016-01-05T14:25:52Z</time>
      </trkpt>
      <trkpt lat="43.80353" lon="3.57375">
        <ele>480.32</ele>
        <time>2016-01-05T14:26:01Z</time>
      </trkpt>
      <trkpt lat="43.80343" lon="3.57375">
        <ele>479.35</ele>
        <time>2016-01-05T14:26:10Z</time>
      </trkpt>
      <trkpt lat="43.80333" lon="3.57377">
        <ele>477.43</ele>
        <time>2016-01-05T14:26:21Z</time>
      </trkpt>
      <trkpt lat="43.80322" lon="3.57379">
        <ele>475.51</ele>
        <time>2016-01-05T14:26:32Z</time>
      </trkpt>
      <trkpt lat="43.80311" lon="3.57377">
        <ele>475.03</ele>
        <time>2016-01-05T14:26:41Z</time>
      </trkpt>
      <trkpt lat="43.803" lon="3.57373">
        <ele>474.07</ele>
        <time>2016-01-05T14:26:50Z</time>
      </trkpt>
      <trkpt lat="43.8029" lon="3.57369">
        <ele>473.11</ele>
        <time>2016-01-05T14:26:58Z</time>
      </trkpt>
      <trkpt lat="43.8028" lon="3.57364">
        <ele>472.14</ele>
        <time>2016-01-05T14:27:06Z</time>
      </trkpt>
      <trkpt lat="43.8027" lon="3.57359">
        <ele>472.63</ele>
        <time>2016-01-05T14:27:14Z</time>
      </trkpt>
      <trkpt lat="43.80261" lon="3.5735">
        <ele>471.66</ele>
        <time>2016-01-05T14:27:23Z</time>
      </trkpt>
      <trkpt lat="43.8025" lon="3.57346">
        <ele>471.18</ele>
        <time>2016-01-05T14:27:35Z</time>
      </trkpt>
      <trkpt lat="43.8024" lon="3.57346">
        <ele>468.78</ele>
        <time>2016-01-05T14:27:50Z</time>
      </trkpt>
      <trkpt lat="43.80234" lon="3.57333">
        <ele>467.34</ele>
        <time>2016-01-05T14:28:00Z</time>
      </trkpt>
      <trkpt lat="43.80225" lon="3.57324">
        <ele>464.93</ele>
        <time>2016-01-05T14:28:10Z</time>
      </trkpt>
      <trkpt lat="43.80217" lon="3.57315">
        <ele>462.05</ele>
        <time>2016-01-05T14:28:21Z</time>
      </trkpt>
      <trkpt lat="43.80208" lon="3.5731">
        <ele>459.65</ele>
        <time>2016-01-05T14:28:31Z</time>
      </trkpt>
      <trkpt lat="43.80199" lon="3.57309">
        <ele>458.21</ele>
        <time>2016-01-05T14:28:39Z</time>
      </trkpt>
      <trkpt lat="43.8019" lon="3.57308">
        <ele>456.28</ele>
        <time>2016-01-05T14:28:49Z</time>
      </trkpt>
      <trkpt lat="43.80193" lon="3.57315">
        <ele>454.36</ele>
        <time>2016-01-05T14:29:00Z</time>
      </trkpt>
      <trkpt lat="43.80202" lon="3.57323">
        <ele>452.44</ele>
        <time>2016-01-05T14:29:11Z</time>
      </trkpt>
      <trkpt lat="43.80209" lon="3.57335">
        <ele>451</ele>
        <time>2016-01-05T14:29:21Z</time>
      </trkpt>
      <trkpt lat="43.80216" lon="3.57346">
        <ele>448.59</ele>
        <time>2016-01-05T14:29:32Z</time>
      </trkpt>
      <trkpt lat="43.80222" lon="3.5736">
        <ele>447.15</ele>
        <time>2016-01-05T14:29:43Z</time>
      </trkpt>
      <trkpt lat="43.80228" lon="3.57373">
        <ele>445.23</ele>
        <time>2016-01-05T14:29:53Z</time>
      </trkpt>
      <trkpt lat="43.80236" lon="3.57381">
        <ele>444.75</ele>
        <time>2016-01-05T14:30:03Z</time>
      </trkpt>
      <trkpt lat="43.80236" lon="3.57388">
        <ele>442.34</ele>
        <time>2016-01-05T14:30:14Z</time>
      </trkpt>
      <trkpt lat="43.80227" lon="3.57385">
        <ele>440.42</ele>
        <time>2016-01-05T14:30:25Z</time>
      </trkpt>
      <trkpt lat="43.80217" lon="3.5738">
        <ele>438.98</ele>
        <time>2016-01-05T14:30:34Z</time>
      </trkpt>
      <trkpt lat="43.80208" lon="3.57373">
        <ele>436.58</ele>
        <time>2016-01-05T14:30:43Z</time>
      </trkpt>
      <trkpt lat="43.80202" lon="3.57364">
        <ele>435.13</ele>
        <time>2016-01-05T14:30:53Z</time>
      </trkpt>
      <trkpt lat="43.80193" lon="3.57356">
        <ele>433.21</ele>
        <time>2016-01-05T14:31:02Z</time>
      </trkpt>
      <trkpt lat="43.80182" lon="3.57353">
        <ele>431.77</ele>
        <time>2016-01-05T14:31:12Z</time>
      </trkpt>
      <trkpt lat="43.8017" lon="3.5735">
        <ele>430.81</ele>
        <time>2016-01-05T14:31:21Z</time>
      </trkpt>
      <trkpt lat="43.80167" lon="3.57354">
        <ele>429.37</ele>
        <time>2016-01-05T14:31:31Z</time>
      </trkpt>
      <trkpt lat="43.80176" lon="3.57366">
        <ele>426.96</ele>
        <time>2016-01-05T14:31:43Z</time>
      </trkpt>
      <trkpt lat="43.80184" lon="3.57378">
        <ele>425.04</ele>
        <time>2016-01-05T14:31:54Z</time>
      </trkpt>
      <trkpt lat="43.80186" lon="3.57391">
        <ele>423.12</ele>
        <time>2016-01-05T14:32:05Z</time>
      </trkpt>
      <trkpt lat="43.80176" lon="3.57385">
        <ele>421.19</ele>
        <time>2016-01-05T14:32:18Z</time>
      </trkpt>
      <trkpt lat="43.80167" lon="3.57382">
        <ele>419.27</ele>
        <time>2016-01-05T14:32:29Z</time>
      </trkpt>
      <trkpt lat="43.80156" lon="3.57378">
        <ele>417.35</ele>
        <time>2016-01-05T14:32:39Z</time>
      </trkpt>
      <trkpt lat="43.80149" lon="3.5737">
        <ele>415.43</ele>
        <time>2016-01-05T14:32:48Z</time>
      </trkpt>
      <trkpt lat="43.80139" lon="3.57362">
        <ele>413.98</ele>
        <time>2016-01-05T14:32:58Z</time>
      </trkpt>
      <trkpt lat="43.8013" lon="3.57354">
        <ele>412.06</ele>
        <time>2016-01-05T14:33:09Z</time>
      </trkpt>
      <trkpt lat="43.80124" lon="3.57355">
        <ele>410.14</ele>
        <time>2016-01-05T14:33:20Z</time>
      </trkpt>
      <trkpt lat="43.8013" lon="3.57365">
        <ele>407.74</ele>
        <time>2016-01-05T14:33:32Z</time>
      </trkpt>
      <trkpt lat="43.80135" lon="3.5738">
        <ele>406.29</ele>
        <time>2016-01-05T14:33:43Z</time>
      </trkpt>
      <trkpt lat="43.80138" lon="3.57394">
        <ele>404.37</ele>
        <time>2016-01-05T14:33:53Z</time>
      </trkpt>
      <trkpt lat="43.80134" lon="3.57408">
        <ele>402.93</ele>
        <time>2016-01-05T14:34:02Z</time>
      </trkpt>
      <trkpt lat="43.80129" lon="3.57408">
        <ele>400.05</ele>
        <time>2016-01-05T14:34:14Z</time>
      </trkpt>
      <trkpt lat="43.80122" lon="3.57398">
        <ele>398.12</ele>
        <time>2016-01-05T14:34:24Z</time>
      </trkpt>
      <trkpt lat="43.80114" lon="3.57388">
        <ele>397.16</ele>
        <time>2016-01-05T14:34:33Z</time>
      </trkpt>
      <trkpt lat="43.80105" lon="3.57381">
        <ele>395.24</ele>
        <time>2016-01-05T14:34:44Z</time>
      </trkpt>
      <trkpt lat="43.80113" lon="3.57393">
        <ele>391.87</ele>
        <time>2016-01-05T14:34:56Z</time>
      </trkpt>
      <trkpt lat="43.80109" lon="3.57408">
        <ele>389.47</ele>
        <time>2016-01-05T14:35:07Z</time>
      </trkpt>
      <trkpt lat="43.80104" lon="3.57415">
        <ele>387.07</ele>
        <time>2016-01-05T14:35:18Z</time>
      </trkpt>
      <trkpt lat="43.80098" lon="3.57403">
        <ele>385.15</ele>
        <time>2016-01-05T14:35:27Z</time>
      </trkpt>
      <trkpt lat="43.80089" lon="3.57393">
        <ele>384.18</ele>
        <time>2016-01-05T14:35:37Z</time>
      </trkpt>
      <trkpt lat="43.80081" lon="3.57391">
        <ele>381.78</ele>
        <time>2016-01-05T14:35:50Z</time>
      </trkpt>
      <trkpt lat="43.80086" lon="3.57401">
        <ele>378.9</ele>
        <time>2016-01-05T14:36:02Z</time>
      </trkpt>
      <trkpt lat="43.80086" lon="3.57411">
        <ele>376.49</ele>
        <time>2016-01-05T14:36:16Z</time>
      </trkpt>
      <trkpt lat="43.8008" lon="3.57405">
        <ele>373.13</ele>
        <time>2016-01-05T14:36:30Z</time>
      </trkpt>
      <trkpt lat="43.80082" lon="3.57418">
        <ele>371.21</ele>
        <time>2016-01-05T14:36:42Z</time>
      </trkpt>
      <trkpt lat="43.80075" lon="3.57409">
        <ele>368.32</ele>
        <time>2016-01-05T14:36:54Z</time>
      </trkpt>
      <trkpt lat="43.80067" lon="3.57397">
        <ele>364</ele>
        <time>2016-01-05T14:37:09Z</time>
      </trkpt>
      <trkpt lat="43.80057" lon="3.57388">
        <ele>362.55</ele>
        <time>2016-01-05T14:37:19Z</time>
      </trkpt>
      <trkpt lat="43.80052" lon="3.57378">
        <ele>361.11</ele>
        <time>2016-01-05T14:37:29Z</time>
      </trkpt>
      <trkpt lat="43.80041" lon="3.57367">
        <ele>360.15</ele>
        <time>2016-01-05T14:37:39Z</time>
      </trkpt>
      <trkpt lat="43.80039" lon="3.5738">
        <ele>356.79</ele>
        <time>2016-01-05T14:37:54Z</time>
      </trkpt>
      <trkpt lat="43.80046" lon="3.57392">
        <ele>353.42</ele>
        <time>2016-01-05T14:38:08Z</time>
      </trkpt>
      <trkpt lat="43.80053" lon="3.57409">
        <ele>350.54</ele>
        <time>2016-01-05T14:38:21Z</time>
      </trkpt>
      <trkpt lat="43.80063" lon="3.57423">
        <ele>347.17</ele>
        <time>2016-01-05T14:38:33Z</time>
      </trkpt>
      <trkpt lat="43.80071" lon="3.57437">
        <ele>344.77</ele>
        <time>2016-01-05T14:38:45Z</time>
      </trkpt>
      <trkpt lat="43.80079" lon="3.5745">
        <ele>343.33</ele>
        <time>2016-01-05T14:38:56Z</time>
      </trkpt>
      <trkpt lat="43.80085" lon="3.57468">
        <ele>340.92</ele>
        <time>2016-01-05T14:39:09Z</time>
      </trkpt>
      <trkpt lat="43.80091" lon="3.57483">
        <ele>339</ele>
        <time>2016-01-05T14:39:19Z</time>
      </trkpt>
      <trkpt lat="43.80101" lon="3.57501">
        <ele>336.12</ele>
        <time>2016-01-05T14:39:34Z</time>
      </trkpt>
      <trkpt lat="43.80109" lon="3.57513">
        <ele>333.23</ele>
        <time>2016-01-05T14:39:47Z</time>
      </trkpt>
      <trkpt lat="43.80113" lon="3.57536">
        <ele>330.35</ele>
        <time>2016-01-05T14:40:14Z</time>
      </trkpt>
      <trkpt lat="43.80107" lon="3.57548">
        <ele>330.35</ele>
        <time>2016-01-05T14:44:14Z</time>
      </trkpt>
      <trkpt lat="43.80111" lon="3.57561">
        <ele>329.39</ele>
        <time>2016-01-05T14:44:24Z</time>
      </trkpt>
      <trkpt lat="43.80117" lon="3.57574">
        <ele>327.95</ele>
        <time>2016-01-05T14:44:36Z</time>
      </trkpt>
      <trkpt lat="43.80123" lon="3.57591">
        <ele>325.54</ele>
        <time>2016-01-05T14:44:49Z</time>
      </trkpt>
      <trkpt lat="43.80126" lon="3.57607">
        <ele>323.14</ele>
        <time>2016-01-05T14:45:06Z</time>
      </trkpt>
      <trkpt lat="43.80126" lon="3.57619">
        <ele>320.26</ele>
        <time>2016-01-05T14:45:18Z</time>
      </trkpt>
      <trkpt lat="43.80131" lon="3.57634">
        <ele>316.41</ele>
        <time>2016-01-05T14:45:36Z</time>
      </trkpt>
      <trkpt lat="43.80129" lon="3.57649">
        <ele>314.49</ele>
        <time>2016-01-05T14:45:46Z</time>
      </trkpt>
      <trkpt lat="43.80125" lon="3.57668">
        <ele>312.09</ele>
        <time>2016-01-05T14:46:01Z</time>
      </trkpt>
      <trkpt lat="43.80124" lon="3.57687">
        <ele>310.64</ele>
        <time>2016-01-05T14:46:14Z</time>
      </trkpt>
      <trkpt lat="43.80117" lon="3.57702">
        <ele>307.76</ele>
        <time>2016-01-05T14:46:34Z</time>
      </trkpt>
      <trkpt lat="43.80111" lon="3.57719">
        <ele>304.39</ele>
        <time>2016-01-05T14:46:53Z</time>
      </trkpt>
      <trkpt lat="43.80104" lon="3.57732">
        <ele>302.47</ele>
        <time>2016-01-05T14:47:06Z</time>
      </trkpt>
      <trkpt lat="43.80108" lon="3.57745">
        <ele>301.99</ele>
        <time>2016-01-05T14:47:16Z</time>
      </trkpt>
      <trkpt lat="43.80116" lon="3.57756">
        <ele>299.59</ele>
        <time>2016-01-05T14:47:32Z</time>
      </trkpt>
      <trkpt lat="43.80118" lon="3.57773">
        <ele>297.18</ele>
        <time>2016-01-05T14:47:50Z</time>
      </trkpt>
      <trkpt lat="43.8012" lon="3.57786">
        <ele>295.74</ele>
        <time>2016-01-05T14:48:04Z</time>
      </trkpt>
      <trkpt lat="43.80122" lon="3.57803">
        <ele>294.3</ele>
        <time>2016-01-05T14:48:17Z</time>
      </trkpt>
      <trkpt lat="43.80133" lon="3.57815">
        <ele>292.38</ele>
        <time>2016-01-05T14:48:34Z</time>
      </trkpt>
      <trkpt lat="43.80142" lon="3.57823">
        <ele>289.49</ele>
        <time>2016-01-05T14:48:50Z</time>
      </trkpt>
      <trkpt lat="43.80149" lon="3.57835">
        <ele>288.05</ele>
        <time>2016-01-05T14:49:02Z</time>
      </trkpt>
      <trkpt lat="43.80152" lon="3.5785">
        <ele>286.61</ele>
        <time>2016-01-05T14:49:12Z</time>
      </trkpt>
      <trkpt lat="43.80155" lon="3.57865">
        <ele>284.69</ele>
        <time>2016-01-05T14:49:26Z</time>
      </trkpt>
      <trkpt lat="43.80162" lon="3.57877">
        <ele>283.25</ele>
        <time>2016-01-05T14:49:37Z</time>
      </trkpt>
      <trkpt lat="43.8017" lon="3.5789">
        <ele>282.28</ele>
        <time>2016-01-05T14:49:49Z</time>
      </trkpt>
      <trkpt lat="43.80175" lon="3.57906">
        <ele>280.36</ele>
        <time>2016-01-05T14:50:03Z</time>
      </trkpt>
      <trkpt lat="43.80179" lon="3.57923">
        <ele>277.48</ele>
        <time>2016-01-05T14:50:19Z</time>
      </trkpt>
      <trkpt lat="43.80187" lon="3.57935">
        <ele>276.04</ele>
        <time>2016-01-05T14:50:31Z</time>
      </trkpt>
      <trkpt lat="43.80196" lon="3.57946">
        <ele>275.07</ele>
        <time>2016-01-05T14:50:41Z</time>
      </trkpt>
      <trkpt lat="43.80203" lon="3.57954">
        <ele>274.11</ele>
        <time>2016-01-05T14:50:49Z</time>
      </trkpt>
      <trkpt lat="43.80212" lon="3.57966">
        <ele>273.15</ele>
        <time>2016-01-05T14:50:58Z</time>
      </trkpt>
      <trkpt lat="43.80219" lon="3.57976">
        <ele>272.19</ele>
        <time>2016-01-05T14:51:06Z</time>
      </trkpt>
      <trkpt lat="43.80227" lon="3.57988">
        <ele>271.23</ele>
        <time>2016-01-05T14:51:14Z</time>
      </trkpt>
      <trkpt lat="43.80232" lon="3.58003">
        <ele>270.27</ele>
        <time>2016-01-05T14:51:23Z</time>
      </trkpt>
      <trkpt lat="43.80239" lon="3.58014">
        <ele>269.31</ele>
        <time>2016-01-05T14:51:31Z</time>
      </trkpt>
      <trkpt lat="43.80246" lon="3.58026">
        <ele>268.35</ele>
        <time>2016-01-05T14:51:39Z</time>
      </trkpt>
      <trkpt lat="43.80253" lon="3.58037">
        <ele>267.38</ele>
        <time>2016-01-05T14:51:47Z</time>
      </trkpt>
      <trkpt lat="43.80258" lon="3.5805">
        <ele>267.86</ele>
        <time>2016-01-05T14:51:58Z</time>
      </trkpt>
      <trkpt lat="43.80262" lon="3.58068">
        <ele>269.79</ele>
        <time>2016-01-05T14:52:12Z</time>
      </trkpt>
      <trkpt lat="43.80265" lon="3.58084">
        <ele>268.83</ele>
        <time>2016-01-05T14:52:24Z</time>
      </trkpt>
      <trkpt lat="43.80272" lon="3.58095">
        <ele>268.83</ele>
        <time>2016-01-05T14:52:33Z</time>
      </trkpt>
      <trkpt lat="43.80277" lon="3.5811">
        <ele>267.38</ele>
        <time>2016-01-05T14:52:45Z</time>
      </trkpt>
      <trkpt lat="43.80285" lon="3.58124">
        <ele>266.42</ele>
        <time>2016-01-05T14:52:57Z</time>
      </trkpt>
      <trkpt lat="43.80291" lon="3.58138">
        <ele>264.98</ele>
        <time>2016-01-05T14:53:09Z</time>
      </trkpt>
      <trkpt lat="43.80298" lon="3.5815">
        <ele>263.54</ele>
        <time>2016-01-05T14:53:23Z</time>
      </trkpt>
      <trkpt lat="43.80307" lon="3.58161">
        <ele>259.21</ele>
        <time>2016-01-05T14:53:46Z</time>
      </trkpt>
      <trkpt lat="43.80318" lon="3.58172">
        <ele>256.33</ele>
        <time>2016-01-05T14:54:05Z</time>
      </trkpt>
      <trkpt lat="43.80327" lon="3.58183">
        <ele>255.37</ele>
        <time>2016-01-05T14:54:14Z</time>
      </trkpt>
      <trkpt lat="43.80334" lon="3.58198">
        <ele>255.85</ele>
        <time>2016-01-05T14:54:26Z</time>
      </trkpt>
      <trkpt lat="43.80337" lon="3.58215">
        <ele>254.89</ele>
        <time>2016-01-05T14:54:37Z</time>
      </trkpt>
      <trkpt lat="43.80337" lon="3.58232">
        <ele>255.37</ele>
        <time>2016-01-05T14:54:47Z</time>
      </trkpt>
      <trkpt lat="43.80333" lon="3.58248">
        <ele>255.37</ele>
        <time>2016-01-05T14:54:57Z</time>
      </trkpt>
      <trkpt lat="43.80332" lon="3.58265">
        <ele>253.44</ele>
        <time>2016-01-05T14:55:11Z</time>
      </trkpt>
      <trkpt lat="43.80337" lon="3.58277">
        <ele>251.52</ele>
        <time>2016-01-05T14:55:23Z</time>
      </trkpt>
      <trkpt lat="43.80345" lon="3.58294">
        <ele>247.68</ele>
        <time>2016-01-05T14:55:44Z</time>
      </trkpt>
      <trkpt lat="43.80351" lon="3.58308">
        <ele>245.27</ele>
        <time>2016-01-05T14:55:57Z</time>
      </trkpt>
      <trkpt lat="43.80354" lon="3.58327">
        <ele>243.83</ele>
        <time>2016-01-05T14:56:10Z</time>
      </trkpt>
      <trkpt lat="43.80359" lon="3.58344">
        <ele>241.43</ele>
        <time>2016-01-05T14:56:24Z</time>
      </trkpt>
      <trkpt lat="43.80361" lon="3.58362">
        <ele>239.51</ele>
        <time>2016-01-05T14:56:36Z</time>
      </trkpt>
      <trkpt lat="43.80368" lon="3.58375">
        <ele>238.06</ele>
        <time>2016-01-05T14:56:48Z</time>
      </trkpt>
      <trkpt lat="43.80375" lon="3.58388">
        <ele>236.14</ele>
        <time>2016-01-05T14:57:00Z</time>
      </trkpt>
      <trkpt lat="43.80377" lon="3.58404">
        <ele>235.18</ele>
        <time>2016-01-05T14:57:11Z</time>
      </trkpt>
      <trkpt lat="43.80382" lon="3.58423">
        <ele>234.7</ele>
        <time>2016-01-05T14:57:22Z</time>
      </trkpt>
      <trkpt lat="43.80386" lon="3.58442">
        <ele>232.78</ele>
        <time>2016-01-05T14:57:34Z</time>
      </trkpt>
      <trkpt lat="43.80387" lon="3.58459">
        <ele>230.85</ele>
        <time>2016-01-05T14:57:46Z</time>
      </trkpt>
      <trkpt lat="43.80394" lon="3.58475">
        <ele>230.37</ele>
        <time>2016-01-05T14:57:59Z</time>
      </trkpt>
      <trkpt lat="43.80397" lon="3.58491">
        <ele>228.45</ele>
        <time>2016-01-05T14:58:14Z</time>
      </trkpt>
      <trkpt lat="43.80405" lon="3.58508">
        <ele>227.97</ele>
        <time>2016-01-05T14:58:25Z</time>
      </trkpt>
      <trkpt lat="43.80412" lon="3.58521">
        <ele>228.45</ele>
        <time>2016-01-05T14:58:36Z</time>
      </trkpt>
      <trkpt lat="43.80419" lon="3.58536">
        <ele>229.41</ele>
        <time>2016-01-05T14:58:49Z</time>
      </trkpt>
      <trkpt lat="43.80427" lon="3.5855">
        <ele>231.81</ele>
        <time>2016-01-05T14:59:04Z</time>
      </trkpt>
      <trkpt lat="43.80438" lon="3.58559">
        <ele>232.78</ele>
        <time>2016-01-05T14:59:21Z</time>
      </trkpt>
      <trkpt lat="43.80447" lon="3.58569">
        <ele>234.7</ele>
        <time>2016-01-05T14:59:34Z</time>
      </trkpt>
      <trkpt lat="43.80453" lon="3.58582">
        <ele>235.18</ele>
        <time>2016-01-05T14:59:46Z</time>
      </trkpt>
      <trkpt lat="43.80458" lon="3.58599">
        <ele>237.1</ele>
        <time>2016-01-05T15:00:03Z</time>
      </trkpt>
      <trkpt lat="43.80461" lon="3.58616">
        <ele>238.06</ele>
        <time>2016-01-05T15:00:16Z</time>
      </trkpt>
      <trkpt lat="43.80463" lon="3.58632">
        <ele>239.99</ele>
        <time>2016-01-05T15:00:30Z</time>
      </trkpt>
      <trkpt lat="43.80464" lon="3.5865">
        <ele>242.39</ele>
        <time>2016-01-05T15:00:45Z</time>
      </trkpt>
      <trkpt lat="43.80471" lon="3.58641">
        <ele>244.79</ele>
        <time>2016-01-05T15:01:02Z</time>
      </trkpt>
      <trkpt lat="43.80477" lon="3.58651">
        <ele>245.75</ele>
        <time>2016-01-05T15:01:28Z</time>
      </trkpt>
      <trkpt lat="43.80485" lon="3.58667">
        <ele>246.23</ele>
        <time>2016-01-05T15:03:00Z</time>
      </trkpt>
      <trkpt lat="43.80493" lon="3.58678">
        <ele>245.75</ele>
        <time>2016-01-05T15:03:10Z</time>
      </trkpt>
      <trkpt lat="43.80501" lon="3.58688">
        <ele>245.75</ele>
        <time>2016-01-05T15:03:21Z</time>
      </trkpt>
      <trkpt lat="43.80511" lon="3.58695">
        <ele>244.31</ele>
        <time>2016-01-05T15:03:32Z</time>
      </trkpt>
      <trkpt lat="43.80521" lon="3.58703">
        <ele>244.31</ele>
        <time>2016-01-05T15:03:42Z</time>
      </trkpt>
      <trkpt lat="43.80531" lon="3.58712">
        <ele>244.79</ele>
        <time>2016-01-05T15:03:56Z</time>
      </trkpt>
      <trkpt lat="43.80539" lon="3.58722">
        <ele>245.75</ele>
        <time>2016-01-05T15:04:08Z</time>
      </trkpt>
      <trkpt lat="43.8055" lon="3.58733">
        <ele>247.2</ele>
        <time>2016-01-05T15:04:20Z</time>
      </trkpt>
      <trkpt lat="43.80562" lon="3.58743">
        <ele>249.6</ele>
        <time>2016-01-05T15:04:34Z</time>
      </trkpt>
      <trkpt lat="43.80572" lon="3.58746">
        <ele>253.44</ele>
        <time>2016-01-05T15:04:55Z</time>
      </trkpt>
      <trkpt lat="43.80576" lon="3.58755">
        <ele>255.85</ele>
        <time>2016-01-05T15:05:12Z</time>
      </trkpt>
      <trkpt lat="43.80586" lon="3.58764">
        <ele>253.93</ele>
        <time>2016-01-05T15:05:25Z</time>
      </trkpt>
      <trkpt lat="43.80595" lon="3.58774">
        <ele>252.96</ele>
        <time>2016-01-05T15:05:36Z</time>
      </trkpt>
      <trkpt lat="43.80604" lon="3.58768">
        <ele>252.96</ele>
        <time>2016-01-05T15:05:46Z</time>
      </trkpt>
      <trkpt lat="43.80612" lon="3.5876">
        <ele>253.44</ele>
        <time>2016-01-05T15:05:56Z</time>
      </trkpt>
      <trkpt lat="43.80622" lon="3.58758">
        <ele>252.48</ele>
        <time>2016-01-05T15:06:06Z</time>
      </trkpt>
      <trkpt lat="43.80625" lon="3.5877">
        <ele>249.6</ele>
        <time>2016-01-05T15:06:19Z</time>
      </trkpt>
      <trkpt lat="43.80637" lon="3.58783">
        <ele>245.27</ele>
        <time>2016-01-05T15:06:44Z</time>
      </trkpt>
      <trkpt lat="43.80646" lon="3.58784">
        <ele>242.39</ele>
        <time>2016-01-05T15:06:57Z</time>
      </trkpt>
      <trkpt lat="43.80649" lon="3.58799">
        <ele>239.99</ele>
        <time>2016-01-05T15:07:10Z</time>
      </trkpt>
      <trkpt lat="43.80656" lon="3.58786">
        <ele>238.06</ele>
        <time>2016-01-05T15:07:26Z</time>
      </trkpt>
      <trkpt lat="43.8066" lon="3.58772">
        <ele>237.58</ele>
        <time>2016-01-05T15:07:37Z</time>
      </trkpt>
      <trkpt lat="43.80665" lon="3.58758">
        <ele>236.62</ele>
        <time>2016-01-05T15:07:47Z</time>
      </trkpt>
      <trkpt lat="43.80673" lon="3.58746">
        <ele>235.18</ele>
        <time>2016-01-05T15:07:59Z</time>
      </trkpt>
      <trkpt lat="43.80673" lon="3.58755">
        <ele>231.33</ele>
        <time>2016-01-05T15:08:19Z</time>
      </trkpt>
      <trkpt lat="43.80686" lon="3.58751">
        <ele>227.97</ele>
        <time>2016-01-05T15:08:36Z</time>
      </trkpt>
      <trkpt lat="43.80694" lon="3.58741">
        <ele>225.09</ele>
        <time>2016-01-05T15:08:56Z</time>
      </trkpt>
      <trkpt lat="43.80706" lon="3.5873">
        <ele>221.24</ele>
        <time>2016-01-05T15:09:14Z</time>
      </trkpt>
      <trkpt lat="43.80721" lon="3.58727">
        <ele>218.84</ele>
        <time>2016-01-05T15:09:29Z</time>
      </trkpt>
      <trkpt lat="43.80736" lon="3.58725">
        <ele>216.43</ele>
        <time>2016-01-05T15:09:42Z</time>
      </trkpt>
      <trkpt lat="43.8075" lon="3.58721">
        <ele>213.55</ele>
        <time>2016-01-05T15:09:58Z</time>
      </trkpt>
      <trkpt lat="43.80762" lon="3.58714">
        <ele>212.59</ele>
        <time>2016-01-05T15:10:11Z</time>
      </trkpt>
      <trkpt lat="43.80772" lon="3.58711">
        <ele>210.67</ele>
        <time>2016-01-05T15:10:32Z</time>
      </trkpt>
      <trkpt lat="43.80784" lon="3.58705">
        <ele>208.26</ele>
        <time>2016-01-05T15:10:47Z</time>
      </trkpt>
      <trkpt lat="43.80795" lon="3.58701">
        <ele>206.82</ele>
        <time>2016-01-05T15:10:59Z</time>
      </trkpt>
      <trkpt lat="43.80809" lon="3.58694">
        <ele>202.49</ele>
        <time>2016-01-05T15:11:18Z</time>
      </trkpt>
      <trkpt lat="43.80825" lon="3.58693">
        <ele>199.61</ele>
        <time>2016-01-05T15:11:36Z</time>
      </trkpt>
      <trkpt lat="43.80841" lon="3.58686">
        <ele>198.65</ele>
        <time>2016-01-05T15:11:47Z</time>
      </trkpt>
      <trkpt lat="43.8085" lon="3.58685">
        <ele>197.21</ele>
        <time>2016-01-05T15:11:55Z</time>
      </trkpt>
      <trkpt lat="43.80862" lon="3.58679">
        <ele>195.28</ele>
        <time>2016-01-05T15:12:08Z</time>
      </trkpt>
      <trkpt lat="43.80878" lon="3.58671">
        <ele>194.32</ele>
        <time>2016-01-05T15:12:20Z</time>
      </trkpt>
      <trkpt lat="43.80888" lon="3.58663">
        <ele>192.88</ele>
        <time>2016-01-05T15:12:29Z</time>
      </trkpt>
      <trkpt lat="43.809" lon="3.58651">
        <ele>190</ele>
        <time>2016-01-05T15:12:46Z</time>
      </trkpt>
      <trkpt lat="43.80909" lon="3.58636">
        <ele>187.11</ele>
        <time>2016-01-05T15:12:59Z</time>
      </trkpt>
      <trkpt lat="43.80921" lon="3.58621">
        <ele>183.27</ele>
        <time>2016-01-05T15:13:17Z</time>
      </trkpt>
      <trkpt lat="43.80935" lon="3.58616">
        <ele>181.83</ele>
        <time>2016-01-05T15:13:29Z</time>
      </trkpt>
      <trkpt lat="43.80952" lon="3.58612">
        <ele>180.87</ele>
        <time>2016-01-05T15:13:42Z</time>
      </trkpt>
      <trkpt lat="43.80965" lon="3.58609">
        <ele>179.9</ele>
        <time>2016-01-05T15:13:54Z</time>
      </trkpt>
      <trkpt lat="43.80977" lon="3.58602">
        <ele>177.5</ele>
        <time>2016-01-05T15:14:09Z</time>
      </trkpt>
      <trkpt lat="43.80989" lon="3.58603">
        <ele>175.58</ele>
        <time>2016-01-05T15:14:22Z</time>
      </trkpt>
      <trkpt lat="43.81004" lon="3.5861">
        <ele>173.66</ele>
        <time>2016-01-05T15:14:38Z</time>
      </trkpt>
      <trkpt lat="43.81021" lon="3.58613">
        <ele>172.21</ele>
        <time>2016-01-05T15:14:52Z</time>
      </trkpt>
      <trkpt lat="43.81029" lon="3.58624">
        <ele>171.73</ele>
        <time>2016-01-05T15:15:04Z</time>
      </trkpt>
      <trkpt lat="43.81035" lon="3.58641">
        <ele>169.81</ele>
        <time>2016-01-05T15:17:08Z</time>
      </trkpt>
      <trkpt lat="43.81038" lon="3.58656">
        <ele>170.29</ele>
        <time>2016-01-05T15:17:20Z</time>
      </trkpt>
      <trkpt lat="43.81044" lon="3.58667">
        <ele>171.25</ele>
        <time>2016-01-05T15:17:29Z</time>
      </trkpt>
      <trkpt lat="43.8105" lon="3.5868">
        <ele>171.25</ele>
        <time>2016-01-05T15:17:38Z</time>
      </trkpt>
      <trkpt lat="43.81056" lon="3.58692">
        <ele>171.73</ele>
        <time>2016-01-05T15:17:47Z</time>
      </trkpt>
      <trkpt lat="43.81063" lon="3.58704">
        <ele>171.73</ele>
        <time>2016-01-05T15:17:57Z</time>
      </trkpt>
      <trkpt lat="43.81071" lon="3.58716">
        <ele>172.21</ele>
        <time>2016-01-05T15:18:06Z</time>
      </trkpt>
      <trkpt lat="43.81076" lon="3.58727">
        <ele>171.25</ele>
        <time>2016-01-05T15:18:14Z</time>
      </trkpt>
      <trkpt lat="43.81081" lon="3.58738">
        <ele>170.77</ele>
        <time>2016-01-05T15:18:22Z</time>
      </trkpt>
      <trkpt lat="43.81085" lon="3.58751">
        <ele>170.29</ele>
        <time>2016-01-05T15:18:30Z</time>
      </trkpt>
      <trkpt lat="43.81091" lon="3.58762">
        <ele>169.33</ele>
        <time>2016-01-05T15:18:39Z</time>
      </trkpt>
      <trkpt lat="43.81102" lon="3.58767">
        <ele>168.85</ele>
        <time>2016-01-05T15:18:50Z</time>
      </trkpt>
      <trkpt lat="43.81112" lon="3.58775">
        <ele>168.85</ele>
        <time>2016-01-05T15:18:59Z</time>
      </trkpt>
      <trkpt lat="43.81118" lon="3.58789">
        <ele>168.85</ele>
        <time>2016-01-05T15:19:09Z</time>
      </trkpt>
      <trkpt lat="43.81121" lon="3.58806">
        <ele>168.37</ele>
        <time>2016-01-05T15:19:20Z</time>
      </trkpt>
      <trkpt lat="43.81126" lon="3.58819">
        <ele>167.89</ele>
        <time>2016-01-05T15:19:29Z</time>
      </trkpt>
      <trkpt lat="43.81132" lon="3.58834">
        <ele>167.89</ele>
        <time>2016-01-05T15:19:37Z</time>
      </trkpt>
      <trkpt lat="43.81139" lon="3.58845">
        <ele>167.89</ele>
        <time>2016-01-05T15:19:45Z</time>
      </trkpt>
      <trkpt lat="43.81145" lon="3.5886">
        <ele>167.41</ele>
        <time>2016-01-05T15:19:54Z</time>
      </trkpt>
      <trkpt lat="43.81151" lon="3.58873">
        <ele>166.93</ele>
        <time>2016-01-05T15:20:03Z</time>
      </trkpt>
      <trkpt lat="43.81159" lon="3.58886">
        <ele>166.45</ele>
        <time>2016-01-05T15:20:12Z</time>
      </trkpt>
      <trkpt lat="43.81165" lon="3.58897">
        <ele>166.45</ele>
        <time>2016-01-05T15:20:19Z</time>
      </trkpt>
      <trkpt lat="43.81168" lon="3.58911">
        <ele>165.96</ele>
        <time>2016-01-05T15:20:28Z</time>
      </trkpt>
      <trkpt lat="43.81177" lon="3.5892">
        <ele>165.96</ele>
        <time>2016-01-05T15:20:38Z</time>
      </trkpt>
      <trkpt lat="43.81185" lon="3.58928">
        <ele>165.48</ele>
        <time>2016-01-05T15:20:46Z</time>
      </trkpt>
      <trkpt lat="43.81193" lon="3.58936">
        <ele>166.45</ele>
        <time>2016-01-05T15:20:53Z</time>
      </trkpt>
      <trkpt lat="43.81202" lon="3.58945">
        <ele>165.96</ele>
        <time>2016-01-05T15:21:01Z</time>
      </trkpt>
      <trkpt lat="43.81211" lon="3.58951">
        <ele>166.45</ele>
        <time>2016-01-05T15:21:09Z</time>
      </trkpt>
      <trkpt lat="43.8122" lon="3.58958">
        <ele>166.45</ele>
        <time>2016-01-05T15:21:18Z</time>
      </trkpt>
      <trkpt lat="43.8123" lon="3.58964">
        <ele>169.81</ele>
        <time>2016-01-05T15:21:34Z</time>
      </trkpt>
      <trkpt lat="43.81239" lon="3.5897">
        <ele>170.77</ele>
        <time>2016-01-05T15:21:45Z</time>
      </trkpt>
      <trkpt lat="43.81247" lon="3.5898">
        <ele>172.69</ele>
        <time>2016-01-05T15:21:55Z</time>
      </trkpt>
      <trkpt lat="43.81251" lon="3.58993">
        <ele>172.69</ele>
        <time>2016-01-05T15:22:04Z</time>
      </trkpt>
      <trkpt lat="43.81252" lon="3.59006">
        <ele>171.25</ele>
        <time>2016-01-05T15:22:13Z</time>
      </trkpt>
      <trkpt lat="43.81253" lon="3.5902">
        <ele>170.29</ele>
        <time>2016-01-05T15:22:22Z</time>
      </trkpt>
      <trkpt lat="43.81255" lon="3.59033">
        <ele>168.37</ele>
        <time>2016-01-05T15:22:31Z</time>
      </trkpt>
      <trkpt lat="43.81261" lon="3.59045">
        <ele>169.33</ele>
        <time>2016-01-05T15:22:42Z</time>
      </trkpt>
      <trkpt lat="43.81263" lon="3.5906">
        <ele>168.37</ele>
        <time>2016-01-05T15:22:53Z</time>
      </trkpt>
      <trkpt lat="43.81267" lon="3.59074">
        <ele>166.93</ele>
        <time>2016-01-05T15:23:04Z</time>
      </trkpt>
      <trkpt lat="43.81275" lon="3.59084">
        <ele>166.93</ele>
        <time>2016-01-05T15:23:15Z</time>
      </trkpt>
    </trkseg>
  </trk>
</gpx>